<?xml version="1.0" encoding="UTF-8" standalone="no" ?>
<gpx xmlns="http://www.topografix.com/GPX/1/1" xmlns:xsi="http://www.w3.org/2001/XMLSchema-instance" xsi:schemaLocation="http://www.topografix.com/GPX/1/1 http://www.topografix.com/GPX/1/1/gpx.xsd" version="1.1" creator="VisuGPX - https://www.visugpx.com">
  <metadata>
    <name>Brézès-Crêtes de Tarsimoure</name>
  </metadata>
  <trk>
    <name><![CDATA[2021-09-29 15:49:56]]></name>
    <trkseg>
      <trkpt lat="44.51769" lon="5.5417">
        <ele>903.3</ele>
        <time>2021-09-29T07:20:26Z</time>
      </trkpt>
      <trkpt lat="44.51769" lon="5.5417">
        <ele>903.3</ele>
        <time>2021-09-29T07:20:27Z</time>
      </trkpt>
      <trkpt lat="44.51768" lon="5.5417">
        <ele>906.66</ele>
        <time>2021-09-29T07:20:39Z</time>
      </trkpt>
      <trkpt lat="44.51768" lon="5.54169">
        <ele>907.62</ele>
        <time>2021-09-29T07:20:41Z</time>
      </trkpt>
      <trkpt lat="44.51768" lon="5.54169">
        <ele>904.74</ele>
        <time>2021-09-29T07:21:03Z</time>
      </trkpt>
      <trkpt lat="44.51768" lon="5.54169">
        <ele>904.74</ele>
        <time>2021-09-29T07:21:49Z</time>
      </trkpt>
      <trkpt lat="44.51769" lon="5.54169">
        <ele>904.74</ele>
        <time>2021-09-29T07:22:08Z</time>
      </trkpt>
      <trkpt lat="44.51769" lon="5.54169">
        <ele>904.74</ele>
        <time>2021-09-29T07:22:26Z</time>
      </trkpt>
      <trkpt lat="44.51769" lon="5.54169">
        <ele>904.26</ele>
        <time>2021-09-29T07:22:44Z</time>
      </trkpt>
      <trkpt lat="44.51769" lon="5.54169">
        <ele>904.26</ele>
        <time>2021-09-29T07:23:36Z</time>
      </trkpt>
      <trkpt lat="44.51767" lon="5.54169">
        <ele>904.26</ele>
        <time>2021-09-29T07:23:52Z</time>
      </trkpt>
      <trkpt lat="44.51766" lon="5.54171">
        <ele>904.26</ele>
        <time>2021-09-29T07:24:07Z</time>
      </trkpt>
      <trkpt lat="44.51765" lon="5.54171">
        <ele>904.26</ele>
        <time>2021-09-29T07:24:23Z</time>
      </trkpt>
      <trkpt lat="44.51765" lon="5.54171">
        <ele>904.26</ele>
        <time>2021-09-29T07:24:45Z</time>
      </trkpt>
      <trkpt lat="44.51766" lon="5.54171">
        <ele>904.26</ele>
        <time>2021-09-29T07:25:22Z</time>
      </trkpt>
      <trkpt lat="44.51766" lon="5.54166">
        <ele>904.26</ele>
        <time>2021-09-29T07:25:34Z</time>
      </trkpt>
      <trkpt lat="44.51769" lon="5.54156">
        <ele>904.26</ele>
        <time>2021-09-29T07:25:47Z</time>
      </trkpt>
      <trkpt lat="44.5177" lon="5.54146">
        <ele>905.22</ele>
        <time>2021-09-29T07:25:56Z</time>
      </trkpt>
      <trkpt lat="44.51768" lon="5.54145">
        <ele>905.22</ele>
        <time>2021-09-29T07:25:58Z</time>
      </trkpt>
      <trkpt lat="44.51767" lon="5.54144">
        <ele>905.22</ele>
        <time>2021-09-29T07:25:59Z</time>
      </trkpt>
      <trkpt lat="44.51766" lon="5.54143">
        <ele>905.22</ele>
        <time>2021-09-29T07:26:00Z</time>
      </trkpt>
      <trkpt lat="44.51755" lon="5.54125">
        <ele>908.1</ele>
        <time>2021-09-29T07:26:19Z</time>
      </trkpt>
      <trkpt lat="44.51745" lon="5.54113">
        <ele>910.99</ele>
        <time>2021-09-29T07:26:37Z</time>
      </trkpt>
      <trkpt lat="44.51735" lon="5.54102">
        <ele>914.35</ele>
        <time>2021-09-29T07:26:54Z</time>
      </trkpt>
      <trkpt lat="44.51733" lon="5.54087">
        <ele>916.75</ele>
        <time>2021-09-29T07:27:09Z</time>
      </trkpt>
      <trkpt lat="44.51735" lon="5.54068">
        <ele>917.72</ele>
        <time>2021-09-29T07:27:24Z</time>
      </trkpt>
      <trkpt lat="44.51731" lon="5.54048">
        <ele>917.24</ele>
        <time>2021-09-29T07:27:40Z</time>
      </trkpt>
      <trkpt lat="44.51721" lon="5.54026">
        <ele>918.2</ele>
        <time>2021-09-29T07:27:58Z</time>
      </trkpt>
      <trkpt lat="44.51711" lon="5.53998">
        <ele>920.12</ele>
        <time>2021-09-29T07:28:20Z</time>
      </trkpt>
      <trkpt lat="44.51703" lon="5.53979">
        <ele>921.56</ele>
        <time>2021-09-29T07:28:38Z</time>
      </trkpt>
      <trkpt lat="44.51693" lon="5.53959">
        <ele>923.96</ele>
        <time>2021-09-29T07:29:02Z</time>
      </trkpt>
      <trkpt lat="44.51681" lon="5.53935">
        <ele>927.33</ele>
        <time>2021-09-29T07:29:25Z</time>
      </trkpt>
      <trkpt lat="44.5167" lon="5.53915">
        <ele>930.21</ele>
        <time>2021-09-29T07:29:49Z</time>
      </trkpt>
      <trkpt lat="44.51665" lon="5.53894">
        <ele>932.62</ele>
        <time>2021-09-29T07:30:09Z</time>
      </trkpt>
      <trkpt lat="44.51661" lon="5.53879">
        <ele>935.02</ele>
        <time>2021-09-29T07:30:24Z</time>
      </trkpt>
      <trkpt lat="44.51655" lon="5.53864">
        <ele>937.42</ele>
        <time>2021-09-29T07:30:41Z</time>
      </trkpt>
      <trkpt lat="44.51646" lon="5.5385">
        <ele>939.83</ele>
        <time>2021-09-29T07:30:59Z</time>
      </trkpt>
      <trkpt lat="44.5164" lon="5.53842">
        <ele>941.75</ele>
        <time>2021-09-29T07:31:16Z</time>
      </trkpt>
      <trkpt lat="44.51629" lon="5.53825">
        <ele>942.71</ele>
        <time>2021-09-29T07:31:34Z</time>
      </trkpt>
      <trkpt lat="44.5162" lon="5.53808">
        <ele>944.63</ele>
        <time>2021-09-29T07:31:50Z</time>
      </trkpt>
      <trkpt lat="44.51617" lon="5.53793">
        <ele>947.04</ele>
        <time>2021-09-29T07:32:03Z</time>
      </trkpt>
      <trkpt lat="44.51615" lon="5.53773">
        <ele>949.44</ele>
        <time>2021-09-29T07:32:21Z</time>
      </trkpt>
      <trkpt lat="44.51613" lon="5.53757">
        <ele>952.32</ele>
        <time>2021-09-29T07:32:41Z</time>
      </trkpt>
      <trkpt lat="44.516" lon="5.53736">
        <ele>955.21</ele>
        <time>2021-09-29T07:33:05Z</time>
      </trkpt>
      <trkpt lat="44.51584" lon="5.53708">
        <ele>953.77</ele>
        <time>2021-09-29T07:33:29Z</time>
      </trkpt>
      <trkpt lat="44.51565" lon="5.53673">
        <ele>951.84</ele>
        <time>2021-09-29T07:33:55Z</time>
      </trkpt>
      <trkpt lat="44.51563" lon="5.53646">
        <ele>950.88</ele>
        <time>2021-09-29T07:34:12Z</time>
      </trkpt>
      <trkpt lat="44.51563" lon="5.53625">
        <ele>949.92</ele>
        <time>2021-09-29T07:34:24Z</time>
      </trkpt>
      <trkpt lat="44.51562" lon="5.53596">
        <ele>947.52</ele>
        <time>2021-09-29T07:34:41Z</time>
      </trkpt>
      <trkpt lat="44.51561" lon="5.53562">
        <ele>946.07</ele>
        <time>2021-09-29T07:35:02Z</time>
      </trkpt>
      <trkpt lat="44.51557" lon="5.53531">
        <ele>947.04</ele>
        <time>2021-09-29T07:35:26Z</time>
      </trkpt>
      <trkpt lat="44.51556" lon="5.53529">
        <ele>947.04</ele>
        <time>2021-09-29T07:35:28Z</time>
      </trkpt>
      <trkpt lat="44.51556" lon="5.53528">
        <ele>947.04</ele>
        <time>2021-09-29T07:35:29Z</time>
      </trkpt>
      <trkpt lat="44.51555" lon="5.53519">
        <ele>947.52</ele>
        <time>2021-09-29T07:35:48Z</time>
      </trkpt>
      <trkpt lat="44.51548" lon="5.53506">
        <ele>948</ele>
        <time>2021-09-29T07:36:06Z</time>
      </trkpt>
      <trkpt lat="44.51541" lon="5.53503">
        <ele>948.48</ele>
        <time>2021-09-29T07:36:30Z</time>
      </trkpt>
      <trkpt lat="44.51532" lon="5.53491">
        <ele>951.36</ele>
        <time>2021-09-29T07:36:50Z</time>
      </trkpt>
      <trkpt lat="44.51526" lon="5.53483">
        <ele>954.25</ele>
        <time>2021-09-29T07:37:05Z</time>
      </trkpt>
      <trkpt lat="44.51518" lon="5.5349">
        <ele>957.13</ele>
        <time>2021-09-29T07:37:27Z</time>
      </trkpt>
      <trkpt lat="44.5151" lon="5.53495">
        <ele>960.49</ele>
        <time>2021-09-29T07:37:47Z</time>
      </trkpt>
      <trkpt lat="44.51507" lon="5.53489">
        <ele>963.38</ele>
        <time>2021-09-29T07:38:03Z</time>
      </trkpt>
      <trkpt lat="44.51504" lon="5.53486">
        <ele>966.74</ele>
        <time>2021-09-29T07:38:20Z</time>
      </trkpt>
      <trkpt lat="44.51498" lon="5.53486">
        <ele>969.63</ele>
        <time>2021-09-29T07:38:37Z</time>
      </trkpt>
      <trkpt lat="44.51494" lon="5.53482">
        <ele>972.99</ele>
        <time>2021-09-29T07:38:55Z</time>
      </trkpt>
      <trkpt lat="44.51494" lon="5.53469">
        <ele>975.88</ele>
        <time>2021-09-29T07:39:15Z</time>
      </trkpt>
      <trkpt lat="44.51492" lon="5.53459">
        <ele>979.24</ele>
        <time>2021-09-29T07:39:31Z</time>
      </trkpt>
      <trkpt lat="44.51487" lon="5.53446">
        <ele>982.6</ele>
        <time>2021-09-29T07:39:50Z</time>
      </trkpt>
      <trkpt lat="44.51481" lon="5.53427">
        <ele>985.49</ele>
        <time>2021-09-29T07:40:11Z</time>
      </trkpt>
      <trkpt lat="44.51479" lon="5.53402">
        <ele>987.89</ele>
        <time>2021-09-29T07:40:36Z</time>
      </trkpt>
      <trkpt lat="44.51476" lon="5.53372">
        <ele>990.3</ele>
        <time>2021-09-29T07:41:03Z</time>
      </trkpt>
      <trkpt lat="44.51475" lon="5.53356">
        <ele>993.18</ele>
        <time>2021-09-29T07:41:23Z</time>
      </trkpt>
      <trkpt lat="44.51479" lon="5.53335">
        <ele>996.54</ele>
        <time>2021-09-29T07:41:44Z</time>
      </trkpt>
      <trkpt lat="44.51482" lon="5.53316">
        <ele>999.43</ele>
        <time>2021-09-29T07:42:04Z</time>
      </trkpt>
      <trkpt lat="44.51485" lon="5.53304">
        <ele>1002.79</ele>
        <time>2021-09-29T07:42:20Z</time>
      </trkpt>
      <trkpt lat="44.51488" lon="5.53288">
        <ele>1005.68</ele>
        <time>2021-09-29T07:42:39Z</time>
      </trkpt>
      <trkpt lat="44.5149" lon="5.5327">
        <ele>1008.56</ele>
        <time>2021-09-29T07:43:01Z</time>
      </trkpt>
      <trkpt lat="44.51491" lon="5.53254">
        <ele>1011.93</ele>
        <time>2021-09-29T07:43:24Z</time>
      </trkpt>
      <trkpt lat="44.5149" lon="5.53238">
        <ele>1014.81</ele>
        <time>2021-09-29T07:43:45Z</time>
      </trkpt>
      <trkpt lat="44.51492" lon="5.53219">
        <ele>1017.69</ele>
        <time>2021-09-29T07:44:05Z</time>
      </trkpt>
      <trkpt lat="44.51494" lon="5.53203">
        <ele>1020.58</ele>
        <time>2021-09-29T07:44:24Z</time>
      </trkpt>
      <trkpt lat="44.51494" lon="5.53189">
        <ele>1023.94</ele>
        <time>2021-09-29T07:44:43Z</time>
      </trkpt>
      <trkpt lat="44.51501" lon="5.53165">
        <ele>1026.83</ele>
        <time>2021-09-29T07:45:08Z</time>
      </trkpt>
      <trkpt lat="44.515" lon="5.53149">
        <ele>1029.71</ele>
        <time>2021-09-29T07:45:30Z</time>
      </trkpt>
      <trkpt lat="44.51504" lon="5.5313">
        <ele>1032.59</ele>
        <time>2021-09-29T07:45:52Z</time>
      </trkpt>
      <trkpt lat="44.51504" lon="5.53112">
        <ele>1035.48</ele>
        <time>2021-09-29T07:46:14Z</time>
      </trkpt>
      <trkpt lat="44.51494" lon="5.531">
        <ele>1038.36</ele>
        <time>2021-09-29T07:46:36Z</time>
      </trkpt>
      <trkpt lat="44.51488" lon="5.53099">
        <ele>1039.8</ele>
        <time>2021-09-29T07:46:48Z</time>
      </trkpt>
      <trkpt lat="44.51473" lon="5.5309">
        <ele>1038.84</ele>
        <time>2021-09-29T07:47:06Z</time>
      </trkpt>
      <trkpt lat="44.51467" lon="5.5308">
        <ele>1038.36</ele>
        <time>2021-09-29T07:47:16Z</time>
      </trkpt>
      <trkpt lat="44.51449" lon="5.53067">
        <ele>1041.25</ele>
        <time>2021-09-29T07:47:47Z</time>
      </trkpt>
      <trkpt lat="44.51439" lon="5.53067">
        <ele>1044.61</ele>
        <time>2021-09-29T07:48:10Z</time>
      </trkpt>
      <trkpt lat="44.51424" lon="5.53061">
        <ele>1047.49</ele>
        <time>2021-09-29T07:48:32Z</time>
      </trkpt>
      <trkpt lat="44.51414" lon="5.53052">
        <ele>1047.97</ele>
        <time>2021-09-29T07:48:52Z</time>
      </trkpt>
      <trkpt lat="44.51401" lon="5.53039">
        <ele>1045.57</ele>
        <time>2021-09-29T07:49:13Z</time>
      </trkpt>
      <trkpt lat="44.51397" lon="5.53033">
        <ele>1047.97</ele>
        <time>2021-09-29T07:49:30Z</time>
      </trkpt>
      <trkpt lat="44.51383" lon="5.53026">
        <ele>1051.34</ele>
        <time>2021-09-29T07:49:47Z</time>
      </trkpt>
      <trkpt lat="44.51379" lon="5.53026">
        <ele>1051.82</ele>
        <time>2021-09-29T07:49:51Z</time>
      </trkpt>
      <trkpt lat="44.51365" lon="5.53024">
        <ele>1053.74</ele>
        <time>2021-09-29T07:50:08Z</time>
      </trkpt>
      <trkpt lat="44.51361" lon="5.53023">
        <ele>1053.74</ele>
        <time>2021-09-29T07:50:11Z</time>
      </trkpt>
      <trkpt lat="44.51341" lon="5.53027">
        <ele>1053.74</ele>
        <time>2021-09-29T07:50:30Z</time>
      </trkpt>
      <trkpt lat="44.51318" lon="5.53032">
        <ele>1054.22</ele>
        <time>2021-09-29T07:50:53Z</time>
      </trkpt>
      <trkpt lat="44.51296" lon="5.53027">
        <ele>1052.3</ele>
        <time>2021-09-29T07:51:17Z</time>
      </trkpt>
      <trkpt lat="44.51285" lon="5.53015">
        <ele>1051.82</ele>
        <time>2021-09-29T07:51:35Z</time>
      </trkpt>
      <trkpt lat="44.51281" lon="5.53">
        <ele>1053.26</ele>
        <time>2021-09-29T07:51:52Z</time>
      </trkpt>
      <trkpt lat="44.51271" lon="5.52985">
        <ele>1055.18</ele>
        <time>2021-09-29T07:52:13Z</time>
      </trkpt>
      <trkpt lat="44.51267" lon="5.52968">
        <ele>1058.07</ele>
        <time>2021-09-29T07:52:33Z</time>
      </trkpt>
      <trkpt lat="44.51257" lon="5.52945">
        <ele>1059.51</ele>
        <time>2021-09-29T07:52:54Z</time>
      </trkpt>
      <trkpt lat="44.51245" lon="5.5293">
        <ele>1061.43</ele>
        <time>2021-09-29T07:53:10Z</time>
      </trkpt>
      <trkpt lat="44.51237" lon="5.52912">
        <ele>1062.87</ele>
        <time>2021-09-29T07:53:26Z</time>
      </trkpt>
      <trkpt lat="44.51226" lon="5.52902">
        <ele>1064.32</ele>
        <time>2021-09-29T07:53:42Z</time>
      </trkpt>
      <trkpt lat="44.51219" lon="5.52891">
        <ele>1065.28</ele>
        <time>2021-09-29T07:53:54Z</time>
      </trkpt>
      <trkpt lat="44.51208" lon="5.52877">
        <ele>1065.76</ele>
        <time>2021-09-29T07:54:10Z</time>
      </trkpt>
      <trkpt lat="44.51199" lon="5.52871">
        <ele>1065.28</ele>
        <time>2021-09-29T07:54:21Z</time>
      </trkpt>
      <trkpt lat="44.5119" lon="5.52851">
        <ele>1065.28</ele>
        <time>2021-09-29T07:54:39Z</time>
      </trkpt>
      <trkpt lat="44.51185" lon="5.52829">
        <ele>1066.24</ele>
        <time>2021-09-29T07:54:56Z</time>
      </trkpt>
      <trkpt lat="44.51183" lon="5.52808">
        <ele>1067.68</ele>
        <time>2021-09-29T07:55:15Z</time>
      </trkpt>
      <trkpt lat="44.51181" lon="5.52794">
        <ele>1068.16</ele>
        <time>2021-09-29T07:55:30Z</time>
      </trkpt>
      <trkpt lat="44.51176" lon="5.5278">
        <ele>1069.6</ele>
        <time>2021-09-29T07:55:47Z</time>
      </trkpt>
      <trkpt lat="44.51173" lon="5.52774">
        <ele>1070.57</ele>
        <time>2021-09-29T07:55:53Z</time>
      </trkpt>
      <trkpt lat="44.51172" lon="5.5275">
        <ele>1072.97</ele>
        <time>2021-09-29T07:56:15Z</time>
      </trkpt>
      <trkpt lat="44.51175" lon="5.52736">
        <ele>1075.85</ele>
        <time>2021-09-29T07:56:36Z</time>
      </trkpt>
      <trkpt lat="44.51178" lon="5.52723">
        <ele>1077.78</ele>
        <time>2021-09-29T07:56:57Z</time>
      </trkpt>
      <trkpt lat="44.51192" lon="5.52703">
        <ele>1080.18</ele>
        <time>2021-09-29T07:57:25Z</time>
      </trkpt>
      <trkpt lat="44.51194" lon="5.52681">
        <ele>1083.06</ele>
        <time>2021-09-29T07:57:45Z</time>
      </trkpt>
      <trkpt lat="44.51195" lon="5.52663">
        <ele>1085.47</ele>
        <time>2021-09-29T07:58:05Z</time>
      </trkpt>
      <trkpt lat="44.51199" lon="5.52646">
        <ele>1087.87</ele>
        <time>2021-09-29T07:58:22Z</time>
      </trkpt>
      <trkpt lat="44.51203" lon="5.52635">
        <ele>1090.75</ele>
        <time>2021-09-29T07:58:38Z</time>
      </trkpt>
      <trkpt lat="44.51213" lon="5.5263">
        <ele>1093.16</ele>
        <time>2021-09-29T07:58:57Z</time>
      </trkpt>
      <trkpt lat="44.51218" lon="5.52628">
        <ele>1096.52</ele>
        <time>2021-09-29T07:59:16Z</time>
      </trkpt>
      <trkpt lat="44.51218" lon="5.52628">
        <ele>1097</ele>
        <time>2021-09-29T07:59:50Z</time>
      </trkpt>
      <trkpt lat="44.51219" lon="5.52628">
        <ele>1097</ele>
        <time>2021-09-29T08:00:21Z</time>
      </trkpt>
      <trkpt lat="44.51226" lon="5.52621">
        <ele>1098.44</ele>
        <time>2021-09-29T08:00:42Z</time>
      </trkpt>
      <trkpt lat="44.51232" lon="5.52615">
        <ele>1101.81</ele>
        <time>2021-09-29T08:00:59Z</time>
      </trkpt>
      <trkpt lat="44.51241" lon="5.52609">
        <ele>1104.69</ele>
        <time>2021-09-29T08:01:15Z</time>
      </trkpt>
      <trkpt lat="44.51248" lon="5.52599">
        <ele>1108.06</ele>
        <time>2021-09-29T08:01:33Z</time>
      </trkpt>
      <trkpt lat="44.51249" lon="5.52589">
        <ele>1110.94</ele>
        <time>2021-09-29T08:01:49Z</time>
      </trkpt>
      <trkpt lat="44.5125" lon="5.52588">
        <ele>1111.42</ele>
        <time>2021-09-29T08:01:50Z</time>
      </trkpt>
      <trkpt lat="44.51252" lon="5.52572">
        <ele>1114.31</ele>
        <time>2021-09-29T08:02:09Z</time>
      </trkpt>
      <trkpt lat="44.51259" lon="5.52568">
        <ele>1117.19</ele>
        <time>2021-09-29T08:02:30Z</time>
      </trkpt>
      <trkpt lat="44.51273" lon="5.52572">
        <ele>1120.07</ele>
        <time>2021-09-29T08:02:54Z</time>
      </trkpt>
      <trkpt lat="44.51284" lon="5.5257">
        <ele>1123.44</ele>
        <time>2021-09-29T08:03:11Z</time>
      </trkpt>
      <trkpt lat="44.51293" lon="5.52559">
        <ele>1126.32</ele>
        <time>2021-09-29T08:03:33Z</time>
      </trkpt>
      <trkpt lat="44.51292" lon="5.52558">
        <ele>1126.8</ele>
        <time>2021-09-29T08:04:13Z</time>
      </trkpt>
      <trkpt lat="44.51293" lon="5.52557">
        <ele>1126.8</ele>
        <time>2021-09-29T08:04:34Z</time>
      </trkpt>
      <trkpt lat="44.51293" lon="5.52557">
        <ele>1126.8</ele>
        <time>2021-09-29T08:05:01Z</time>
      </trkpt>
      <trkpt lat="44.51293" lon="5.52557">
        <ele>1126.8</ele>
        <time>2021-09-29T08:05:38Z</time>
      </trkpt>
      <trkpt lat="44.51293" lon="5.52558">
        <ele>1126.8</ele>
        <time>2021-09-29T08:06:05Z</time>
      </trkpt>
      <trkpt lat="44.51292" lon="5.52557">
        <ele>1126.8</ele>
        <time>2021-09-29T08:06:32Z</time>
      </trkpt>
      <trkpt lat="44.51292" lon="5.52557">
        <ele>1126.8</ele>
        <time>2021-09-29T08:07:00Z</time>
      </trkpt>
      <trkpt lat="44.51291" lon="5.52556">
        <ele>1126.8</ele>
        <time>2021-09-29T08:07:28Z</time>
      </trkpt>
      <trkpt lat="44.51292" lon="5.52556">
        <ele>1126.8</ele>
        <time>2021-09-29T08:08:15Z</time>
      </trkpt>
      <trkpt lat="44.51291" lon="5.52557">
        <ele>1126.8</ele>
        <time>2021-09-29T08:08:55Z</time>
      </trkpt>
      <trkpt lat="44.51289" lon="5.52555">
        <ele>1126.8</ele>
        <time>2021-09-29T08:09:18Z</time>
      </trkpt>
      <trkpt lat="44.51283" lon="5.52537">
        <ele>1126.8</ele>
        <time>2021-09-29T08:09:36Z</time>
      </trkpt>
      <trkpt lat="44.51276" lon="5.52518">
        <ele>1129.21</ele>
        <time>2021-09-29T08:09:56Z</time>
      </trkpt>
      <trkpt lat="44.51275" lon="5.52517">
        <ele>1129.21</ele>
        <time>2021-09-29T08:09:57Z</time>
      </trkpt>
      <trkpt lat="44.51266" lon="5.52495">
        <ele>1130.17</ele>
        <time>2021-09-29T08:10:17Z</time>
      </trkpt>
      <trkpt lat="44.51263" lon="5.5247">
        <ele>1132.57</ele>
        <time>2021-09-29T08:10:38Z</time>
      </trkpt>
      <trkpt lat="44.51258" lon="5.52441">
        <ele>1134.97</ele>
        <time>2021-09-29T08:11:03Z</time>
      </trkpt>
      <trkpt lat="44.51249" lon="5.52418">
        <ele>1138.34</ele>
        <time>2021-09-29T08:11:25Z</time>
      </trkpt>
      <trkpt lat="44.51244" lon="5.52394">
        <ele>1141.22</ele>
        <time>2021-09-29T08:11:45Z</time>
      </trkpt>
      <trkpt lat="44.51237" lon="5.52371">
        <ele>1144.11</ele>
        <time>2021-09-29T08:12:07Z</time>
      </trkpt>
      <trkpt lat="44.5123" lon="5.52345">
        <ele>1146.51</ele>
        <time>2021-09-29T08:12:30Z</time>
      </trkpt>
      <trkpt lat="44.51222" lon="5.52319">
        <ele>1148.91</ele>
        <time>2021-09-29T08:12:54Z</time>
      </trkpt>
      <trkpt lat="44.51219" lon="5.52298">
        <ele>1149.87</ele>
        <time>2021-09-29T08:13:11Z</time>
      </trkpt>
      <trkpt lat="44.51218" lon="5.52278">
        <ele>1153.24</ele>
        <time>2021-09-29T08:13:31Z</time>
      </trkpt>
      <trkpt lat="44.51213" lon="5.52257">
        <ele>1156.12</ele>
        <time>2021-09-29T08:13:51Z</time>
      </trkpt>
      <trkpt lat="44.51209" lon="5.52234">
        <ele>1159.01</ele>
        <time>2021-09-29T08:14:12Z</time>
      </trkpt>
      <trkpt lat="44.51207" lon="5.5223">
        <ele>1159.49</ele>
        <time>2021-09-29T08:14:15Z</time>
      </trkpt>
      <trkpt lat="44.51196" lon="5.5221">
        <ele>1159.49</ele>
        <time>2021-09-29T08:14:32Z</time>
      </trkpt>
      <trkpt lat="44.51181" lon="5.522">
        <ele>1160.45</ele>
        <time>2021-09-29T08:14:53Z</time>
      </trkpt>
      <trkpt lat="44.51161" lon="5.52195">
        <ele>1162.85</ele>
        <time>2021-09-29T08:15:16Z</time>
      </trkpt>
      <trkpt lat="44.51152" lon="5.52195">
        <ele>1164.77</ele>
        <time>2021-09-29T08:15:39Z</time>
      </trkpt>
      <trkpt lat="44.51132" lon="5.52198">
        <ele>1168.14</ele>
        <time>2021-09-29T08:16:02Z</time>
      </trkpt>
      <trkpt lat="44.51115" lon="5.52207">
        <ele>1171.02</ele>
        <time>2021-09-29T08:16:24Z</time>
      </trkpt>
      <trkpt lat="44.51102" lon="5.52215">
        <ele>1174.39</ele>
        <time>2021-09-29T08:16:44Z</time>
      </trkpt>
      <trkpt lat="44.51084" lon="5.52227">
        <ele>1177.27</ele>
        <time>2021-09-29T08:17:08Z</time>
      </trkpt>
      <trkpt lat="44.51067" lon="5.52234">
        <ele>1178.71</ele>
        <time>2021-09-29T08:17:27Z</time>
      </trkpt>
      <trkpt lat="44.51057" lon="5.52241">
        <ele>1179.19</ele>
        <time>2021-09-29T08:17:38Z</time>
      </trkpt>
      <trkpt lat="44.51046" lon="5.52252">
        <ele>1180.16</ele>
        <time>2021-09-29T08:17:54Z</time>
      </trkpt>
      <trkpt lat="44.51041" lon="5.52256">
        <ele>1180.64</ele>
        <time>2021-09-29T08:18:11Z</time>
      </trkpt>
      <trkpt lat="44.51031" lon="5.52264">
        <ele>1181.12</ele>
        <time>2021-09-29T08:18:29Z</time>
      </trkpt>
      <trkpt lat="44.51011" lon="5.52272">
        <ele>1182.56</ele>
        <time>2021-09-29T08:18:51Z</time>
      </trkpt>
      <trkpt lat="44.51008" lon="5.5227">
        <ele>1183.04</ele>
        <time>2021-09-29T08:19:08Z</time>
      </trkpt>
      <trkpt lat="44.51009" lon="5.52266">
        <ele>1183.52</ele>
        <time>2021-09-29T08:19:29Z</time>
      </trkpt>
      <trkpt lat="44.51015" lon="5.52248">
        <ele>1183.52</ele>
        <time>2021-09-29T08:19:46Z</time>
      </trkpt>
      <trkpt lat="44.51023" lon="5.52225">
        <ele>1184.96</ele>
        <time>2021-09-29T08:20:06Z</time>
      </trkpt>
      <trkpt lat="44.5103" lon="5.52207">
        <ele>1187.37</ele>
        <time>2021-09-29T08:20:23Z</time>
      </trkpt>
      <trkpt lat="44.51032" lon="5.52203">
        <ele>1187.85</ele>
        <time>2021-09-29T08:20:26Z</time>
      </trkpt>
      <trkpt lat="44.51032" lon="5.52202">
        <ele>1187.85</ele>
        <time>2021-09-29T08:20:27Z</time>
      </trkpt>
      <trkpt lat="44.51033" lon="5.522">
        <ele>1188.33</ele>
        <time>2021-09-29T08:20:28Z</time>
      </trkpt>
      <trkpt lat="44.51034" lon="5.52199">
        <ele>1188.33</ele>
        <time>2021-09-29T08:20:29Z</time>
      </trkpt>
      <trkpt lat="44.51044" lon="5.52182">
        <ele>1189.77</ele>
        <time>2021-09-29T08:20:45Z</time>
      </trkpt>
      <trkpt lat="44.51054" lon="5.52163">
        <ele>1191.21</ele>
        <time>2021-09-29T08:21:03Z</time>
      </trkpt>
      <trkpt lat="44.51064" lon="5.52146">
        <ele>1192.65</ele>
        <time>2021-09-29T08:21:20Z</time>
      </trkpt>
      <trkpt lat="44.51063" lon="5.52143">
        <ele>1193.61</ele>
        <time>2021-09-29T08:21:39Z</time>
      </trkpt>
      <trkpt lat="44.51069" lon="5.5214">
        <ele>1192.17</ele>
        <time>2021-09-29T08:22:06Z</time>
      </trkpt>
      <trkpt lat="44.51075" lon="5.52136">
        <ele>1192.17</ele>
        <time>2021-09-29T08:22:12Z</time>
      </trkpt>
      <trkpt lat="44.51083" lon="5.52124">
        <ele>1193.61</ele>
        <time>2021-09-29T08:22:23Z</time>
      </trkpt>
      <trkpt lat="44.51097" lon="5.5211">
        <ele>1196.5</ele>
        <time>2021-09-29T08:22:38Z</time>
      </trkpt>
      <trkpt lat="44.51111" lon="5.52084">
        <ele>1198.42</ele>
        <time>2021-09-29T08:22:57Z</time>
      </trkpt>
      <trkpt lat="44.51124" lon="5.52063">
        <ele>1199.38</ele>
        <time>2021-09-29T08:23:15Z</time>
      </trkpt>
      <trkpt lat="44.51129" lon="5.5205">
        <ele>1199.86</ele>
        <time>2021-09-29T08:23:29Z</time>
      </trkpt>
      <trkpt lat="44.51132" lon="5.52043">
        <ele>1199.86</ele>
        <time>2021-09-29T08:23:47Z</time>
      </trkpt>
      <trkpt lat="44.51132" lon="5.52042">
        <ele>1199.86</ele>
        <time>2021-09-29T08:23:48Z</time>
      </trkpt>
      <trkpt lat="44.51132" lon="5.5204">
        <ele>1199.86</ele>
        <time>2021-09-29T08:23:49Z</time>
      </trkpt>
      <trkpt lat="44.51133" lon="5.52039">
        <ele>1199.86</ele>
        <time>2021-09-29T08:23:50Z</time>
      </trkpt>
      <trkpt lat="44.51133" lon="5.52038">
        <ele>1199.86</ele>
        <time>2021-09-29T08:23:51Z</time>
      </trkpt>
      <trkpt lat="44.51134" lon="5.52036">
        <ele>1199.86</ele>
        <time>2021-09-29T08:23:52Z</time>
      </trkpt>
      <trkpt lat="44.51134" lon="5.52035">
        <ele>1199.86</ele>
        <time>2021-09-29T08:23:53Z</time>
      </trkpt>
      <trkpt lat="44.51134" lon="5.52033">
        <ele>1199.86</ele>
        <time>2021-09-29T08:23:54Z</time>
      </trkpt>
      <trkpt lat="44.51135" lon="5.52031">
        <ele>1199.86</ele>
        <time>2021-09-29T08:23:55Z</time>
      </trkpt>
      <trkpt lat="44.51136" lon="5.5203">
        <ele>1199.86</ele>
        <time>2021-09-29T08:23:56Z</time>
      </trkpt>
      <trkpt lat="44.51136" lon="5.52028">
        <ele>1199.86</ele>
        <time>2021-09-29T08:23:57Z</time>
      </trkpt>
      <trkpt lat="44.51137" lon="5.52027">
        <ele>1199.86</ele>
        <time>2021-09-29T08:23:58Z</time>
      </trkpt>
      <trkpt lat="44.51137" lon="5.52025">
        <ele>1199.86</ele>
        <time>2021-09-29T08:23:59Z</time>
      </trkpt>
      <trkpt lat="44.51145" lon="5.52005">
        <ele>1200.34</ele>
        <time>2021-09-29T08:24:14Z</time>
      </trkpt>
      <trkpt lat="44.51152" lon="5.5199">
        <ele>1200.34</ele>
        <time>2021-09-29T08:24:30Z</time>
      </trkpt>
      <trkpt lat="44.51152" lon="5.5199">
        <ele>1200.82</ele>
        <time>2021-09-29T08:24:53Z</time>
      </trkpt>
      <trkpt lat="44.51152" lon="5.5199">
        <ele>1200.82</ele>
        <time>2021-09-29T08:25:38Z</time>
      </trkpt>
      <trkpt lat="44.51154" lon="5.51987">
        <ele>1200.82</ele>
        <time>2021-09-29T08:26:04Z</time>
      </trkpt>
      <trkpt lat="44.51154" lon="5.51986">
        <ele>1200.82</ele>
        <time>2021-09-29T08:26:05Z</time>
      </trkpt>
      <trkpt lat="44.51155" lon="5.51985">
        <ele>1200.82</ele>
        <time>2021-09-29T08:26:06Z</time>
      </trkpt>
      <trkpt lat="44.51155" lon="5.51983">
        <ele>1200.82</ele>
        <time>2021-09-29T08:26:07Z</time>
      </trkpt>
      <trkpt lat="44.51156" lon="5.51982">
        <ele>1200.82</ele>
        <time>2021-09-29T08:26:08Z</time>
      </trkpt>
      <trkpt lat="44.51157" lon="5.51981">
        <ele>1200.82</ele>
        <time>2021-09-29T08:26:09Z</time>
      </trkpt>
      <trkpt lat="44.51167" lon="5.5196">
        <ele>1200.34</ele>
        <time>2021-09-29T08:26:26Z</time>
      </trkpt>
      <trkpt lat="44.51174" lon="5.51954">
        <ele>1202.27</ele>
        <time>2021-09-29T08:26:41Z</time>
      </trkpt>
      <trkpt lat="44.51169" lon="5.51951">
        <ele>1202.27</ele>
        <time>2021-09-29T08:27:05Z</time>
      </trkpt>
      <trkpt lat="44.51165" lon="5.51947">
        <ele>1201.3</ele>
        <time>2021-09-29T08:27:23Z</time>
      </trkpt>
      <trkpt lat="44.51162" lon="5.51945">
        <ele>1200.82</ele>
        <time>2021-09-29T08:27:40Z</time>
      </trkpt>
      <trkpt lat="44.51162" lon="5.51945">
        <ele>1199.86</ele>
        <time>2021-09-29T08:28:06Z</time>
      </trkpt>
      <trkpt lat="44.51158" lon="5.51932">
        <ele>1199.38</ele>
        <time>2021-09-29T08:28:19Z</time>
      </trkpt>
      <trkpt lat="44.51158" lon="5.5193">
        <ele>1199.38</ele>
        <time>2021-09-29T08:28:20Z</time>
      </trkpt>
      <trkpt lat="44.51157" lon="5.51906">
        <ele>1197.46</ele>
        <time>2021-09-29T08:28:39Z</time>
      </trkpt>
      <trkpt lat="44.5116" lon="5.51884">
        <ele>1194.58</ele>
        <time>2021-09-29T08:28:59Z</time>
      </trkpt>
      <trkpt lat="44.51163" lon="5.51867">
        <ele>1191.21</ele>
        <time>2021-09-29T08:29:13Z</time>
      </trkpt>
      <trkpt lat="44.51162" lon="5.51846">
        <ele>1188.33</ele>
        <time>2021-09-29T08:29:27Z</time>
      </trkpt>
      <trkpt lat="44.51162" lon="5.51823">
        <ele>1184.96</ele>
        <time>2021-09-29T08:29:45Z</time>
      </trkpt>
      <trkpt lat="44.51165" lon="5.51804">
        <ele>1183.04</ele>
        <time>2021-09-29T08:30:02Z</time>
      </trkpt>
      <trkpt lat="44.51161" lon="5.51798">
        <ele>1181.6</ele>
        <time>2021-09-29T08:30:10Z</time>
      </trkpt>
      <trkpt lat="44.51156" lon="5.51801">
        <ele>1180.16</ele>
        <time>2021-09-29T08:30:17Z</time>
      </trkpt>
      <trkpt lat="44.51144" lon="5.5181">
        <ele>1177.27</ele>
        <time>2021-09-29T08:30:36Z</time>
      </trkpt>
      <trkpt lat="44.51136" lon="5.51817">
        <ele>1174.39</ele>
        <time>2021-09-29T08:30:47Z</time>
      </trkpt>
      <trkpt lat="44.51128" lon="5.51827">
        <ele>1171.02</ele>
        <time>2021-09-29T08:30:59Z</time>
      </trkpt>
      <trkpt lat="44.51113" lon="5.51846">
        <ele>1168.14</ele>
        <time>2021-09-29T08:31:17Z</time>
      </trkpt>
      <trkpt lat="44.511" lon="5.51849">
        <ele>1164.77</ele>
        <time>2021-09-29T08:31:31Z</time>
      </trkpt>
      <trkpt lat="44.51099" lon="5.51849">
        <ele>1164.77</ele>
        <time>2021-09-29T08:31:32Z</time>
      </trkpt>
      <trkpt lat="44.51098" lon="5.51849">
        <ele>1164.77</ele>
        <time>2021-09-29T08:31:33Z</time>
      </trkpt>
      <trkpt lat="44.51087" lon="5.51848">
        <ele>1161.41</ele>
        <time>2021-09-29T08:31:44Z</time>
      </trkpt>
      <trkpt lat="44.51083" lon="5.51849">
        <ele>1159.97</ele>
        <time>2021-09-29T08:31:50Z</time>
      </trkpt>
      <trkpt lat="44.51078" lon="5.51856">
        <ele>1159.01</ele>
        <time>2021-09-29T08:31:59Z</time>
      </trkpt>
      <trkpt lat="44.51063" lon="5.51883">
        <ele>1157.56</ele>
        <time>2021-09-29T08:32:21Z</time>
      </trkpt>
      <trkpt lat="44.51053" lon="5.51902">
        <ele>1155.64</ele>
        <time>2021-09-29T08:32:41Z</time>
      </trkpt>
      <trkpt lat="44.51043" lon="5.51908">
        <ele>1152.76</ele>
        <time>2021-09-29T08:32:58Z</time>
      </trkpt>
      <trkpt lat="44.51037" lon="5.51903">
        <ele>1150.84</ele>
        <time>2021-09-29T08:33:15Z</time>
      </trkpt>
      <trkpt lat="44.51034" lon="5.51897">
        <ele>1149.87</ele>
        <time>2021-09-29T08:33:21Z</time>
      </trkpt>
      <trkpt lat="44.5103" lon="5.51887">
        <ele>1146.99</ele>
        <time>2021-09-29T08:33:34Z</time>
      </trkpt>
      <trkpt lat="44.51025" lon="5.51873">
        <ele>1146.03</ele>
        <time>2021-09-29T08:33:48Z</time>
      </trkpt>
      <trkpt lat="44.51011" lon="5.51869">
        <ele>1146.03</ele>
        <time>2021-09-29T08:34:03Z</time>
      </trkpt>
      <trkpt lat="44.5101" lon="5.51869">
        <ele>1146.03</ele>
        <time>2021-09-29T08:34:04Z</time>
      </trkpt>
      <trkpt lat="44.51009" lon="5.51868">
        <ele>1146.03</ele>
        <time>2021-09-29T08:34:05Z</time>
      </trkpt>
      <trkpt lat="44.51001" lon="5.51867">
        <ele>1146.03</ele>
        <time>2021-09-29T08:34:13Z</time>
      </trkpt>
      <trkpt lat="44.50984" lon="5.51867">
        <ele>1144.59</ele>
        <time>2021-09-29T08:34:29Z</time>
      </trkpt>
      <trkpt lat="44.50963" lon="5.51859">
        <ele>1141.7</ele>
        <time>2021-09-29T08:34:49Z</time>
      </trkpt>
      <trkpt lat="44.50948" lon="5.51849">
        <ele>1140.74</ele>
        <time>2021-09-29T08:35:06Z</time>
      </trkpt>
      <trkpt lat="44.50937" lon="5.51846">
        <ele>1139.3</ele>
        <time>2021-09-29T08:35:24Z</time>
      </trkpt>
      <trkpt lat="44.50935" lon="5.51848">
        <ele>1138.82</ele>
        <time>2021-09-29T08:35:43Z</time>
      </trkpt>
      <trkpt lat="44.50932" lon="5.51838">
        <ele>1138.82</ele>
        <time>2021-09-29T08:36:06Z</time>
      </trkpt>
      <trkpt lat="44.50931" lon="5.51825">
        <ele>1138.34</ele>
        <time>2021-09-29T08:36:27Z</time>
      </trkpt>
      <trkpt lat="44.50929" lon="5.51799">
        <ele>1137.86</ele>
        <time>2021-09-29T08:36:47Z</time>
      </trkpt>
      <trkpt lat="44.50927" lon="5.51759">
        <ele>1138.82</ele>
        <time>2021-09-29T08:37:17Z</time>
      </trkpt>
      <trkpt lat="44.50928" lon="5.51732">
        <ele>1139.3</ele>
        <time>2021-09-29T08:37:35Z</time>
      </trkpt>
      <trkpt lat="44.50923" lon="5.51703">
        <ele>1139.78</ele>
        <time>2021-09-29T08:37:54Z</time>
      </trkpt>
      <trkpt lat="44.50917" lon="5.51685">
        <ele>1139.78</ele>
        <time>2021-09-29T08:38:07Z</time>
      </trkpt>
      <trkpt lat="44.50915" lon="5.51674">
        <ele>1139.78</ele>
        <time>2021-09-29T08:38:15Z</time>
      </trkpt>
      <trkpt lat="44.50915" lon="5.5166">
        <ele>1139.78</ele>
        <time>2021-09-29T08:38:33Z</time>
      </trkpt>
      <trkpt lat="44.50913" lon="5.51653">
        <ele>1139.3</ele>
        <time>2021-09-29T08:39:05Z</time>
      </trkpt>
      <trkpt lat="44.50913" lon="5.51649">
        <ele>1138.82</ele>
        <time>2021-09-29T08:39:10Z</time>
      </trkpt>
      <trkpt lat="44.50913" lon="5.51639">
        <ele>1139.3</ele>
        <time>2021-09-29T08:39:17Z</time>
      </trkpt>
      <trkpt lat="44.5091" lon="5.51606">
        <ele>1140.26</ele>
        <time>2021-09-29T08:39:40Z</time>
      </trkpt>
      <trkpt lat="44.50908" lon="5.51583">
        <ele>1141.22</ele>
        <time>2021-09-29T08:39:56Z</time>
      </trkpt>
      <trkpt lat="44.50908" lon="5.5155">
        <ele>1141.7</ele>
        <time>2021-09-29T08:40:18Z</time>
      </trkpt>
      <trkpt lat="44.50909" lon="5.51527">
        <ele>1141.7</ele>
        <time>2021-09-29T08:40:37Z</time>
      </trkpt>
      <trkpt lat="44.50909" lon="5.51504">
        <ele>1141.22</ele>
        <time>2021-09-29T08:40:56Z</time>
      </trkpt>
      <trkpt lat="44.5091" lon="5.51482">
        <ele>1141.22</ele>
        <time>2021-09-29T08:41:13Z</time>
      </trkpt>
      <trkpt lat="44.5091" lon="5.51466">
        <ele>1141.7</ele>
        <time>2021-09-29T08:41:30Z</time>
      </trkpt>
      <trkpt lat="44.50906" lon="5.51457">
        <ele>1141.7</ele>
        <time>2021-09-29T08:41:42Z</time>
      </trkpt>
      <trkpt lat="44.50904" lon="5.51452">
        <ele>1141.22</ele>
        <time>2021-09-29T08:41:47Z</time>
      </trkpt>
      <trkpt lat="44.50903" lon="5.5145">
        <ele>1141.22</ele>
        <time>2021-09-29T08:41:48Z</time>
      </trkpt>
      <trkpt lat="44.50898" lon="5.51433">
        <ele>1140.74</ele>
        <time>2021-09-29T08:42:03Z</time>
      </trkpt>
      <trkpt lat="44.5089" lon="5.51419">
        <ele>1139.3</ele>
        <time>2021-09-29T08:42:20Z</time>
      </trkpt>
      <trkpt lat="44.50886" lon="5.51412">
        <ele>1139.3</ele>
        <time>2021-09-29T08:42:29Z</time>
      </trkpt>
      <trkpt lat="44.50877" lon="5.51407">
        <ele>1139.78</ele>
        <time>2021-09-29T08:42:40Z</time>
      </trkpt>
      <trkpt lat="44.50876" lon="5.51405">
        <ele>1139.78</ele>
        <time>2021-09-29T08:42:44Z</time>
      </trkpt>
      <trkpt lat="44.50872" lon="5.51401">
        <ele>1139.78</ele>
        <time>2021-09-29T08:42:49Z</time>
      </trkpt>
      <trkpt lat="44.50862" lon="5.51395">
        <ele>1140.26</ele>
        <time>2021-09-29T08:42:59Z</time>
      </trkpt>
      <trkpt lat="44.50838" lon="5.5138">
        <ele>1138.34</ele>
        <time>2021-09-29T08:43:21Z</time>
      </trkpt>
      <trkpt lat="44.50833" lon="5.51375">
        <ele>1137.38</ele>
        <time>2021-09-29T08:43:27Z</time>
      </trkpt>
      <trkpt lat="44.50827" lon="5.51364">
        <ele>1136.42</ele>
        <time>2021-09-29T08:43:36Z</time>
      </trkpt>
      <trkpt lat="44.50814" lon="5.51342">
        <ele>1135.45</ele>
        <time>2021-09-29T08:43:55Z</time>
      </trkpt>
      <trkpt lat="44.50799" lon="5.51333">
        <ele>1133.05</ele>
        <time>2021-09-29T08:44:12Z</time>
      </trkpt>
      <trkpt lat="44.50782" lon="5.51321">
        <ele>1133.53</ele>
        <time>2021-09-29T08:44:30Z</time>
      </trkpt>
      <trkpt lat="44.50759" lon="5.51317">
        <ele>1130.17</ele>
        <time>2021-09-29T08:44:51Z</time>
      </trkpt>
      <trkpt lat="44.50736" lon="5.51317">
        <ele>1128.73</ele>
        <time>2021-09-29T08:45:11Z</time>
      </trkpt>
      <trkpt lat="44.5071" lon="5.51318">
        <ele>1125.84</ele>
        <time>2021-09-29T08:45:33Z</time>
      </trkpt>
      <trkpt lat="44.50689" lon="5.513">
        <ele>1123.92</ele>
        <time>2021-09-29T08:45:54Z</time>
      </trkpt>
      <trkpt lat="44.50677" lon="5.5128">
        <ele>1122.48</ele>
        <time>2021-09-29T08:46:10Z</time>
      </trkpt>
      <trkpt lat="44.50666" lon="5.51256">
        <ele>1120.55</ele>
        <time>2021-09-29T08:46:28Z</time>
      </trkpt>
      <trkpt lat="44.50653" lon="5.51234">
        <ele>1118.63</ele>
        <time>2021-09-29T08:46:47Z</time>
      </trkpt>
      <trkpt lat="44.50647" lon="5.51225">
        <ele>1117.19</ele>
        <time>2021-09-29T08:46:56Z</time>
      </trkpt>
      <trkpt lat="44.50646" lon="5.51224">
        <ele>1117.19</ele>
        <time>2021-09-29T08:46:57Z</time>
      </trkpt>
      <trkpt lat="44.50645" lon="5.51223">
        <ele>1117.19</ele>
        <time>2021-09-29T08:46:58Z</time>
      </trkpt>
      <trkpt lat="44.50644" lon="5.51222">
        <ele>1116.71</ele>
        <time>2021-09-29T08:46:59Z</time>
      </trkpt>
      <trkpt lat="44.50644" lon="5.5122">
        <ele>1116.71</ele>
        <time>2021-09-29T08:47:00Z</time>
      </trkpt>
      <trkpt lat="44.50627" lon="5.51199">
        <ele>1114.31</ele>
        <time>2021-09-29T08:47:21Z</time>
      </trkpt>
      <trkpt lat="44.50624" lon="5.51194">
        <ele>1113.82</ele>
        <time>2021-09-29T08:47:26Z</time>
      </trkpt>
      <trkpt lat="44.50623" lon="5.51193">
        <ele>1113.82</ele>
        <time>2021-09-29T08:47:27Z</time>
      </trkpt>
      <trkpt lat="44.50611" lon="5.51183">
        <ele>1111.9</ele>
        <time>2021-09-29T08:47:42Z</time>
      </trkpt>
      <trkpt lat="44.50611" lon="5.5118">
        <ele>1111.9</ele>
        <time>2021-09-29T08:47:45Z</time>
      </trkpt>
      <trkpt lat="44.50612" lon="5.51178">
        <ele>1111.9</ele>
        <time>2021-09-29T08:47:46Z</time>
      </trkpt>
      <trkpt lat="44.50612" lon="5.51177">
        <ele>1111.9</ele>
        <time>2021-09-29T08:47:47Z</time>
      </trkpt>
      <trkpt lat="44.50613" lon="5.51176">
        <ele>1111.9</ele>
        <time>2021-09-29T08:47:48Z</time>
      </trkpt>
      <trkpt lat="44.50614" lon="5.51175">
        <ele>1111.9</ele>
        <time>2021-09-29T08:47:49Z</time>
      </trkpt>
      <trkpt lat="44.50615" lon="5.51174">
        <ele>1111.9</ele>
        <time>2021-09-29T08:47:50Z</time>
      </trkpt>
      <trkpt lat="44.50615" lon="5.51172">
        <ele>1111.9</ele>
        <time>2021-09-29T08:47:51Z</time>
      </trkpt>
      <trkpt lat="44.50628" lon="5.51145">
        <ele>1112.86</ele>
        <time>2021-09-29T08:48:12Z</time>
      </trkpt>
      <trkpt lat="44.50639" lon="5.51119">
        <ele>1113.82</ele>
        <time>2021-09-29T08:48:32Z</time>
      </trkpt>
      <trkpt lat="44.50652" lon="5.5109">
        <ele>1115.27</ele>
        <time>2021-09-29T08:48:54Z</time>
      </trkpt>
      <trkpt lat="44.50666" lon="5.5106">
        <ele>1116.71</ele>
        <time>2021-09-29T08:49:16Z</time>
      </trkpt>
      <trkpt lat="44.50679" lon="5.51036">
        <ele>1117.19</ele>
        <time>2021-09-29T08:49:36Z</time>
      </trkpt>
      <trkpt lat="44.50699" lon="5.51013">
        <ele>1117.19</ele>
        <time>2021-09-29T08:49:57Z</time>
      </trkpt>
      <trkpt lat="44.50723" lon="5.50985">
        <ele>1114.79</ele>
        <time>2021-09-29T08:50:21Z</time>
      </trkpt>
      <trkpt lat="44.50732" lon="5.50963">
        <ele>1114.79</ele>
        <time>2021-09-29T08:50:36Z</time>
      </trkpt>
      <trkpt lat="44.50732" lon="5.50962">
        <ele>1114.79</ele>
        <time>2021-09-29T08:50:37Z</time>
      </trkpt>
      <trkpt lat="44.50733" lon="5.5096">
        <ele>1114.79</ele>
        <time>2021-09-29T08:50:38Z</time>
      </trkpt>
      <trkpt lat="44.50733" lon="5.50958">
        <ele>1114.79</ele>
        <time>2021-09-29T08:50:39Z</time>
      </trkpt>
      <trkpt lat="44.50734" lon="5.50957">
        <ele>1114.79</ele>
        <time>2021-09-29T08:50:40Z</time>
      </trkpt>
      <trkpt lat="44.50734" lon="5.50955">
        <ele>1114.79</ele>
        <time>2021-09-29T08:50:41Z</time>
      </trkpt>
      <trkpt lat="44.50735" lon="5.50953">
        <ele>1114.79</ele>
        <time>2021-09-29T08:50:42Z</time>
      </trkpt>
      <trkpt lat="44.50744" lon="5.50917">
        <ele>1114.31</ele>
        <time>2021-09-29T08:51:05Z</time>
      </trkpt>
      <trkpt lat="44.50754" lon="5.50872">
        <ele>1112.86</ele>
        <time>2021-09-29T08:51:33Z</time>
      </trkpt>
      <trkpt lat="44.50764" lon="5.50836">
        <ele>1111.9</ele>
        <time>2021-09-29T08:51:57Z</time>
      </trkpt>
      <trkpt lat="44.50774" lon="5.50797">
        <ele>1111.42</ele>
        <time>2021-09-29T08:52:23Z</time>
      </trkpt>
      <trkpt lat="44.50783" lon="5.50765">
        <ele>1110.46</ele>
        <time>2021-09-29T08:52:44Z</time>
      </trkpt>
      <trkpt lat="44.50793" lon="5.50729">
        <ele>1109.02</ele>
        <time>2021-09-29T08:53:09Z</time>
      </trkpt>
      <trkpt lat="44.50797" lon="5.50715">
        <ele>1109.02</ele>
        <time>2021-09-29T08:53:21Z</time>
      </trkpt>
      <trkpt lat="44.50797" lon="5.50714">
        <ele>1109.02</ele>
        <time>2021-09-29T08:53:22Z</time>
      </trkpt>
      <trkpt lat="44.50808" lon="5.50672">
        <ele>1108.54</ele>
        <time>2021-09-29T08:53:51Z</time>
      </trkpt>
      <trkpt lat="44.50818" lon="5.50633">
        <ele>1107.1</ele>
        <time>2021-09-29T08:54:17Z</time>
      </trkpt>
      <trkpt lat="44.50827" lon="5.50598">
        <ele>1105.65</ele>
        <time>2021-09-29T08:54:40Z</time>
      </trkpt>
      <trkpt lat="44.50836" lon="5.50558">
        <ele>1105.17</ele>
        <time>2021-09-29T08:55:06Z</time>
      </trkpt>
      <trkpt lat="44.50843" lon="5.50534">
        <ele>1104.69</ele>
        <time>2021-09-29T08:55:27Z</time>
      </trkpt>
      <trkpt lat="44.50844" lon="5.50529">
        <ele>1106.13</ele>
        <time>2021-09-29T08:55:44Z</time>
      </trkpt>
      <trkpt lat="44.50843" lon="5.5053">
        <ele>1105.17</ele>
        <time>2021-09-29T08:56:05Z</time>
      </trkpt>
      <trkpt lat="44.50843" lon="5.5053">
        <ele>1104.21</ele>
        <time>2021-09-29T08:56:42Z</time>
      </trkpt>
      <trkpt lat="44.50843" lon="5.5053">
        <ele>1100.85</ele>
        <time>2021-09-29T08:58:37Z</time>
      </trkpt>
      <trkpt lat="44.50844" lon="5.5053">
        <ele>1099.89</ele>
        <time>2021-09-29T09:01:26Z</time>
      </trkpt>
      <trkpt lat="44.50844" lon="5.50529">
        <ele>1100.85</ele>
        <time>2021-09-29T09:01:50Z</time>
      </trkpt>
      <trkpt lat="44.50844" lon="5.5053">
        <ele>1101.81</ele>
        <time>2021-09-29T09:02:19Z</time>
      </trkpt>
      <trkpt lat="44.50844" lon="5.5053">
        <ele>1102.77</ele>
        <time>2021-09-29T09:02:57Z</time>
      </trkpt>
      <trkpt lat="44.50844" lon="5.5053">
        <ele>1103.73</ele>
        <time>2021-09-29T09:04:05Z</time>
      </trkpt>
      <trkpt lat="44.50845" lon="5.50532">
        <ele>1104.21</ele>
        <time>2021-09-29T09:04:51Z</time>
      </trkpt>
      <trkpt lat="44.50851" lon="5.50531">
        <ele>1104.21</ele>
        <time>2021-09-29T09:04:57Z</time>
      </trkpt>
      <trkpt lat="44.50857" lon="5.50531">
        <ele>1104.21</ele>
        <time>2021-09-29T09:05:04Z</time>
      </trkpt>
      <trkpt lat="44.50875" lon="5.50544">
        <ele>1105.65</ele>
        <time>2021-09-29T09:05:23Z</time>
      </trkpt>
      <trkpt lat="44.50889" lon="5.50569">
        <ele>1108.06</ele>
        <time>2021-09-29T09:05:43Z</time>
      </trkpt>
      <trkpt lat="44.50909" lon="5.50582">
        <ele>1110.46</ele>
        <time>2021-09-29T09:06:04Z</time>
      </trkpt>
      <trkpt lat="44.50933" lon="5.50591">
        <ele>1113.82</ele>
        <time>2021-09-29T09:06:26Z</time>
      </trkpt>
      <trkpt lat="44.50951" lon="5.50604">
        <ele>1115.75</ele>
        <time>2021-09-29T09:06:46Z</time>
      </trkpt>
      <trkpt lat="44.50958" lon="5.50603">
        <ele>1116.23</ele>
        <time>2021-09-29T09:06:56Z</time>
      </trkpt>
      <trkpt lat="44.50959" lon="5.50602">
        <ele>1116.71</ele>
        <time>2021-09-29T09:06:57Z</time>
      </trkpt>
      <trkpt lat="44.50978" lon="5.50596">
        <ele>1119.11</ele>
        <time>2021-09-29T09:07:17Z</time>
      </trkpt>
      <trkpt lat="44.50985" lon="5.50599">
        <ele>1120.07</ele>
        <time>2021-09-29T09:07:24Z</time>
      </trkpt>
      <trkpt lat="44.50998" lon="5.50612">
        <ele>1122.48</ele>
        <time>2021-09-29T09:07:42Z</time>
      </trkpt>
      <trkpt lat="44.51013" lon="5.5063">
        <ele>1124.4</ele>
        <time>2021-09-29T09:08:02Z</time>
      </trkpt>
      <trkpt lat="44.51024" lon="5.50648">
        <ele>1124.88</ele>
        <time>2021-09-29T09:08:18Z</time>
      </trkpt>
      <trkpt lat="44.51026" lon="5.50658">
        <ele>1124.88</ele>
        <time>2021-09-29T09:08:32Z</time>
      </trkpt>
      <trkpt lat="44.51025" lon="5.50664">
        <ele>1124.88</ele>
        <time>2021-09-29T09:08:36Z</time>
      </trkpt>
      <trkpt lat="44.51021" lon="5.5068">
        <ele>1124.88</ele>
        <time>2021-09-29T09:08:47Z</time>
      </trkpt>
      <trkpt lat="44.51018" lon="5.50709">
        <ele>1124.4</ele>
        <time>2021-09-29T09:09:05Z</time>
      </trkpt>
      <trkpt lat="44.51024" lon="5.50736">
        <ele>1123.92</ele>
        <time>2021-09-29T09:09:23Z</time>
      </trkpt>
      <trkpt lat="44.51034" lon="5.50739">
        <ele>1123.92</ele>
        <time>2021-09-29T09:09:33Z</time>
      </trkpt>
      <trkpt lat="44.51052" lon="5.50755">
        <ele>1125.36</ele>
        <time>2021-09-29T09:09:53Z</time>
      </trkpt>
      <trkpt lat="44.51058" lon="5.50779">
        <ele>1127.28</ele>
        <time>2021-09-29T09:10:11Z</time>
      </trkpt>
      <trkpt lat="44.51062" lon="5.50803">
        <ele>1128.73</ele>
        <time>2021-09-29T09:10:30Z</time>
      </trkpt>
      <trkpt lat="44.51063" lon="5.50805">
        <ele>1128.73</ele>
        <time>2021-09-29T09:10:32Z</time>
      </trkpt>
      <trkpt lat="44.51062" lon="5.50807">
        <ele>1129.21</ele>
        <time>2021-09-29T09:10:34Z</time>
      </trkpt>
      <trkpt lat="44.51067" lon="5.50839">
        <ele>1130.17</ele>
        <time>2021-09-29T09:10:55Z</time>
      </trkpt>
      <trkpt lat="44.51078" lon="5.50854">
        <ele>1131.61</ele>
        <time>2021-09-29T09:11:14Z</time>
      </trkpt>
      <trkpt lat="44.51083" lon="5.50867">
        <ele>1134.01</ele>
        <time>2021-09-29T09:11:30Z</time>
      </trkpt>
      <trkpt lat="44.51091" lon="5.50879">
        <ele>1136.9</ele>
        <time>2021-09-29T09:11:48Z</time>
      </trkpt>
      <trkpt lat="44.51102" lon="5.50886">
        <ele>1138.82</ele>
        <time>2021-09-29T09:12:04Z</time>
      </trkpt>
      <trkpt lat="44.51115" lon="5.50892">
        <ele>1141.22</ele>
        <time>2021-09-29T09:12:20Z</time>
      </trkpt>
      <trkpt lat="44.51128" lon="5.509">
        <ele>1144.59</ele>
        <time>2021-09-29T09:12:38Z</time>
      </trkpt>
      <trkpt lat="44.51132" lon="5.50903">
        <ele>1145.55</ele>
        <time>2021-09-29T09:12:43Z</time>
      </trkpt>
      <trkpt lat="44.51138" lon="5.50907">
        <ele>1146.51</ele>
        <time>2021-09-29T09:12:50Z</time>
      </trkpt>
      <trkpt lat="44.51156" lon="5.50919">
        <ele>1149.39</ele>
        <time>2021-09-29T09:13:09Z</time>
      </trkpt>
      <trkpt lat="44.51173" lon="5.50929">
        <ele>1151.8</ele>
        <time>2021-09-29T09:13:28Z</time>
      </trkpt>
      <trkpt lat="44.51183" lon="5.5094">
        <ele>1153.72</ele>
        <time>2021-09-29T09:13:44Z</time>
      </trkpt>
      <trkpt lat="44.51191" lon="5.50951">
        <ele>1155.16</ele>
        <time>2021-09-29T09:13:59Z</time>
      </trkpt>
      <trkpt lat="44.51202" lon="5.50958">
        <ele>1157.08</ele>
        <time>2021-09-29T09:14:15Z</time>
      </trkpt>
      <trkpt lat="44.51213" lon="5.5097">
        <ele>1159.49</ele>
        <time>2021-09-29T09:14:32Z</time>
      </trkpt>
      <trkpt lat="44.5122" lon="5.50976">
        <ele>1159.97</ele>
        <time>2021-09-29T09:14:45Z</time>
      </trkpt>
      <trkpt lat="44.51223" lon="5.50981">
        <ele>1159.97</ele>
        <time>2021-09-29T09:14:56Z</time>
      </trkpt>
      <trkpt lat="44.51223" lon="5.50981">
        <ele>1159.49</ele>
        <time>2021-09-29T09:15:26Z</time>
      </trkpt>
      <trkpt lat="44.51229" lon="5.50983">
        <ele>1159.49</ele>
        <time>2021-09-29T09:15:42Z</time>
      </trkpt>
      <trkpt lat="44.51231" lon="5.50984">
        <ele>1160.45</ele>
        <time>2021-09-29T09:15:58Z</time>
      </trkpt>
      <trkpt lat="44.51244" lon="5.50981">
        <ele>1160.93</ele>
        <time>2021-09-29T09:16:14Z</time>
      </trkpt>
      <trkpt lat="44.51248" lon="5.5098">
        <ele>1161.41</ele>
        <time>2021-09-29T09:16:19Z</time>
      </trkpt>
      <trkpt lat="44.51261" lon="5.50975">
        <ele>1162.85</ele>
        <time>2021-09-29T09:16:33Z</time>
      </trkpt>
      <trkpt lat="44.51267" lon="5.50972">
        <ele>1163.33</ele>
        <time>2021-09-29T09:16:40Z</time>
      </trkpt>
      <trkpt lat="44.51269" lon="5.50973">
        <ele>1163.81</ele>
        <time>2021-09-29T09:16:42Z</time>
      </trkpt>
      <trkpt lat="44.51272" lon="5.50987">
        <ele>1165.74</ele>
        <time>2021-09-29T09:16:55Z</time>
      </trkpt>
      <trkpt lat="44.5128" lon="5.51007">
        <ele>1166.7</ele>
        <time>2021-09-29T09:17:12Z</time>
      </trkpt>
      <trkpt lat="44.51289" lon="5.51021">
        <ele>1168.14</ele>
        <time>2021-09-29T09:17:31Z</time>
      </trkpt>
      <trkpt lat="44.513" lon="5.51027">
        <ele>1169.58</ele>
        <time>2021-09-29T09:17:49Z</time>
      </trkpt>
      <trkpt lat="44.51301" lon="5.51033">
        <ele>1170.54</ele>
        <time>2021-09-29T09:18:15Z</time>
      </trkpt>
      <trkpt lat="44.51302" lon="5.51036">
        <ele>1170.54</ele>
        <time>2021-09-29T09:18:18Z</time>
      </trkpt>
      <trkpt lat="44.51306" lon="5.51048">
        <ele>1171.02</ele>
        <time>2021-09-29T09:18:33Z</time>
      </trkpt>
      <trkpt lat="44.51307" lon="5.51054">
        <ele>1171.02</ele>
        <time>2021-09-29T09:18:37Z</time>
      </trkpt>
      <trkpt lat="44.51321" lon="5.51065">
        <ele>1171.98</ele>
        <time>2021-09-29T09:18:57Z</time>
      </trkpt>
      <trkpt lat="44.5133" lon="5.51066">
        <ele>1172.47</ele>
        <time>2021-09-29T09:19:11Z</time>
      </trkpt>
      <trkpt lat="44.51339" lon="5.51057">
        <ele>1172.95</ele>
        <time>2021-09-29T09:19:28Z</time>
      </trkpt>
      <trkpt lat="44.51347" lon="5.5105">
        <ele>1173.43</ele>
        <time>2021-09-29T09:19:43Z</time>
      </trkpt>
      <trkpt lat="44.51349" lon="5.51045">
        <ele>1173.91</ele>
        <time>2021-09-29T09:19:50Z</time>
      </trkpt>
      <trkpt lat="44.51357" lon="5.51036">
        <ele>1173.43</ele>
        <time>2021-09-29T09:20:05Z</time>
      </trkpt>
      <trkpt lat="44.51365" lon="5.51032">
        <ele>1172.95</ele>
        <time>2021-09-29T09:20:20Z</time>
      </trkpt>
      <trkpt lat="44.51373" lon="5.51018">
        <ele>1171.02</ele>
        <time>2021-09-29T09:20:40Z</time>
      </trkpt>
      <trkpt lat="44.51379" lon="5.5101">
        <ele>1169.1</ele>
        <time>2021-09-29T09:20:54Z</time>
      </trkpt>
      <trkpt lat="44.51382" lon="5.50997">
        <ele>1168.62</ele>
        <time>2021-09-29T09:21:07Z</time>
      </trkpt>
      <trkpt lat="44.51379" lon="5.50977">
        <ele>1168.62</ele>
        <time>2021-09-29T09:21:25Z</time>
      </trkpt>
      <trkpt lat="44.51369" lon="5.50963">
        <ele>1166.22</ele>
        <time>2021-09-29T09:21:42Z</time>
      </trkpt>
      <trkpt lat="44.51356" lon="5.50948">
        <ele>1165.26</ele>
        <time>2021-09-29T09:22:01Z</time>
      </trkpt>
      <trkpt lat="44.51347" lon="5.50941">
        <ele>1164.77</ele>
        <time>2021-09-29T09:22:15Z</time>
      </trkpt>
      <trkpt lat="44.51346" lon="5.50924">
        <ele>1164.29</ele>
        <time>2021-09-29T09:22:31Z</time>
      </trkpt>
      <trkpt lat="44.51346" lon="5.50922">
        <ele>1164.29</ele>
        <time>2021-09-29T09:22:33Z</time>
      </trkpt>
      <trkpt lat="44.51348" lon="5.50918">
        <ele>1164.29</ele>
        <time>2021-09-29T09:22:37Z</time>
      </trkpt>
      <trkpt lat="44.51357" lon="5.50902">
        <ele>1163.81</ele>
        <time>2021-09-29T09:22:55Z</time>
      </trkpt>
      <trkpt lat="44.51364" lon="5.50903">
        <ele>1164.77</ele>
        <time>2021-09-29T09:23:12Z</time>
      </trkpt>
      <trkpt lat="44.51371" lon="5.50912">
        <ele>1167.66</ele>
        <time>2021-09-29T09:23:34Z</time>
      </trkpt>
      <trkpt lat="44.51383" lon="5.50919">
        <ele>1170.54</ele>
        <time>2021-09-29T09:23:51Z</time>
      </trkpt>
      <trkpt lat="44.51396" lon="5.50923">
        <ele>1173.43</ele>
        <time>2021-09-29T09:24:12Z</time>
      </trkpt>
      <trkpt lat="44.51405" lon="5.50928">
        <ele>1174.87</ele>
        <time>2021-09-29T09:24:28Z</time>
      </trkpt>
      <trkpt lat="44.51412" lon="5.50936">
        <ele>1176.31</ele>
        <time>2021-09-29T09:24:47Z</time>
      </trkpt>
      <trkpt lat="44.51416" lon="5.50944">
        <ele>1178.23</ele>
        <time>2021-09-29T09:25:00Z</time>
      </trkpt>
      <trkpt lat="44.5142" lon="5.50952">
        <ele>1179.67</ele>
        <time>2021-09-29T09:25:18Z</time>
      </trkpt>
      <trkpt lat="44.51421" lon="5.50957">
        <ele>1181.12</ele>
        <time>2021-09-29T09:25:32Z</time>
      </trkpt>
      <trkpt lat="44.51424" lon="5.50964">
        <ele>1184</ele>
        <time>2021-09-29T09:25:52Z</time>
      </trkpt>
      <trkpt lat="44.51426" lon="5.50967">
        <ele>1186.4</ele>
        <time>2021-09-29T09:26:06Z</time>
      </trkpt>
      <trkpt lat="44.5143" lon="5.50971">
        <ele>1188.81</ele>
        <time>2021-09-29T09:26:25Z</time>
      </trkpt>
      <trkpt lat="44.51436" lon="5.50978">
        <ele>1191.21</ele>
        <time>2021-09-29T09:26:42Z</time>
      </trkpt>
      <trkpt lat="44.51443" lon="5.50978">
        <ele>1192.65</ele>
        <time>2021-09-29T09:26:53Z</time>
      </trkpt>
      <trkpt lat="44.5145" lon="5.50984">
        <ele>1194.58</ele>
        <time>2021-09-29T09:27:06Z</time>
      </trkpt>
      <trkpt lat="44.51453" lon="5.50988">
        <ele>1196.02</ele>
        <time>2021-09-29T09:27:17Z</time>
      </trkpt>
      <trkpt lat="44.51464" lon="5.51003">
        <ele>1198.42</ele>
        <time>2021-09-29T09:27:37Z</time>
      </trkpt>
      <trkpt lat="44.51472" lon="5.51015">
        <ele>1200.82</ele>
        <time>2021-09-29T09:27:56Z</time>
      </trkpt>
      <trkpt lat="44.51478" lon="5.5102">
        <ele>1203.71</ele>
        <time>2021-09-29T09:28:21Z</time>
      </trkpt>
      <trkpt lat="44.5148" lon="5.51019">
        <ele>1205.63</ele>
        <time>2021-09-29T09:28:36Z</time>
      </trkpt>
      <trkpt lat="44.51495" lon="5.51027">
        <ele>1209</ele>
        <time>2021-09-29T09:28:58Z</time>
      </trkpt>
      <trkpt lat="44.51511" lon="5.51028">
        <ele>1211.4</ele>
        <time>2021-09-29T09:29:21Z</time>
      </trkpt>
      <trkpt lat="44.51523" lon="5.51029">
        <ele>1214.28</ele>
        <time>2021-09-29T09:29:40Z</time>
      </trkpt>
      <trkpt lat="44.5154" lon="5.51025">
        <ele>1217.17</ele>
        <time>2021-09-29T09:30:04Z</time>
      </trkpt>
      <trkpt lat="44.51553" lon="5.5102">
        <ele>1218.61</ele>
        <time>2021-09-29T09:30:23Z</time>
      </trkpt>
      <trkpt lat="44.51563" lon="5.51018">
        <ele>1219.57</ele>
        <time>2021-09-29T09:30:42Z</time>
      </trkpt>
      <trkpt lat="44.51567" lon="5.51014">
        <ele>1221.01</ele>
        <time>2021-09-29T09:31:03Z</time>
      </trkpt>
      <trkpt lat="44.51581" lon="5.51015">
        <ele>1221.97</ele>
        <time>2021-09-29T09:31:21Z</time>
      </trkpt>
      <trkpt lat="44.51588" lon="5.51012">
        <ele>1223.42</ele>
        <time>2021-09-29T09:31:30Z</time>
      </trkpt>
      <trkpt lat="44.51589" lon="5.51011">
        <ele>1223.42</ele>
        <time>2021-09-29T09:31:31Z</time>
      </trkpt>
      <trkpt lat="44.51594" lon="5.51002">
        <ele>1224.86</ele>
        <time>2021-09-29T09:31:49Z</time>
      </trkpt>
      <trkpt lat="44.516" lon="5.50984">
        <ele>1226.78</ele>
        <time>2021-09-29T09:32:09Z</time>
      </trkpt>
      <trkpt lat="44.51602" lon="5.50981">
        <ele>1226.78</ele>
        <time>2021-09-29T09:32:13Z</time>
      </trkpt>
      <trkpt lat="44.51603" lon="5.5098">
        <ele>1226.78</ele>
        <time>2021-09-29T09:32:14Z</time>
      </trkpt>
      <trkpt lat="44.51611" lon="5.50963">
        <ele>1230.14</ele>
        <time>2021-09-29T09:32:34Z</time>
      </trkpt>
      <trkpt lat="44.51615" lon="5.50957">
        <ele>1230.62</ele>
        <time>2021-09-29T09:32:39Z</time>
      </trkpt>
      <trkpt lat="44.51618" lon="5.50947">
        <ele>1231.59</ele>
        <time>2021-09-29T09:32:47Z</time>
      </trkpt>
      <trkpt lat="44.5162" lon="5.50926">
        <ele>1234.95</ele>
        <time>2021-09-29T09:33:12Z</time>
      </trkpt>
      <trkpt lat="44.51623" lon="5.5092">
        <ele>1236.87</ele>
        <time>2021-09-29T09:33:31Z</time>
      </trkpt>
      <trkpt lat="44.5163" lon="5.50912">
        <ele>1238.8</ele>
        <time>2021-09-29T09:33:52Z</time>
      </trkpt>
      <trkpt lat="44.5164" lon="5.50912">
        <ele>1241.2</ele>
        <time>2021-09-29T09:34:06Z</time>
      </trkpt>
      <trkpt lat="44.51647" lon="5.50909">
        <ele>1243.6</ele>
        <time>2021-09-29T09:34:21Z</time>
      </trkpt>
      <trkpt lat="44.51663" lon="5.50898">
        <ele>1245.53</ele>
        <time>2021-09-29T09:34:46Z</time>
      </trkpt>
      <trkpt lat="44.51675" lon="5.50893">
        <ele>1245.53</ele>
        <time>2021-09-29T09:35:01Z</time>
      </trkpt>
      <trkpt lat="44.51689" lon="5.50883">
        <ele>1246.01</ele>
        <time>2021-09-29T09:35:21Z</time>
      </trkpt>
      <trkpt lat="44.51705" lon="5.50876">
        <ele>1247.45</ele>
        <time>2021-09-29T09:35:41Z</time>
      </trkpt>
      <trkpt lat="44.51715" lon="5.50871">
        <ele>1248.41</ele>
        <time>2021-09-29T09:35:55Z</time>
      </trkpt>
      <trkpt lat="44.5173" lon="5.50857">
        <ele>1250.33</ele>
        <time>2021-09-29T09:36:17Z</time>
      </trkpt>
      <trkpt lat="44.51732" lon="5.50857">
        <ele>1250.81</ele>
        <time>2021-09-29T09:36:21Z</time>
      </trkpt>
      <trkpt lat="44.51748" lon="5.5086">
        <ele>1251.29</ele>
        <time>2021-09-29T09:36:38Z</time>
      </trkpt>
      <trkpt lat="44.51762" lon="5.5085">
        <ele>1251.77</ele>
        <time>2021-09-29T09:36:53Z</time>
      </trkpt>
      <trkpt lat="44.51775" lon="5.50846">
        <ele>1252.74</ele>
        <time>2021-09-29T09:37:04Z</time>
      </trkpt>
      <trkpt lat="44.51784" lon="5.50841">
        <ele>1253.22</ele>
        <time>2021-09-29T09:37:15Z</time>
      </trkpt>
      <trkpt lat="44.51789" lon="5.5084">
        <ele>1253.7</ele>
        <time>2021-09-29T09:37:19Z</time>
      </trkpt>
      <trkpt lat="44.51801" lon="5.50832">
        <ele>1255.14</ele>
        <time>2021-09-29T09:37:36Z</time>
      </trkpt>
      <trkpt lat="44.51814" lon="5.50826">
        <ele>1258.02</ele>
        <time>2021-09-29T09:37:56Z</time>
      </trkpt>
      <trkpt lat="44.51826" lon="5.50828">
        <ele>1260.91</ele>
        <time>2021-09-29T09:38:18Z</time>
      </trkpt>
      <trkpt lat="44.51845" lon="5.50828">
        <ele>1261.39</ele>
        <time>2021-09-29T09:38:34Z</time>
      </trkpt>
      <trkpt lat="44.51861" lon="5.50821">
        <ele>1261.39</ele>
        <time>2021-09-29T09:38:50Z</time>
      </trkpt>
      <trkpt lat="44.51868" lon="5.50814">
        <ele>1262.35</ele>
        <time>2021-09-29T09:39:03Z</time>
      </trkpt>
      <trkpt lat="44.51877" lon="5.50803">
        <ele>1263.31</ele>
        <time>2021-09-29T09:39:18Z</time>
      </trkpt>
      <trkpt lat="44.51887" lon="5.50784">
        <ele>1263.79</ele>
        <time>2021-09-29T09:39:39Z</time>
      </trkpt>
      <trkpt lat="44.51902" lon="5.50768">
        <ele>1264.27</ele>
        <time>2021-09-29T09:39:57Z</time>
      </trkpt>
      <trkpt lat="44.51921" lon="5.50748">
        <ele>1265.23</ele>
        <time>2021-09-29T09:40:19Z</time>
      </trkpt>
      <trkpt lat="44.51933" lon="5.50737">
        <ele>1267.64</ele>
        <time>2021-09-29T09:40:37Z</time>
      </trkpt>
      <trkpt lat="44.5194" lon="5.50732">
        <ele>1270.04</ele>
        <time>2021-09-29T09:40:57Z</time>
      </trkpt>
      <trkpt lat="44.5195" lon="5.50729">
        <ele>1273.4</ele>
        <time>2021-09-29T09:41:16Z</time>
      </trkpt>
      <trkpt lat="44.51961" lon="5.50722">
        <ele>1275.81</ele>
        <time>2021-09-29T09:41:33Z</time>
      </trkpt>
      <trkpt lat="44.51973" lon="5.50714">
        <ele>1277.73</ele>
        <time>2021-09-29T09:41:52Z</time>
      </trkpt>
      <trkpt lat="44.51981" lon="5.50698">
        <ele>1280.13</ele>
        <time>2021-09-29T09:42:13Z</time>
      </trkpt>
      <trkpt lat="44.5199" lon="5.50686">
        <ele>1281.57</ele>
        <time>2021-09-29T09:42:32Z</time>
      </trkpt>
      <trkpt lat="44.51998" lon="5.50661">
        <ele>1283.02</ele>
        <time>2021-09-29T09:42:52Z</time>
      </trkpt>
      <trkpt lat="44.52006" lon="5.50642">
        <ele>1283.98</ele>
        <time>2021-09-29T09:43:11Z</time>
      </trkpt>
      <trkpt lat="44.52014" lon="5.5062">
        <ele>1284.46</ele>
        <time>2021-09-29T09:43:31Z</time>
      </trkpt>
      <trkpt lat="44.52023" lon="5.50599">
        <ele>1284.94</ele>
        <time>2021-09-29T09:43:50Z</time>
      </trkpt>
      <trkpt lat="44.52034" lon="5.50575">
        <ele>1286.38</ele>
        <time>2021-09-29T09:44:13Z</time>
      </trkpt>
      <trkpt lat="44.52046" lon="5.50555">
        <ele>1289.75</ele>
        <time>2021-09-29T09:44:35Z</time>
      </trkpt>
      <trkpt lat="44.52058" lon="5.5053">
        <ele>1291.19</ele>
        <time>2021-09-29T09:44:59Z</time>
      </trkpt>
      <trkpt lat="44.52068" lon="5.50505">
        <ele>1293.11</ele>
        <time>2021-09-29T09:45:21Z</time>
      </trkpt>
      <trkpt lat="44.52072" lon="5.50486">
        <ele>1293.59</ele>
        <time>2021-09-29T09:45:34Z</time>
      </trkpt>
      <trkpt lat="44.52073" lon="5.50482">
        <ele>1293.59</ele>
        <time>2021-09-29T09:45:58Z</time>
      </trkpt>
      <trkpt lat="44.52075" lon="5.50481">
        <ele>1293.59</ele>
        <time>2021-09-29T09:46:14Z</time>
      </trkpt>
      <trkpt lat="44.52079" lon="5.50482">
        <ele>1293.59</ele>
        <time>2021-09-29T09:46:30Z</time>
      </trkpt>
      <trkpt lat="44.52079" lon="5.50482">
        <ele>1293.59</ele>
        <time>2021-09-29T09:46:39Z</time>
      </trkpt>
      <trkpt lat="44.5208" lon="5.50482">
        <ele>1293.59</ele>
        <time>2021-09-29T09:47:06Z</time>
      </trkpt>
      <trkpt lat="44.5208" lon="5.50481">
        <ele>1293.59</ele>
        <time>2021-09-29T09:48:14Z</time>
      </trkpt>
      <trkpt lat="44.5208" lon="5.50482">
        <ele>1293.59</ele>
        <time>2021-09-29T09:50:36Z</time>
      </trkpt>
      <trkpt lat="44.52079" lon="5.5048">
        <ele>1293.59</ele>
        <time>2021-09-29T09:50:55Z</time>
      </trkpt>
      <trkpt lat="44.5208" lon="5.5048">
        <ele>1293.59</ele>
        <time>2021-09-29T09:51:27Z</time>
      </trkpt>
      <trkpt lat="44.5208" lon="5.50482">
        <ele>1293.59</ele>
        <time>2021-09-29T09:52:04Z</time>
      </trkpt>
      <trkpt lat="44.52081" lon="5.50492">
        <ele>1293.59</ele>
        <time>2021-09-29T09:52:21Z</time>
      </trkpt>
      <trkpt lat="44.52083" lon="5.50509">
        <ele>1293.59</ele>
        <time>2021-09-29T09:52:40Z</time>
      </trkpt>
      <trkpt lat="44.52089" lon="5.5053">
        <ele>1293.59</ele>
        <time>2021-09-29T09:52:58Z</time>
      </trkpt>
      <trkpt lat="44.5209" lon="5.50541">
        <ele>1296.48</ele>
        <time>2021-09-29T09:53:06Z</time>
      </trkpt>
      <trkpt lat="44.52091" lon="5.50558">
        <ele>1299.84</ele>
        <time>2021-09-29T09:53:23Z</time>
      </trkpt>
      <trkpt lat="44.52092" lon="5.50585">
        <ele>1302.72</ele>
        <time>2021-09-29T09:53:46Z</time>
      </trkpt>
      <trkpt lat="44.52088" lon="5.506">
        <ele>1303.69</ele>
        <time>2021-09-29T09:53:58Z</time>
      </trkpt>
      <trkpt lat="44.52087" lon="5.50603">
        <ele>1303.69</ele>
        <time>2021-09-29T09:54:00Z</time>
      </trkpt>
      <trkpt lat="44.52083" lon="5.50623">
        <ele>1304.65</ele>
        <time>2021-09-29T09:54:16Z</time>
      </trkpt>
      <trkpt lat="44.52078" lon="5.50642">
        <ele>1306.57</ele>
        <time>2021-09-29T09:54:31Z</time>
      </trkpt>
      <trkpt lat="44.52071" lon="5.50666">
        <ele>1308.97</ele>
        <time>2021-09-29T09:54:51Z</time>
      </trkpt>
      <trkpt lat="44.52068" lon="5.5067">
        <ele>1309.45</ele>
        <time>2021-09-29T09:54:55Z</time>
      </trkpt>
      <trkpt lat="44.52064" lon="5.50683">
        <ele>1310.41</ele>
        <time>2021-09-29T09:55:08Z</time>
      </trkpt>
      <trkpt lat="44.52062" lon="5.50699">
        <ele>1312.82</ele>
        <time>2021-09-29T09:55:26Z</time>
      </trkpt>
      <trkpt lat="44.52066" lon="5.50713">
        <ele>1315.22</ele>
        <time>2021-09-29T09:55:42Z</time>
      </trkpt>
      <trkpt lat="44.52068" lon="5.50721">
        <ele>1318.1</ele>
        <time>2021-09-29T09:55:59Z</time>
      </trkpt>
      <trkpt lat="44.5207" lon="5.50736">
        <ele>1320.51</ele>
        <time>2021-09-29T09:56:18Z</time>
      </trkpt>
      <trkpt lat="44.52072" lon="5.50748">
        <ele>1322.91</ele>
        <time>2021-09-29T09:56:33Z</time>
      </trkpt>
      <trkpt lat="44.52077" lon="5.50755">
        <ele>1325.8</ele>
        <time>2021-09-29T09:56:49Z</time>
      </trkpt>
      <trkpt lat="44.52086" lon="5.50763">
        <ele>1328.68</ele>
        <time>2021-09-29T09:57:08Z</time>
      </trkpt>
      <trkpt lat="44.52093" lon="5.50773">
        <ele>1330.6</ele>
        <time>2021-09-29T09:57:23Z</time>
      </trkpt>
      <trkpt lat="44.52093" lon="5.50775">
        <ele>1330.6</ele>
        <time>2021-09-29T09:57:43Z</time>
      </trkpt>
      <trkpt lat="44.52093" lon="5.50777">
        <ele>1330.6</ele>
        <time>2021-09-29T09:58:01Z</time>
      </trkpt>
      <trkpt lat="44.52089" lon="5.50789">
        <ele>1332.04</ele>
        <time>2021-09-29T09:58:19Z</time>
      </trkpt>
      <trkpt lat="44.52085" lon="5.50793">
        <ele>1334.45</ele>
        <time>2021-09-29T09:58:38Z</time>
      </trkpt>
      <trkpt lat="44.52077" lon="5.508">
        <ele>1337.33</ele>
        <time>2021-09-29T09:58:57Z</time>
      </trkpt>
      <trkpt lat="44.52071" lon="5.50802">
        <ele>1339.25</ele>
        <time>2021-09-29T09:59:14Z</time>
      </trkpt>
      <trkpt lat="44.52065" lon="5.50803">
        <ele>1340.7</ele>
        <time>2021-09-29T09:59:29Z</time>
      </trkpt>
      <trkpt lat="44.52063" lon="5.50811">
        <ele>1342.14</ele>
        <time>2021-09-29T09:59:43Z</time>
      </trkpt>
      <trkpt lat="44.52061" lon="5.50821">
        <ele>1342.14</ele>
        <time>2021-09-29T10:00:03Z</time>
      </trkpt>
      <trkpt lat="44.52055" lon="5.50831">
        <ele>1340.7</ele>
        <time>2021-09-29T10:00:14Z</time>
      </trkpt>
      <trkpt lat="44.52044" lon="5.50839">
        <ele>1338.77</ele>
        <time>2021-09-29T10:00:30Z</time>
      </trkpt>
      <trkpt lat="44.52034" lon="5.50846">
        <ele>1336.37</ele>
        <time>2021-09-29T10:00:47Z</time>
      </trkpt>
      <trkpt lat="44.5203" lon="5.5085">
        <ele>1335.89</ele>
        <time>2021-09-29T10:00:54Z</time>
      </trkpt>
      <trkpt lat="44.52026" lon="5.50857">
        <ele>1334.93</ele>
        <time>2021-09-29T10:01:06Z</time>
      </trkpt>
      <trkpt lat="44.52017" lon="5.50874">
        <ele>1333.01</ele>
        <time>2021-09-29T10:01:26Z</time>
      </trkpt>
      <trkpt lat="44.52009" lon="5.50898">
        <ele>1333.01</ele>
        <time>2021-09-29T10:01:45Z</time>
      </trkpt>
      <trkpt lat="44.52008" lon="5.50907">
        <ele>1333.01</ele>
        <time>2021-09-29T10:01:50Z</time>
      </trkpt>
      <trkpt lat="44.52008" lon="5.50909">
        <ele>1333.01</ele>
        <time>2021-09-29T10:01:51Z</time>
      </trkpt>
      <trkpt lat="44.52004" lon="5.50932">
        <ele>1330.6</ele>
        <time>2021-09-29T10:02:09Z</time>
      </trkpt>
      <trkpt lat="44.52" lon="5.50947">
        <ele>1330.6</ele>
        <time>2021-09-29T10:02:24Z</time>
      </trkpt>
      <trkpt lat="44.51992" lon="5.50957">
        <ele>1333.49</ele>
        <time>2021-09-29T10:02:40Z</time>
      </trkpt>
      <trkpt lat="44.51982" lon="5.50967">
        <ele>1336.37</ele>
        <time>2021-09-29T10:02:55Z</time>
      </trkpt>
      <trkpt lat="44.51981" lon="5.50969">
        <ele>1337.81</ele>
        <time>2021-09-29T10:02:58Z</time>
      </trkpt>
      <trkpt lat="44.51972" lon="5.50977">
        <ele>1340.7</ele>
        <time>2021-09-29T10:03:16Z</time>
      </trkpt>
      <trkpt lat="44.51966" lon="5.50983">
        <ele>1343.1</ele>
        <time>2021-09-29T10:03:30Z</time>
      </trkpt>
      <trkpt lat="44.51962" lon="5.50989">
        <ele>1345.5</ele>
        <time>2021-09-29T10:03:42Z</time>
      </trkpt>
      <trkpt lat="44.51964" lon="5.50999">
        <ele>1347.91</ele>
        <time>2021-09-29T10:03:59Z</time>
      </trkpt>
      <trkpt lat="44.51964" lon="5.51013">
        <ele>1349.83</ele>
        <time>2021-09-29T10:04:18Z</time>
      </trkpt>
      <trkpt lat="44.51967" lon="5.5103">
        <ele>1353.19</ele>
        <time>2021-09-29T10:04:42Z</time>
      </trkpt>
      <trkpt lat="44.51969" lon="5.51047">
        <ele>1355.6</ele>
        <time>2021-09-29T10:05:04Z</time>
      </trkpt>
      <trkpt lat="44.51969" lon="5.51061">
        <ele>1358.96</ele>
        <time>2021-09-29T10:05:25Z</time>
      </trkpt>
      <trkpt lat="44.51972" lon="5.51071">
        <ele>1359.92</ele>
        <time>2021-09-29T10:05:43Z</time>
      </trkpt>
      <trkpt lat="44.5197" lon="5.51079">
        <ele>1362.81</ele>
        <time>2021-09-29T10:06:03Z</time>
      </trkpt>
      <trkpt lat="44.51967" lon="5.51085">
        <ele>1366.17</ele>
        <time>2021-09-29T10:06:22Z</time>
      </trkpt>
      <trkpt lat="44.51963" lon="5.51095">
        <ele>1369.05</ele>
        <time>2021-09-29T10:06:43Z</time>
      </trkpt>
      <trkpt lat="44.51962" lon="5.51098">
        <ele>1370.98</ele>
        <time>2021-09-29T10:06:59Z</time>
      </trkpt>
      <trkpt lat="44.51958" lon="5.51098">
        <ele>1374.34</ele>
        <time>2021-09-29T10:07:16Z</time>
      </trkpt>
      <trkpt lat="44.51953" lon="5.51102">
        <ele>1377.23</ele>
        <time>2021-09-29T10:07:31Z</time>
      </trkpt>
      <trkpt lat="44.51948" lon="5.51106">
        <ele>1380.59</ele>
        <time>2021-09-29T10:07:47Z</time>
      </trkpt>
      <trkpt lat="44.51944" lon="5.51108">
        <ele>1383.47</ele>
        <time>2021-09-29T10:08:02Z</time>
      </trkpt>
      <trkpt lat="44.51939" lon="5.51115">
        <ele>1385.88</ele>
        <time>2021-09-29T10:08:22Z</time>
      </trkpt>
      <trkpt lat="44.51934" lon="5.51122">
        <ele>1389.24</ele>
        <time>2021-09-29T10:08:40Z</time>
      </trkpt>
      <trkpt lat="44.51931" lon="5.51132">
        <ele>1392.13</ele>
        <time>2021-09-29T10:09:01Z</time>
      </trkpt>
      <trkpt lat="44.51928" lon="5.51138">
        <ele>1395.01</ele>
        <time>2021-09-29T10:09:21Z</time>
      </trkpt>
      <trkpt lat="44.51925" lon="5.51138">
        <ele>1396.45</ele>
        <time>2021-09-29T10:09:36Z</time>
      </trkpt>
      <trkpt lat="44.51922" lon="5.51141">
        <ele>1398.86</ele>
        <time>2021-09-29T10:09:54Z</time>
      </trkpt>
      <trkpt lat="44.51919" lon="5.51141">
        <ele>1402.22</ele>
        <time>2021-09-29T10:10:16Z</time>
      </trkpt>
      <trkpt lat="44.51919" lon="5.51144">
        <ele>1404.62</ele>
        <time>2021-09-29T10:10:41Z</time>
      </trkpt>
      <trkpt lat="44.51919" lon="5.51149">
        <ele>1407.51</ele>
        <time>2021-09-29T10:11:02Z</time>
      </trkpt>
      <trkpt lat="44.51918" lon="5.51152">
        <ele>1409.91</ele>
        <time>2021-09-29T10:11:24Z</time>
      </trkpt>
      <trkpt lat="44.51916" lon="5.51157">
        <ele>1412.31</ele>
        <time>2021-09-29T10:11:40Z</time>
      </trkpt>
      <trkpt lat="44.51917" lon="5.51161">
        <ele>1412.79</ele>
        <time>2021-09-29T10:11:57Z</time>
      </trkpt>
      <trkpt lat="44.51915" lon="5.51166">
        <ele>1414.24</ele>
        <time>2021-09-29T10:12:19Z</time>
      </trkpt>
      <trkpt lat="44.51915" lon="5.5117">
        <ele>1415.68</ele>
        <time>2021-09-29T10:12:35Z</time>
      </trkpt>
      <trkpt lat="44.51914" lon="5.51175">
        <ele>1417.12</ele>
        <time>2021-09-29T10:13:01Z</time>
      </trkpt>
      <trkpt lat="44.51911" lon="5.51185">
        <ele>1420</ele>
        <time>2021-09-29T10:13:21Z</time>
      </trkpt>
      <trkpt lat="44.51911" lon="5.51192">
        <ele>1422.89</ele>
        <time>2021-09-29T10:13:43Z</time>
      </trkpt>
      <trkpt lat="44.51912" lon="5.51195">
        <ele>1424.81</ele>
        <time>2021-09-29T10:13:56Z</time>
      </trkpt>
      <trkpt lat="44.51912" lon="5.51198">
        <ele>1426.25</ele>
        <time>2021-09-29T10:14:12Z</time>
      </trkpt>
      <trkpt lat="44.51913" lon="5.51207">
        <ele>1428.66</ele>
        <time>2021-09-29T10:14:37Z</time>
      </trkpt>
      <trkpt lat="44.51911" lon="5.51211">
        <ele>1431.06</ele>
        <time>2021-09-29T10:14:57Z</time>
      </trkpt>
      <trkpt lat="44.51909" lon="5.51214">
        <ele>1433.94</ele>
        <time>2021-09-29T10:15:22Z</time>
      </trkpt>
      <trkpt lat="44.51908" lon="5.51216">
        <ele>1436.35</ele>
        <time>2021-09-29T10:15:46Z</time>
      </trkpt>
      <trkpt lat="44.51906" lon="5.51216">
        <ele>1439.23</ele>
        <time>2021-09-29T10:16:11Z</time>
      </trkpt>
      <trkpt lat="44.51904" lon="5.51215">
        <ele>1441.63</ele>
        <time>2021-09-29T10:16:34Z</time>
      </trkpt>
      <trkpt lat="44.51899" lon="5.51217">
        <ele>1444.04</ele>
        <time>2021-09-29T10:17:01Z</time>
      </trkpt>
      <trkpt lat="44.51896" lon="5.51218">
        <ele>1446.44</ele>
        <time>2021-09-29T10:17:18Z</time>
      </trkpt>
      <trkpt lat="44.51891" lon="5.51219">
        <ele>1449.81</ele>
        <time>2021-09-29T10:17:38Z</time>
      </trkpt>
      <trkpt lat="44.51888" lon="5.51223">
        <ele>1452.69</ele>
        <time>2021-09-29T10:17:58Z</time>
      </trkpt>
      <trkpt lat="44.51887" lon="5.51227">
        <ele>1455.57</ele>
        <time>2021-09-29T10:18:18Z</time>
      </trkpt>
      <trkpt lat="44.51886" lon="5.5123">
        <ele>1457.02</ele>
        <time>2021-09-29T10:18:35Z</time>
      </trkpt>
      <trkpt lat="44.51884" lon="5.51233">
        <ele>1460.38</ele>
        <time>2021-09-29T10:19:03Z</time>
      </trkpt>
      <trkpt lat="44.51881" lon="5.51243">
        <ele>1462.78</ele>
        <time>2021-09-29T10:19:18Z</time>
      </trkpt>
      <trkpt lat="44.51877" lon="5.51245">
        <ele>1465.67</ele>
        <time>2021-09-29T10:19:46Z</time>
      </trkpt>
      <trkpt lat="44.51875" lon="5.51248">
        <ele>1468.07</ele>
        <time>2021-09-29T10:20:04Z</time>
      </trkpt>
      <trkpt lat="44.51872" lon="5.51252">
        <ele>1469.51</ele>
        <time>2021-09-29T10:20:19Z</time>
      </trkpt>
      <trkpt lat="44.5187" lon="5.51257">
        <ele>1471.44</ele>
        <time>2021-09-29T10:20:35Z</time>
      </trkpt>
      <trkpt lat="44.51869" lon="5.51258">
        <ele>1472.4</ele>
        <time>2021-09-29T10:20:55Z</time>
      </trkpt>
      <trkpt lat="44.51866" lon="5.5126">
        <ele>1473.84</ele>
        <time>2021-09-29T10:21:10Z</time>
      </trkpt>
      <trkpt lat="44.51863" lon="5.51268">
        <ele>1475.28</ele>
        <time>2021-09-29T10:21:27Z</time>
      </trkpt>
      <trkpt lat="44.51865" lon="5.5127">
        <ele>1476.72</ele>
        <time>2021-09-29T10:21:43Z</time>
      </trkpt>
      <trkpt lat="44.51864" lon="5.5127">
        <ele>1477.68</ele>
        <time>2021-09-29T10:22:17Z</time>
      </trkpt>
      <trkpt lat="44.51864" lon="5.5128">
        <ele>1477.68</ele>
        <time>2021-09-29T10:22:35Z</time>
      </trkpt>
      <trkpt lat="44.51866" lon="5.51279">
        <ele>1478.65</ele>
        <time>2021-09-29T10:22:54Z</time>
      </trkpt>
      <trkpt lat="44.51866" lon="5.51278">
        <ele>1478.16</ele>
        <time>2021-09-29T10:23:17Z</time>
      </trkpt>
      <trkpt lat="44.51866" lon="5.51279">
        <ele>1478.16</ele>
        <time>2021-09-29T10:23:58Z</time>
      </trkpt>
      <trkpt lat="44.51866" lon="5.51279">
        <ele>1478.16</ele>
        <time>2021-09-29T10:24:27Z</time>
      </trkpt>
      <trkpt lat="44.51866" lon="5.5128">
        <ele>1478.16</ele>
        <time>2021-09-29T10:24:56Z</time>
      </trkpt>
      <trkpt lat="44.51866" lon="5.5128">
        <ele>1475.28</ele>
        <time>2021-09-29T10:25:12Z</time>
      </trkpt>
      <trkpt lat="44.51866" lon="5.5128">
        <ele>1475.28</ele>
        <time>2021-09-29T10:25:50Z</time>
      </trkpt>
      <trkpt lat="44.51866" lon="5.5128">
        <ele>1472.88</ele>
        <time>2021-09-29T10:26:01Z</time>
      </trkpt>
      <trkpt lat="44.51866" lon="5.5128">
        <ele>1476.24</ele>
        <time>2021-09-29T10:26:07Z</time>
      </trkpt>
      <trkpt lat="44.51865" lon="5.51281">
        <ele>1476.24</ele>
        <time>2021-09-29T10:26:32Z</time>
      </trkpt>
      <trkpt lat="44.51865" lon="5.51283">
        <ele>1476.72</ele>
        <time>2021-09-29T10:26:52Z</time>
      </trkpt>
      <trkpt lat="44.51866" lon="5.51283">
        <ele>1476.24</ele>
        <time>2021-09-29T10:27:21Z</time>
      </trkpt>
      <trkpt lat="44.51867" lon="5.51283">
        <ele>1477.2</ele>
        <time>2021-09-29T10:27:39Z</time>
      </trkpt>
      <trkpt lat="44.51866" lon="5.51283">
        <ele>1477.68</ele>
        <time>2021-09-29T10:28:03Z</time>
      </trkpt>
      <trkpt lat="44.51866" lon="5.51283">
        <ele>1478.16</ele>
        <time>2021-09-29T10:28:41Z</time>
      </trkpt>
      <trkpt lat="44.51866" lon="5.51283">
        <ele>1478.65</ele>
        <time>2021-09-29T10:29:07Z</time>
      </trkpt>
      <trkpt lat="44.51866" lon="5.51283">
        <ele>1477.2</ele>
        <time>2021-09-29T10:29:46Z</time>
      </trkpt>
      <trkpt lat="44.51868" lon="5.51285">
        <ele>1476.72</ele>
        <time>2021-09-29T10:30:14Z</time>
      </trkpt>
      <trkpt lat="44.51868" lon="5.51296">
        <ele>1477.2</ele>
        <time>2021-09-29T10:30:32Z</time>
      </trkpt>
      <trkpt lat="44.5187" lon="5.5131">
        <ele>1479.61</ele>
        <time>2021-09-29T10:30:50Z</time>
      </trkpt>
      <trkpt lat="44.51872" lon="5.51321">
        <ele>1482.49</ele>
        <time>2021-09-29T10:31:08Z</time>
      </trkpt>
      <trkpt lat="44.51872" lon="5.51333">
        <ele>1485.37</ele>
        <time>2021-09-29T10:31:28Z</time>
      </trkpt>
      <trkpt lat="44.51873" lon="5.51345">
        <ele>1488.26</ele>
        <time>2021-09-29T10:31:45Z</time>
      </trkpt>
      <trkpt lat="44.51877" lon="5.51351">
        <ele>1490.66</ele>
        <time>2021-09-29T10:32:05Z</time>
      </trkpt>
      <trkpt lat="44.51878" lon="5.51356">
        <ele>1493.06</ele>
        <time>2021-09-29T10:32:21Z</time>
      </trkpt>
      <trkpt lat="44.5188" lon="5.5136">
        <ele>1494.03</ele>
        <time>2021-09-29T10:32:34Z</time>
      </trkpt>
      <trkpt lat="44.5188" lon="5.51368">
        <ele>1496.91</ele>
        <time>2021-09-29T10:32:51Z</time>
      </trkpt>
      <trkpt lat="44.51883" lon="5.51371">
        <ele>1498.83</ele>
        <time>2021-09-29T10:33:12Z</time>
      </trkpt>
      <trkpt lat="44.51886" lon="5.51376">
        <ele>1500.76</ele>
        <time>2021-09-29T10:33:32Z</time>
      </trkpt>
      <trkpt lat="44.51888" lon="5.51378">
        <ele>1502.68</ele>
        <time>2021-09-29T10:33:49Z</time>
      </trkpt>
      <trkpt lat="44.51888" lon="5.51383">
        <ele>1504.12</ele>
        <time>2021-09-29T10:34:11Z</time>
      </trkpt>
      <trkpt lat="44.51888" lon="5.51384">
        <ele>1503.64</ele>
        <time>2021-09-29T10:34:55Z</time>
      </trkpt>
      <trkpt lat="44.51888" lon="5.51387">
        <ele>1504.12</ele>
        <time>2021-09-29T10:35:16Z</time>
      </trkpt>
      <trkpt lat="44.51888" lon="5.51387">
        <ele>1504.12</ele>
        <time>2021-09-29T10:35:47Z</time>
      </trkpt>
      <trkpt lat="44.51888" lon="5.51387">
        <ele>1504.12</ele>
        <time>2021-09-29T10:36:19Z</time>
      </trkpt>
      <trkpt lat="44.51891" lon="5.51392">
        <ele>1504.12</ele>
        <time>2021-09-29T10:36:44Z</time>
      </trkpt>
      <trkpt lat="44.51896" lon="5.51401">
        <ele>1504.12</ele>
        <time>2021-09-29T10:37:01Z</time>
      </trkpt>
      <trkpt lat="44.51899" lon="5.5141">
        <ele>1504.12</ele>
        <time>2021-09-29T10:37:21Z</time>
      </trkpt>
      <trkpt lat="44.519" lon="5.51411">
        <ele>1510.37</ele>
        <time>2021-09-29T10:37:23Z</time>
      </trkpt>
      <trkpt lat="44.519" lon="5.51412">
        <ele>1510.37</ele>
        <time>2021-09-29T10:37:24Z</time>
      </trkpt>
      <trkpt lat="44.51903" lon="5.51423">
        <ele>1512.29</ele>
        <time>2021-09-29T10:37:42Z</time>
      </trkpt>
      <trkpt lat="44.51907" lon="5.5143">
        <ele>1515.66</ele>
        <time>2021-09-29T10:38:00Z</time>
      </trkpt>
      <trkpt lat="44.51913" lon="5.51438">
        <ele>1517.1</ele>
        <time>2021-09-29T10:38:15Z</time>
      </trkpt>
      <trkpt lat="44.51915" lon="5.51443">
        <ele>1519.02</ele>
        <time>2021-09-29T10:38:33Z</time>
      </trkpt>
      <trkpt lat="44.51918" lon="5.51449">
        <ele>1519.98</ele>
        <time>2021-09-29T10:38:39Z</time>
      </trkpt>
      <trkpt lat="44.51923" lon="5.51465">
        <ele>1522.39</ele>
        <time>2021-09-29T10:38:53Z</time>
      </trkpt>
      <trkpt lat="44.51923" lon="5.51466">
        <ele>1522.39</ele>
        <time>2021-09-29T10:38:54Z</time>
      </trkpt>
      <trkpt lat="44.5193" lon="5.51476">
        <ele>1525.75</ele>
        <time>2021-09-29T10:39:06Z</time>
      </trkpt>
      <trkpt lat="44.51936" lon="5.51484">
        <ele>1528.15</ele>
        <time>2021-09-29T10:39:21Z</time>
      </trkpt>
      <trkpt lat="44.51942" lon="5.51495">
        <ele>1531.04</ele>
        <time>2021-09-29T10:39:40Z</time>
      </trkpt>
      <trkpt lat="44.51948" lon="5.51509">
        <ele>1533.44</ele>
        <time>2021-09-29T10:39:59Z</time>
      </trkpt>
      <trkpt lat="44.51948" lon="5.51526">
        <ele>1536.32</ele>
        <time>2021-09-29T10:40:17Z</time>
      </trkpt>
      <trkpt lat="44.51952" lon="5.5154">
        <ele>1538.25</ele>
        <time>2021-09-29T10:40:33Z</time>
      </trkpt>
      <trkpt lat="44.51953" lon="5.51544">
        <ele>1538.73</ele>
        <time>2021-09-29T10:40:36Z</time>
      </trkpt>
      <trkpt lat="44.51957" lon="5.51574">
        <ele>1537.77</ele>
        <time>2021-09-29T10:40:58Z</time>
      </trkpt>
      <trkpt lat="44.51969" lon="5.51591">
        <ele>1538.25</ele>
        <time>2021-09-29T10:41:15Z</time>
      </trkpt>
      <trkpt lat="44.51977" lon="5.51596">
        <ele>1539.21</ele>
        <time>2021-09-29T10:41:35Z</time>
      </trkpt>
      <trkpt lat="44.51977" lon="5.51596">
        <ele>1540.65</ele>
        <time>2021-09-29T10:42:04Z</time>
      </trkpt>
      <trkpt lat="44.51977" lon="5.51597">
        <ele>1540.17</ele>
        <time>2021-09-29T10:42:30Z</time>
      </trkpt>
      <trkpt lat="44.51977" lon="5.51597">
        <ele>1540.17</ele>
        <time>2021-09-29T10:42:54Z</time>
      </trkpt>
      <trkpt lat="44.51977" lon="5.51597">
        <ele>1540.17</ele>
        <time>2021-09-29T10:43:23Z</time>
      </trkpt>
      <trkpt lat="44.51976" lon="5.51597">
        <ele>1540.17</ele>
        <time>2021-09-29T10:43:57Z</time>
      </trkpt>
      <trkpt lat="44.51971" lon="5.51599">
        <ele>1540.17</ele>
        <time>2021-09-29T10:44:17Z</time>
      </trkpt>
      <trkpt lat="44.51969" lon="5.51603">
        <ele>1540.17</ele>
        <time>2021-09-29T10:44:31Z</time>
      </trkpt>
      <trkpt lat="44.51968" lon="5.51603">
        <ele>1536.32</ele>
        <time>2021-09-29T10:44:33Z</time>
      </trkpt>
      <trkpt lat="44.51968" lon="5.51603">
        <ele>1536.32</ele>
        <time>2021-09-29T10:44:34Z</time>
      </trkpt>
      <trkpt lat="44.51963" lon="5.51597">
        <ele>1535.84</ele>
        <time>2021-09-29T10:44:52Z</time>
      </trkpt>
      <trkpt lat="44.51964" lon="5.51596">
        <ele>1535.84</ele>
        <time>2021-09-29T10:45:08Z</time>
      </trkpt>
      <trkpt lat="44.51964" lon="5.51596">
        <ele>1534.4</ele>
        <time>2021-09-29T10:45:28Z</time>
      </trkpt>
      <trkpt lat="44.51965" lon="5.51596">
        <ele>1534.4</ele>
        <time>2021-09-29T10:46:02Z</time>
      </trkpt>
      <trkpt lat="44.51965" lon="5.51596">
        <ele>1532.48</ele>
        <time>2021-09-29T10:47:34Z</time>
      </trkpt>
      <trkpt lat="44.51965" lon="5.51596">
        <ele>1532.96</ele>
        <time>2021-09-29T10:49:06Z</time>
      </trkpt>
      <trkpt lat="44.51965" lon="5.51596">
        <ele>1532.96</ele>
        <time>2021-09-29T10:51:10Z</time>
      </trkpt>
      <trkpt lat="44.51965" lon="5.51596">
        <ele>1532.96</ele>
        <time>2021-09-29T10:52:16Z</time>
      </trkpt>
      <trkpt lat="44.51965" lon="5.51596">
        <ele>1532.96</ele>
        <time>2021-09-29T10:54:56Z</time>
      </trkpt>
      <trkpt lat="44.51965" lon="5.51596">
        <ele>1532.96</ele>
        <time>2021-09-29T10:58:05Z</time>
      </trkpt>
      <trkpt lat="44.51965" lon="5.51597">
        <ele>1532.96</ele>
        <time>2021-09-29T11:01:17Z</time>
      </trkpt>
      <trkpt lat="44.51966" lon="5.51597">
        <ele>1532.96</ele>
        <time>2021-09-29T11:03:40Z</time>
      </trkpt>
      <trkpt lat="44.51966" lon="5.51597">
        <ele>1532.96</ele>
        <time>2021-09-29T11:05:59Z</time>
      </trkpt>
      <trkpt lat="44.51965" lon="5.51597">
        <ele>1532.96</ele>
        <time>2021-09-29T11:07:56Z</time>
      </trkpt>
      <trkpt lat="44.51965" lon="5.51597">
        <ele>1532.96</ele>
        <time>2021-09-29T11:08:38Z</time>
      </trkpt>
      <trkpt lat="44.51965" lon="5.51597">
        <ele>1532.96</ele>
        <time>2021-09-29T11:09:39Z</time>
      </trkpt>
      <trkpt lat="44.51966" lon="5.51596">
        <ele>1532.96</ele>
        <time>2021-09-29T11:10:27Z</time>
      </trkpt>
      <trkpt lat="44.51966" lon="5.51596">
        <ele>1532.96</ele>
        <time>2021-09-29T11:13:37Z</time>
      </trkpt>
      <trkpt lat="44.51966" lon="5.51596">
        <ele>1532.96</ele>
        <time>2021-09-29T11:16:10Z</time>
      </trkpt>
      <trkpt lat="44.51966" lon="5.51595">
        <ele>1532.96</ele>
        <time>2021-09-29T11:18:19Z</time>
      </trkpt>
      <trkpt lat="44.51965" lon="5.51595">
        <ele>1532.96</ele>
        <time>2021-09-29T11:20:40Z</time>
      </trkpt>
      <trkpt lat="44.51966" lon="5.51595">
        <ele>1532.96</ele>
        <time>2021-09-29T11:22:29Z</time>
      </trkpt>
      <trkpt lat="44.51966" lon="5.51595">
        <ele>1532.96</ele>
        <time>2021-09-29T11:24:06Z</time>
      </trkpt>
      <trkpt lat="44.51966" lon="5.51595">
        <ele>1532.96</ele>
        <time>2021-09-29T11:24:53Z</time>
      </trkpt>
      <trkpt lat="44.51966" lon="5.51595">
        <ele>1532.96</ele>
        <time>2021-09-29T11:25:17Z</time>
      </trkpt>
      <trkpt lat="44.51966" lon="5.51596">
        <ele>1532.96</ele>
        <time>2021-09-29T11:26:00Z</time>
      </trkpt>
      <trkpt lat="44.51966" lon="5.51595">
        <ele>1532.96</ele>
        <time>2021-09-29T11:27:12Z</time>
      </trkpt>
      <trkpt lat="44.51966" lon="5.51595">
        <ele>1532.96</ele>
        <time>2021-09-29T11:32:16Z</time>
      </trkpt>
      <trkpt lat="44.51965" lon="5.51595">
        <ele>1532.96</ele>
        <time>2021-09-29T11:33:21Z</time>
      </trkpt>
      <trkpt lat="44.51965" lon="5.51595">
        <ele>1532.96</ele>
        <time>2021-09-29T11:33:43Z</time>
      </trkpt>
      <trkpt lat="44.51965" lon="5.51595">
        <ele>1532.96</ele>
        <time>2021-09-29T11:34:26Z</time>
      </trkpt>
      <trkpt lat="44.51964" lon="5.51595">
        <ele>1532.96</ele>
        <time>2021-09-29T11:35:01Z</time>
      </trkpt>
      <trkpt lat="44.51964" lon="5.51595">
        <ele>1532.96</ele>
        <time>2021-09-29T11:35:26Z</time>
      </trkpt>
      <trkpt lat="44.51963" lon="5.51587">
        <ele>1532.96</ele>
        <time>2021-09-29T11:35:47Z</time>
      </trkpt>
      <trkpt lat="44.51963" lon="5.51585">
        <ele>1532.96</ele>
        <time>2021-09-29T11:36:06Z</time>
      </trkpt>
      <trkpt lat="44.51966" lon="5.51588">
        <ele>1532.96</ele>
        <time>2021-09-29T11:36:30Z</time>
      </trkpt>
      <trkpt lat="44.51975" lon="5.51595">
        <ele>1532.96</ele>
        <time>2021-09-29T11:36:47Z</time>
      </trkpt>
      <trkpt lat="44.51976" lon="5.51594">
        <ele>1532.96</ele>
        <time>2021-09-29T11:37:08Z</time>
      </trkpt>
      <trkpt lat="44.51978" lon="5.51601">
        <ele>1538.25</ele>
        <time>2021-09-29T11:37:25Z</time>
      </trkpt>
      <trkpt lat="44.51979" lon="5.51602">
        <ele>1538.25</ele>
        <time>2021-09-29T11:37:26Z</time>
      </trkpt>
      <trkpt lat="44.51983" lon="5.51609">
        <ele>1537.77</ele>
        <time>2021-09-29T11:37:39Z</time>
      </trkpt>
      <trkpt lat="44.51987" lon="5.51623">
        <ele>1535.84</ele>
        <time>2021-09-29T11:37:57Z</time>
      </trkpt>
      <trkpt lat="44.51987" lon="5.51632">
        <ele>1532.96</ele>
        <time>2021-09-29T11:38:14Z</time>
      </trkpt>
      <trkpt lat="44.51988" lon="5.51635">
        <ele>1531.04</ele>
        <time>2021-09-29T11:38:27Z</time>
      </trkpt>
      <trkpt lat="44.51987" lon="5.51642">
        <ele>1529.59</ele>
        <time>2021-09-29T11:38:42Z</time>
      </trkpt>
      <trkpt lat="44.51993" lon="5.51654">
        <ele>1527.19</ele>
        <time>2021-09-29T11:38:59Z</time>
      </trkpt>
      <trkpt lat="44.51995" lon="5.51667">
        <ele>1525.75</ele>
        <time>2021-09-29T11:39:15Z</time>
      </trkpt>
      <trkpt lat="44.51996" lon="5.51676">
        <ele>1523.83</ele>
        <time>2021-09-29T11:39:30Z</time>
      </trkpt>
      <trkpt lat="44.51996" lon="5.51684">
        <ele>1521.42</ele>
        <time>2021-09-29T11:39:45Z</time>
      </trkpt>
      <trkpt lat="44.52" lon="5.51698">
        <ele>1519.02</ele>
        <time>2021-09-29T11:40:00Z</time>
      </trkpt>
      <trkpt lat="44.52006" lon="5.51705">
        <ele>1517.58</ele>
        <time>2021-09-29T11:40:15Z</time>
      </trkpt>
      <trkpt lat="44.52005" lon="5.51714">
        <ele>1517.58</ele>
        <time>2021-09-29T11:40:32Z</time>
      </trkpt>
      <trkpt lat="44.52006" lon="5.51716">
        <ele>1516.14</ele>
        <time>2021-09-29T11:40:49Z</time>
      </trkpt>
      <trkpt lat="44.52005" lon="5.51709">
        <ele>1515.66</ele>
        <time>2021-09-29T11:41:06Z</time>
      </trkpt>
      <trkpt lat="44.52014" lon="5.51714">
        <ele>1517.58</ele>
        <time>2021-09-29T11:41:23Z</time>
      </trkpt>
      <trkpt lat="44.52016" lon="5.51722">
        <ele>1517.1</ele>
        <time>2021-09-29T11:41:39Z</time>
      </trkpt>
      <trkpt lat="44.52017" lon="5.5173">
        <ele>1515.66</ele>
        <time>2021-09-29T11:41:51Z</time>
      </trkpt>
      <trkpt lat="44.52022" lon="5.51738">
        <ele>1515.66</ele>
        <time>2021-09-29T11:42:04Z</time>
      </trkpt>
      <trkpt lat="44.52022" lon="5.51743">
        <ele>1515.66</ele>
        <time>2021-09-29T11:42:19Z</time>
      </trkpt>
      <trkpt lat="44.52027" lon="5.51755">
        <ele>1515.66</ele>
        <time>2021-09-29T11:42:38Z</time>
      </trkpt>
      <trkpt lat="44.52031" lon="5.51757">
        <ele>1509.89</ele>
        <time>2021-09-29T11:42:44Z</time>
      </trkpt>
      <trkpt lat="44.52031" lon="5.51757">
        <ele>1509.89</ele>
        <time>2021-09-29T11:42:45Z</time>
      </trkpt>
      <trkpt lat="44.52038" lon="5.51769">
        <ele>1508.93</ele>
        <time>2021-09-29T11:43:04Z</time>
      </trkpt>
      <trkpt lat="44.52044" lon="5.51785">
        <ele>1507</ele>
        <time>2021-09-29T11:43:23Z</time>
      </trkpt>
      <trkpt lat="44.52051" lon="5.51795">
        <ele>1505.08</ele>
        <time>2021-09-29T11:43:37Z</time>
      </trkpt>
      <trkpt lat="44.52051" lon="5.51796">
        <ele>1505.08</ele>
        <time>2021-09-29T11:43:38Z</time>
      </trkpt>
      <trkpt lat="44.52052" lon="5.51798">
        <ele>1504.6</ele>
        <time>2021-09-29T11:43:39Z</time>
      </trkpt>
      <trkpt lat="44.52053" lon="5.51799">
        <ele>1504.6</ele>
        <time>2021-09-29T11:43:40Z</time>
      </trkpt>
      <trkpt lat="44.52055" lon="5.51802">
        <ele>1503.64</ele>
        <time>2021-09-29T11:43:59Z</time>
      </trkpt>
      <trkpt lat="44.52067" lon="5.5182">
        <ele>1501.72</ele>
        <time>2021-09-29T11:44:19Z</time>
      </trkpt>
      <trkpt lat="44.52072" lon="5.51829">
        <ele>1498.83</ele>
        <time>2021-09-29T11:44:38Z</time>
      </trkpt>
      <trkpt lat="44.52074" lon="5.51833">
        <ele>1499.31</ele>
        <time>2021-09-29T11:44:50Z</time>
      </trkpt>
      <trkpt lat="44.52075" lon="5.51834">
        <ele>1499.31</ele>
        <time>2021-09-29T11:44:51Z</time>
      </trkpt>
      <trkpt lat="44.52076" lon="5.51835">
        <ele>1499.31</ele>
        <time>2021-09-29T11:44:52Z</time>
      </trkpt>
      <trkpt lat="44.52084" lon="5.51851">
        <ele>1497.87</ele>
        <time>2021-09-29T11:45:10Z</time>
      </trkpt>
      <trkpt lat="44.52085" lon="5.51854">
        <ele>1497.87</ele>
        <time>2021-09-29T11:45:13Z</time>
      </trkpt>
      <trkpt lat="44.52086" lon="5.51855">
        <ele>1497.39</ele>
        <time>2021-09-29T11:45:14Z</time>
      </trkpt>
      <trkpt lat="44.52088" lon="5.51859">
        <ele>1495.95</ele>
        <time>2021-09-29T11:45:18Z</time>
      </trkpt>
      <trkpt lat="44.52095" lon="5.51865">
        <ele>1493.06</ele>
        <time>2021-09-29T11:45:29Z</time>
      </trkpt>
      <trkpt lat="44.52097" lon="5.51869">
        <ele>1492.58</ele>
        <time>2021-09-29T11:45:37Z</time>
      </trkpt>
      <trkpt lat="44.52097" lon="5.5187">
        <ele>1492.58</ele>
        <time>2021-09-29T11:45:38Z</time>
      </trkpt>
      <trkpt lat="44.52098" lon="5.51871">
        <ele>1492.1</ele>
        <time>2021-09-29T11:45:39Z</time>
      </trkpt>
      <trkpt lat="44.52099" lon="5.51872">
        <ele>1492.1</ele>
        <time>2021-09-29T11:45:40Z</time>
      </trkpt>
      <trkpt lat="44.52099" lon="5.51874">
        <ele>1492.1</ele>
        <time>2021-09-29T11:45:41Z</time>
      </trkpt>
      <trkpt lat="44.521" lon="5.51875">
        <ele>1492.1</ele>
        <time>2021-09-29T11:45:42Z</time>
      </trkpt>
      <trkpt lat="44.52101" lon="5.51875">
        <ele>1491.62</ele>
        <time>2021-09-29T11:45:43Z</time>
      </trkpt>
      <trkpt lat="44.52102" lon="5.51876">
        <ele>1491.62</ele>
        <time>2021-09-29T11:45:44Z</time>
      </trkpt>
      <trkpt lat="44.52112" lon="5.51887">
        <ele>1488.74</ele>
        <time>2021-09-29T11:46:00Z</time>
      </trkpt>
      <trkpt lat="44.52118" lon="5.51889">
        <ele>1486.82</ele>
        <time>2021-09-29T11:46:06Z</time>
      </trkpt>
      <trkpt lat="44.52125" lon="5.51891">
        <ele>1483.45</ele>
        <time>2021-09-29T11:46:14Z</time>
      </trkpt>
      <trkpt lat="44.52126" lon="5.5189">
        <ele>1482.97</ele>
        <time>2021-09-29T11:46:15Z</time>
      </trkpt>
      <trkpt lat="44.52132" lon="5.51892">
        <ele>1481.53</ele>
        <time>2021-09-29T11:46:31Z</time>
      </trkpt>
      <trkpt lat="44.52134" lon="5.51897">
        <ele>1481.05</ele>
        <time>2021-09-29T11:46:39Z</time>
      </trkpt>
      <trkpt lat="44.52135" lon="5.51898">
        <ele>1481.53</ele>
        <time>2021-09-29T11:46:40Z</time>
      </trkpt>
      <trkpt lat="44.52137" lon="5.519">
        <ele>1481.53</ele>
        <time>2021-09-29T11:46:42Z</time>
      </trkpt>
      <trkpt lat="44.52137" lon="5.51901">
        <ele>1481.53</ele>
        <time>2021-09-29T11:46:43Z</time>
      </trkpt>
      <trkpt lat="44.52138" lon="5.51902">
        <ele>1481.05</ele>
        <time>2021-09-29T11:46:44Z</time>
      </trkpt>
      <trkpt lat="44.52147" lon="5.51914">
        <ele>1478.16</ele>
        <time>2021-09-29T11:46:58Z</time>
      </trkpt>
      <trkpt lat="44.52148" lon="5.51915">
        <ele>1478.16</ele>
        <time>2021-09-29T11:46:59Z</time>
      </trkpt>
      <trkpt lat="44.52149" lon="5.51916">
        <ele>1477.68</ele>
        <time>2021-09-29T11:47:00Z</time>
      </trkpt>
      <trkpt lat="44.5215" lon="5.51918">
        <ele>1477.2</ele>
        <time>2021-09-29T11:47:02Z</time>
      </trkpt>
      <trkpt lat="44.52162" lon="5.51937">
        <ele>1474.32</ele>
        <time>2021-09-29T11:47:19Z</time>
      </trkpt>
      <trkpt lat="44.52175" lon="5.51958">
        <ele>1471.44</ele>
        <time>2021-09-29T11:47:38Z</time>
      </trkpt>
      <trkpt lat="44.52185" lon="5.51976">
        <ele>1469.03</ele>
        <time>2021-09-29T11:47:57Z</time>
      </trkpt>
      <trkpt lat="44.52194" lon="5.5199">
        <ele>1466.63</ele>
        <time>2021-09-29T11:48:15Z</time>
      </trkpt>
      <trkpt lat="44.52199" lon="5.52">
        <ele>1465.19</ele>
        <time>2021-09-29T11:48:27Z</time>
      </trkpt>
      <trkpt lat="44.52208" lon="5.52009">
        <ele>1463.74</ele>
        <time>2021-09-29T11:48:41Z</time>
      </trkpt>
      <trkpt lat="44.52216" lon="5.52023">
        <ele>1461.34</ele>
        <time>2021-09-29T11:49:00Z</time>
      </trkpt>
      <trkpt lat="44.52222" lon="5.52034">
        <ele>1458.94</ele>
        <time>2021-09-29T11:49:17Z</time>
      </trkpt>
      <trkpt lat="44.52231" lon="5.52049">
        <ele>1456.53</ele>
        <time>2021-09-29T11:49:36Z</time>
      </trkpt>
      <trkpt lat="44.52233" lon="5.52053">
        <ele>1455.09</ele>
        <time>2021-09-29T11:49:55Z</time>
      </trkpt>
      <trkpt lat="44.52234" lon="5.52063">
        <ele>1455.09</ele>
        <time>2021-09-29T11:50:11Z</time>
      </trkpt>
      <trkpt lat="44.52236" lon="5.52069">
        <ele>1451.25</ele>
        <time>2021-09-29T11:50:22Z</time>
      </trkpt>
      <trkpt lat="44.52241" lon="5.52072">
        <ele>1448.36</ele>
        <time>2021-09-29T11:50:34Z</time>
      </trkpt>
      <trkpt lat="44.52251" lon="5.5208">
        <ele>1445</ele>
        <time>2021-09-29T11:50:50Z</time>
      </trkpt>
      <trkpt lat="44.52257" lon="5.52084">
        <ele>1442.11</ele>
        <time>2021-09-29T11:51:04Z</time>
      </trkpt>
      <trkpt lat="44.52264" lon="5.52094">
        <ele>1438.75</ele>
        <time>2021-09-29T11:51:20Z</time>
      </trkpt>
      <trkpt lat="44.52269" lon="5.52105">
        <ele>1435.87</ele>
        <time>2021-09-29T11:51:31Z</time>
      </trkpt>
      <trkpt lat="44.52276" lon="5.52117">
        <ele>1432.98</ele>
        <time>2021-09-29T11:51:44Z</time>
      </trkpt>
      <trkpt lat="44.52285" lon="5.52129">
        <ele>1430.58</ele>
        <time>2021-09-29T11:52:00Z</time>
      </trkpt>
      <trkpt lat="44.52292" lon="5.52138">
        <ele>1430.58</ele>
        <time>2021-09-29T11:52:14Z</time>
      </trkpt>
      <trkpt lat="44.52301" lon="5.52149">
        <ele>1432.02</ele>
        <time>2021-09-29T11:52:33Z</time>
      </trkpt>
      <trkpt lat="44.52304" lon="5.52152">
        <ele>1433.94</ele>
        <time>2021-09-29T11:52:49Z</time>
      </trkpt>
      <trkpt lat="44.52309" lon="5.52159">
        <ele>1434.91</ele>
        <time>2021-09-29T11:53:03Z</time>
      </trkpt>
      <trkpt lat="44.52315" lon="5.52165">
        <ele>1437.31</ele>
        <time>2021-09-29T11:53:21Z</time>
      </trkpt>
      <trkpt lat="44.52321" lon="5.5217">
        <ele>1439.71</ele>
        <time>2021-09-29T11:53:39Z</time>
      </trkpt>
      <trkpt lat="44.52325" lon="5.52175">
        <ele>1441.63</ele>
        <time>2021-09-29T11:53:55Z</time>
      </trkpt>
      <trkpt lat="44.52331" lon="5.52183">
        <ele>1444.04</ele>
        <time>2021-09-29T11:54:15Z</time>
      </trkpt>
      <trkpt lat="44.5234" lon="5.52194">
        <ele>1447.4</ele>
        <time>2021-09-29T11:54:37Z</time>
      </trkpt>
      <trkpt lat="44.52344" lon="5.522">
        <ele>1450.29</ele>
        <time>2021-09-29T11:55:00Z</time>
      </trkpt>
      <trkpt lat="44.52344" lon="5.52206">
        <ele>1450.77</ele>
        <time>2021-09-29T11:55:07Z</time>
      </trkpt>
      <trkpt lat="44.52347" lon="5.52214">
        <ele>1451.25</ele>
        <time>2021-09-29T11:55:18Z</time>
      </trkpt>
      <trkpt lat="44.52347" lon="5.52216">
        <ele>1451.25</ele>
        <time>2021-09-29T11:55:19Z</time>
      </trkpt>
      <trkpt lat="44.52349" lon="5.52222">
        <ele>1451.73</ele>
        <time>2021-09-29T11:55:25Z</time>
      </trkpt>
      <trkpt lat="44.52349" lon="5.52224">
        <ele>1452.21</ele>
        <time>2021-09-29T11:55:26Z</time>
      </trkpt>
      <trkpt lat="44.52353" lon="5.52241">
        <ele>1452.69</ele>
        <time>2021-09-29T11:55:41Z</time>
      </trkpt>
      <trkpt lat="44.52356" lon="5.52253">
        <ele>1454.13</ele>
        <time>2021-09-29T11:55:59Z</time>
      </trkpt>
      <trkpt lat="44.52357" lon="5.52266">
        <ele>1457.02</ele>
        <time>2021-09-29T11:56:23Z</time>
      </trkpt>
      <trkpt lat="44.52358" lon="5.5227">
        <ele>1457.98</ele>
        <time>2021-09-29T11:56:40Z</time>
      </trkpt>
      <trkpt lat="44.52361" lon="5.52273">
        <ele>1459.42</ele>
        <time>2021-09-29T11:57:01Z</time>
      </trkpt>
      <trkpt lat="44.52369" lon="5.52278">
        <ele>1462.3</ele>
        <time>2021-09-29T11:57:23Z</time>
      </trkpt>
      <trkpt lat="44.5237" lon="5.52281">
        <ele>1462.3</ele>
        <time>2021-09-29T11:57:26Z</time>
      </trkpt>
      <trkpt lat="44.52373" lon="5.52294">
        <ele>1464.23</ele>
        <time>2021-09-29T11:57:41Z</time>
      </trkpt>
      <trkpt lat="44.52379" lon="5.52299">
        <ele>1465.67</ele>
        <time>2021-09-29T11:57:56Z</time>
      </trkpt>
      <trkpt lat="44.52386" lon="5.5231">
        <ele>1468.07</ele>
        <time>2021-09-29T11:58:14Z</time>
      </trkpt>
      <trkpt lat="44.52391" lon="5.52316">
        <ele>1470.47</ele>
        <time>2021-09-29T11:58:35Z</time>
      </trkpt>
      <trkpt lat="44.52391" lon="5.52316">
        <ele>1470.95</ele>
        <time>2021-09-29T11:58:57Z</time>
      </trkpt>
      <trkpt lat="44.52392" lon="5.52317">
        <ele>1470.95</ele>
        <time>2021-09-29T11:59:35Z</time>
      </trkpt>
      <trkpt lat="44.52397" lon="5.52324">
        <ele>1471.44</ele>
        <time>2021-09-29T12:00:00Z</time>
      </trkpt>
      <trkpt lat="44.52406" lon="5.52334">
        <ele>1472.4</ele>
        <time>2021-09-29T12:00:16Z</time>
      </trkpt>
      <trkpt lat="44.52414" lon="5.52345">
        <ele>1474.8</ele>
        <time>2021-09-29T12:00:36Z</time>
      </trkpt>
      <trkpt lat="44.52418" lon="5.52354">
        <ele>1476.72</ele>
        <time>2021-09-29T12:00:56Z</time>
      </trkpt>
      <trkpt lat="44.52429" lon="5.52359">
        <ele>1479.61</ele>
        <time>2021-09-29T12:01:15Z</time>
      </trkpt>
      <trkpt lat="44.52435" lon="5.52361">
        <ele>1482.01</ele>
        <time>2021-09-29T12:01:30Z</time>
      </trkpt>
      <trkpt lat="44.52441" lon="5.52365">
        <ele>1484.89</ele>
        <time>2021-09-29T12:01:50Z</time>
      </trkpt>
      <trkpt lat="44.52443" lon="5.52366">
        <ele>1486.82</ele>
        <time>2021-09-29T12:02:11Z</time>
      </trkpt>
      <trkpt lat="44.52443" lon="5.52367">
        <ele>1485.85</ele>
        <time>2021-09-29T12:02:42Z</time>
      </trkpt>
      <trkpt lat="44.52443" lon="5.52366">
        <ele>1485.37</ele>
        <time>2021-09-29T12:03:38Z</time>
      </trkpt>
      <trkpt lat="44.52449" lon="5.52371">
        <ele>1485.37</ele>
        <time>2021-09-29T12:04:09Z</time>
      </trkpt>
      <trkpt lat="44.52451" lon="5.52373">
        <ele>1485.37</ele>
        <time>2021-09-29T12:04:11Z</time>
      </trkpt>
      <trkpt lat="44.52455" lon="5.52383">
        <ele>1485.85</ele>
        <time>2021-09-29T12:04:26Z</time>
      </trkpt>
      <trkpt lat="44.52457" lon="5.52381">
        <ele>1485.85</ele>
        <time>2021-09-29T12:04:45Z</time>
      </trkpt>
      <trkpt lat="44.52458" lon="5.52381">
        <ele>1486.34</ele>
        <time>2021-09-29T12:05:14Z</time>
      </trkpt>
      <trkpt lat="44.52458" lon="5.52383">
        <ele>1486.34</ele>
        <time>2021-09-29T12:05:36Z</time>
      </trkpt>
      <trkpt lat="44.52459" lon="5.52383">
        <ele>1485.85</ele>
        <time>2021-09-29T12:06:06Z</time>
      </trkpt>
      <trkpt lat="44.52458" lon="5.52386">
        <ele>1486.34</ele>
        <time>2021-09-29T12:06:35Z</time>
      </trkpt>
      <trkpt lat="44.52458" lon="5.52388">
        <ele>1486.34</ele>
        <time>2021-09-29T12:06:49Z</time>
      </trkpt>
      <trkpt lat="44.52458" lon="5.52394">
        <ele>1486.34</ele>
        <time>2021-09-29T12:07:08Z</time>
      </trkpt>
      <trkpt lat="44.52458" lon="5.52399">
        <ele>1483.93</ele>
        <time>2021-09-29T12:07:27Z</time>
      </trkpt>
      <trkpt lat="44.52464" lon="5.52408">
        <ele>1482.49</ele>
        <time>2021-09-29T12:07:43Z</time>
      </trkpt>
      <trkpt lat="44.52467" lon="5.5241">
        <ele>1482.01</ele>
        <time>2021-09-29T12:07:58Z</time>
      </trkpt>
      <trkpt lat="44.52468" lon="5.52416">
        <ele>1480.57</ele>
        <time>2021-09-29T12:08:13Z</time>
      </trkpt>
      <trkpt lat="44.5247" lon="5.52423">
        <ele>1478.65</ele>
        <time>2021-09-29T12:08:27Z</time>
      </trkpt>
      <trkpt lat="44.5247" lon="5.5243">
        <ele>1477.2</ele>
        <time>2021-09-29T12:08:48Z</time>
      </trkpt>
      <trkpt lat="44.52469" lon="5.52434">
        <ele>1474.8</ele>
        <time>2021-09-29T12:09:09Z</time>
      </trkpt>
      <trkpt lat="44.52467" lon="5.52444">
        <ele>1471.92</ele>
        <time>2021-09-29T12:09:25Z</time>
      </trkpt>
      <trkpt lat="44.52468" lon="5.52451">
        <ele>1469.03</ele>
        <time>2021-09-29T12:09:40Z</time>
      </trkpt>
      <trkpt lat="44.52468" lon="5.5246">
        <ele>1465.67</ele>
        <time>2021-09-29T12:09:58Z</time>
      </trkpt>
      <trkpt lat="44.5247" lon="5.52465">
        <ele>1463.26</ele>
        <time>2021-09-29T12:10:14Z</time>
      </trkpt>
      <trkpt lat="44.52473" lon="5.52472">
        <ele>1461.34</ele>
        <time>2021-09-29T12:10:27Z</time>
      </trkpt>
      <trkpt lat="44.52476" lon="5.52476">
        <ele>1460.38</ele>
        <time>2021-09-29T12:10:45Z</time>
      </trkpt>
      <trkpt lat="44.5248" lon="5.52487">
        <ele>1457.5</ele>
        <time>2021-09-29T12:11:07Z</time>
      </trkpt>
      <trkpt lat="44.52483" lon="5.52492">
        <ele>1454.61</ele>
        <time>2021-09-29T12:11:22Z</time>
      </trkpt>
      <trkpt lat="44.52486" lon="5.52501">
        <ele>1451.73</ele>
        <time>2021-09-29T12:11:37Z</time>
      </trkpt>
      <trkpt lat="44.52487" lon="5.52502">
        <ele>1451.73</ele>
        <time>2021-09-29T12:11:38Z</time>
      </trkpt>
      <trkpt lat="44.52488" lon="5.52504">
        <ele>1451.25</ele>
        <time>2021-09-29T12:11:40Z</time>
      </trkpt>
      <trkpt lat="44.52492" lon="5.52512">
        <ele>1449.32</ele>
        <time>2021-09-29T12:11:48Z</time>
      </trkpt>
      <trkpt lat="44.52498" lon="5.52521">
        <ele>1446.44</ele>
        <time>2021-09-29T12:11:59Z</time>
      </trkpt>
      <trkpt lat="44.52505" lon="5.52531">
        <ele>1443.08</ele>
        <time>2021-09-29T12:12:12Z</time>
      </trkpt>
      <trkpt lat="44.52508" lon="5.52546">
        <ele>1440.67</ele>
        <time>2021-09-29T12:12:26Z</time>
      </trkpt>
      <trkpt lat="44.52508" lon="5.52547">
        <ele>1440.67</ele>
        <time>2021-09-29T12:12:27Z</time>
      </trkpt>
      <trkpt lat="44.52509" lon="5.52549">
        <ele>1440.19</ele>
        <time>2021-09-29T12:12:28Z</time>
      </trkpt>
      <trkpt lat="44.5251" lon="5.5255">
        <ele>1440.19</ele>
        <time>2021-09-29T12:12:29Z</time>
      </trkpt>
      <trkpt lat="44.52511" lon="5.52551">
        <ele>1439.71</ele>
        <time>2021-09-29T12:12:30Z</time>
      </trkpt>
      <trkpt lat="44.52528" lon="5.52569">
        <ele>1437.31</ele>
        <time>2021-09-29T12:12:50Z</time>
      </trkpt>
      <trkpt lat="44.52535" lon="5.52577">
        <ele>1437.79</ele>
        <time>2021-09-29T12:13:02Z</time>
      </trkpt>
      <trkpt lat="44.52536" lon="5.52578">
        <ele>1437.79</ele>
        <time>2021-09-29T12:13:03Z</time>
      </trkpt>
      <trkpt lat="44.52554" lon="5.5259">
        <ele>1438.75</ele>
        <time>2021-09-29T12:13:23Z</time>
      </trkpt>
      <trkpt lat="44.52564" lon="5.526">
        <ele>1439.23</ele>
        <time>2021-09-29T12:13:40Z</time>
      </trkpt>
      <trkpt lat="44.52577" lon="5.52603">
        <ele>1442.6</ele>
        <time>2021-09-29T12:14:03Z</time>
      </trkpt>
      <trkpt lat="44.5259" lon="5.52614">
        <ele>1443.56</ele>
        <time>2021-09-29T12:14:24Z</time>
      </trkpt>
      <trkpt lat="44.52596" lon="5.52622">
        <ele>1442.6</ele>
        <time>2021-09-29T12:14:39Z</time>
      </trkpt>
      <trkpt lat="44.52602" lon="5.52632">
        <ele>1442.11</ele>
        <time>2021-09-29T12:14:55Z</time>
      </trkpt>
      <trkpt lat="44.52603" lon="5.52633">
        <ele>1442.11</ele>
        <time>2021-09-29T12:14:56Z</time>
      </trkpt>
      <trkpt lat="44.52612" lon="5.52642">
        <ele>1441.63</ele>
        <time>2021-09-29T12:15:12Z</time>
      </trkpt>
      <trkpt lat="44.52624" lon="5.5265">
        <ele>1441.15</ele>
        <time>2021-09-29T12:15:30Z</time>
      </trkpt>
      <trkpt lat="44.52629" lon="5.52657">
        <ele>1441.63</ele>
        <time>2021-09-29T12:15:45Z</time>
      </trkpt>
      <trkpt lat="44.52631" lon="5.52662">
        <ele>1441.15</ele>
        <time>2021-09-29T12:15:53Z</time>
      </trkpt>
      <trkpt lat="44.52631" lon="5.52663">
        <ele>1440.67</ele>
        <time>2021-09-29T12:15:54Z</time>
      </trkpt>
      <trkpt lat="44.52642" lon="5.52679">
        <ele>1439.23</ele>
        <time>2021-09-29T12:16:11Z</time>
      </trkpt>
      <trkpt lat="44.52652" lon="5.5269">
        <ele>1437.31</ele>
        <time>2021-09-29T12:16:29Z</time>
      </trkpt>
      <trkpt lat="44.52658" lon="5.527">
        <ele>1435.39</ele>
        <time>2021-09-29T12:16:45Z</time>
      </trkpt>
      <trkpt lat="44.5266" lon="5.52707">
        <ele>1434.42</ele>
        <time>2021-09-29T12:17:07Z</time>
      </trkpt>
      <trkpt lat="44.5266" lon="5.52707">
        <ele>1432.98</ele>
        <time>2021-09-29T12:17:10Z</time>
      </trkpt>
      <trkpt lat="44.52658" lon="5.52721">
        <ele>1431.06</ele>
        <time>2021-09-29T12:17:29Z</time>
      </trkpt>
      <trkpt lat="44.52661" lon="5.52724">
        <ele>1429.62</ele>
        <time>2021-09-29T12:17:49Z</time>
      </trkpt>
      <trkpt lat="44.52663" lon="5.52729">
        <ele>1426.73</ele>
        <time>2021-09-29T12:18:05Z</time>
      </trkpt>
      <trkpt lat="44.5266" lon="5.52739">
        <ele>1423.37</ele>
        <time>2021-09-29T12:18:18Z</time>
      </trkpt>
      <trkpt lat="44.52659" lon="5.52744">
        <ele>1422.41</ele>
        <time>2021-09-29T12:18:22Z</time>
      </trkpt>
      <trkpt lat="44.52664" lon="5.52752">
        <ele>1419.04</ele>
        <time>2021-09-29T12:18:33Z</time>
      </trkpt>
      <trkpt lat="44.52667" lon="5.52761">
        <ele>1416.16</ele>
        <time>2021-09-29T12:18:49Z</time>
      </trkpt>
      <trkpt lat="44.52667" lon="5.52769">
        <ele>1414.24</ele>
        <time>2021-09-29T12:19:05Z</time>
      </trkpt>
      <trkpt lat="44.5267" lon="5.52777">
        <ele>1413.28</ele>
        <time>2021-09-29T12:19:23Z</time>
      </trkpt>
      <trkpt lat="44.52673" lon="5.5279">
        <ele>1410.39</ele>
        <time>2021-09-29T12:19:39Z</time>
      </trkpt>
      <trkpt lat="44.52674" lon="5.52799">
        <ele>1407.03</ele>
        <time>2021-09-29T12:19:49Z</time>
      </trkpt>
      <trkpt lat="44.52676" lon="5.5281">
        <ele>1403.66</ele>
        <time>2021-09-29T12:20:00Z</time>
      </trkpt>
      <trkpt lat="44.52675" lon="5.52821">
        <ele>1400.78</ele>
        <time>2021-09-29T12:20:11Z</time>
      </trkpt>
      <trkpt lat="44.52677" lon="5.52834">
        <ele>1397.41</ele>
        <time>2021-09-29T12:20:24Z</time>
      </trkpt>
      <trkpt lat="44.5268" lon="5.52847">
        <ele>1394.53</ele>
        <time>2021-09-29T12:20:35Z</time>
      </trkpt>
      <trkpt lat="44.52679" lon="5.52862">
        <ele>1391.17</ele>
        <time>2021-09-29T12:20:48Z</time>
      </trkpt>
      <trkpt lat="44.52679" lon="5.52876">
        <ele>1387.8</ele>
        <time>2021-09-29T12:20:59Z</time>
      </trkpt>
      <trkpt lat="44.52681" lon="5.52894">
        <ele>1384.92</ele>
        <time>2021-09-29T12:21:13Z</time>
      </trkpt>
      <trkpt lat="44.52681" lon="5.52897">
        <ele>1382.51</ele>
        <time>2021-09-29T12:21:30Z</time>
      </trkpt>
      <trkpt lat="44.52684" lon="5.52904">
        <ele>1382.51</ele>
        <time>2021-09-29T12:21:46Z</time>
      </trkpt>
      <trkpt lat="44.52684" lon="5.52906">
        <ele>1382.51</ele>
        <time>2021-09-29T12:21:55Z</time>
      </trkpt>
      <trkpt lat="44.52684" lon="5.52908">
        <ele>1382.51</ele>
        <time>2021-09-29T12:21:56Z</time>
      </trkpt>
      <trkpt lat="44.52684" lon="5.52909">
        <ele>1382.51</ele>
        <time>2021-09-29T12:21:57Z</time>
      </trkpt>
      <trkpt lat="44.52684" lon="5.52911">
        <ele>1382.03</ele>
        <time>2021-09-29T12:21:58Z</time>
      </trkpt>
      <trkpt lat="44.52684" lon="5.52912">
        <ele>1382.51</ele>
        <time>2021-09-29T12:21:59Z</time>
      </trkpt>
      <trkpt lat="44.52684" lon="5.52914">
        <ele>1382.03</ele>
        <time>2021-09-29T12:22:00Z</time>
      </trkpt>
      <trkpt lat="44.52684" lon="5.52915">
        <ele>1382.03</ele>
        <time>2021-09-29T12:22:01Z</time>
      </trkpt>
      <trkpt lat="44.52685" lon="5.52917">
        <ele>1382.03</ele>
        <time>2021-09-29T12:22:02Z</time>
      </trkpt>
      <trkpt lat="44.52685" lon="5.52918">
        <ele>1382.03</ele>
        <time>2021-09-29T12:22:03Z</time>
      </trkpt>
      <trkpt lat="44.52685" lon="5.5292">
        <ele>1382.03</ele>
        <time>2021-09-29T12:22:04Z</time>
      </trkpt>
      <trkpt lat="44.52685" lon="5.52921">
        <ele>1382.03</ele>
        <time>2021-09-29T12:22:05Z</time>
      </trkpt>
      <trkpt lat="44.52686" lon="5.52948">
        <ele>1379.63</ele>
        <time>2021-09-29T12:22:22Z</time>
      </trkpt>
      <trkpt lat="44.52687" lon="5.52951">
        <ele>1379.15</ele>
        <time>2021-09-29T12:22:25Z</time>
      </trkpt>
      <trkpt lat="44.52686" lon="5.52958">
        <ele>1378.67</ele>
        <time>2021-09-29T12:22:30Z</time>
      </trkpt>
      <trkpt lat="44.52687" lon="5.5296">
        <ele>1378.19</ele>
        <time>2021-09-29T12:22:31Z</time>
      </trkpt>
      <trkpt lat="44.52693" lon="5.52986">
        <ele>1375.78</ele>
        <time>2021-09-29T12:22:47Z</time>
      </trkpt>
      <trkpt lat="44.52694" lon="5.52987">
        <ele>1375.78</ele>
        <time>2021-09-29T12:22:48Z</time>
      </trkpt>
      <trkpt lat="44.52694" lon="5.52988">
        <ele>1375.78</ele>
        <time>2021-09-29T12:22:49Z</time>
      </trkpt>
      <trkpt lat="44.52695" lon="5.52989">
        <ele>1375.78</ele>
        <time>2021-09-29T12:22:50Z</time>
      </trkpt>
      <trkpt lat="44.52695" lon="5.52991">
        <ele>1375.78</ele>
        <time>2021-09-29T12:22:51Z</time>
      </trkpt>
      <trkpt lat="44.52696" lon="5.52997">
        <ele>1374.82</ele>
        <time>2021-09-29T12:22:56Z</time>
      </trkpt>
      <trkpt lat="44.52696" lon="5.52999">
        <ele>1374.82</ele>
        <time>2021-09-29T12:22:57Z</time>
      </trkpt>
      <trkpt lat="44.52696" lon="5.53">
        <ele>1374.82</ele>
        <time>2021-09-29T12:22:58Z</time>
      </trkpt>
      <trkpt lat="44.52696" lon="5.53002">
        <ele>1374.82</ele>
        <time>2021-09-29T12:22:59Z</time>
      </trkpt>
      <trkpt lat="44.52696" lon="5.53003">
        <ele>1374.82</ele>
        <time>2021-09-29T12:23:00Z</time>
      </trkpt>
      <trkpt lat="44.52698" lon="5.5301">
        <ele>1373.86</ele>
        <time>2021-09-29T12:23:05Z</time>
      </trkpt>
      <trkpt lat="44.52697" lon="5.53013">
        <ele>1373.86</ele>
        <time>2021-09-29T12:23:07Z</time>
      </trkpt>
      <trkpt lat="44.52695" lon="5.53034">
        <ele>1372.9</ele>
        <time>2021-09-29T12:23:26Z</time>
      </trkpt>
      <trkpt lat="44.52698" lon="5.53047">
        <ele>1374.82</ele>
        <time>2021-09-29T12:23:38Z</time>
      </trkpt>
      <trkpt lat="44.52698" lon="5.53049">
        <ele>1374.82</ele>
        <time>2021-09-29T12:23:39Z</time>
      </trkpt>
      <trkpt lat="44.52698" lon="5.53051">
        <ele>1374.82</ele>
        <time>2021-09-29T12:23:40Z</time>
      </trkpt>
      <trkpt lat="44.52698" lon="5.53052">
        <ele>1374.82</ele>
        <time>2021-09-29T12:23:41Z</time>
      </trkpt>
      <trkpt lat="44.52698" lon="5.53054">
        <ele>1374.82</ele>
        <time>2021-09-29T12:23:42Z</time>
      </trkpt>
      <trkpt lat="44.52698" lon="5.53056">
        <ele>1374.82</ele>
        <time>2021-09-29T12:23:43Z</time>
      </trkpt>
      <trkpt lat="44.52697" lon="5.53089">
        <ele>1374.34</ele>
        <time>2021-09-29T12:24:03Z</time>
      </trkpt>
      <trkpt lat="44.52697" lon="5.53106">
        <ele>1372.42</ele>
        <time>2021-09-29T12:24:18Z</time>
      </trkpt>
      <trkpt lat="44.52695" lon="5.53124">
        <ele>1369.05</ele>
        <time>2021-09-29T12:24:33Z</time>
      </trkpt>
      <trkpt lat="44.52687" lon="5.53133">
        <ele>1366.17</ele>
        <time>2021-09-29T12:24:48Z</time>
      </trkpt>
      <trkpt lat="44.52684" lon="5.53144">
        <ele>1362.81</ele>
        <time>2021-09-29T12:24:59Z</time>
      </trkpt>
      <trkpt lat="44.52682" lon="5.53161">
        <ele>1360.4</ele>
        <time>2021-09-29T12:25:14Z</time>
      </trkpt>
      <trkpt lat="44.5268" lon="5.53175">
        <ele>1357.04</ele>
        <time>2021-09-29T12:25:30Z</time>
      </trkpt>
      <trkpt lat="44.52677" lon="5.53183">
        <ele>1354.15</ele>
        <time>2021-09-29T12:25:44Z</time>
      </trkpt>
      <trkpt lat="44.52677" lon="5.53197">
        <ele>1350.79</ele>
        <time>2021-09-29T12:25:59Z</time>
      </trkpt>
      <trkpt lat="44.52678" lon="5.53203">
        <ele>1349.83</ele>
        <time>2021-09-29T12:26:04Z</time>
      </trkpt>
      <trkpt lat="44.52679" lon="5.53206">
        <ele>1349.83</ele>
        <time>2021-09-29T12:26:06Z</time>
      </trkpt>
      <trkpt lat="44.5268" lon="5.53219">
        <ele>1346.46</ele>
        <time>2021-09-29T12:26:20Z</time>
      </trkpt>
      <trkpt lat="44.52683" lon="5.53225">
        <ele>1343.58</ele>
        <time>2021-09-29T12:26:36Z</time>
      </trkpt>
      <trkpt lat="44.52685" lon="5.53232">
        <ele>1340.7</ele>
        <time>2021-09-29T12:26:52Z</time>
      </trkpt>
      <trkpt lat="44.52684" lon="5.53244">
        <ele>1337.81</ele>
        <time>2021-09-29T12:27:08Z</time>
      </trkpt>
      <trkpt lat="44.52684" lon="5.53256">
        <ele>1335.41</ele>
        <time>2021-09-29T12:27:23Z</time>
      </trkpt>
      <trkpt lat="44.52678" lon="5.53267">
        <ele>1333.01</ele>
        <time>2021-09-29T12:27:40Z</time>
      </trkpt>
      <trkpt lat="44.52678" lon="5.53268">
        <ele>1331.08</ele>
        <time>2021-09-29T12:27:58Z</time>
      </trkpt>
      <trkpt lat="44.52681" lon="5.53273">
        <ele>1329.16</ele>
        <time>2021-09-29T12:28:17Z</time>
      </trkpt>
      <trkpt lat="44.5268" lon="5.53273">
        <ele>1329.64</ele>
        <time>2021-09-29T12:28:38Z</time>
      </trkpt>
      <trkpt lat="44.52681" lon="5.53275">
        <ele>1330.12</ele>
        <time>2021-09-29T12:28:58Z</time>
      </trkpt>
      <trkpt lat="44.52683" lon="5.53278">
        <ele>1329.64</ele>
        <time>2021-09-29T12:29:29Z</time>
      </trkpt>
      <trkpt lat="44.52684" lon="5.53279">
        <ele>1329.64</ele>
        <time>2021-09-29T12:29:30Z</time>
      </trkpt>
      <trkpt lat="44.52697" lon="5.53287">
        <ele>1331.08</ele>
        <time>2021-09-29T12:29:50Z</time>
      </trkpt>
      <trkpt lat="44.52698" lon="5.53291">
        <ele>1331.56</ele>
        <time>2021-09-29T12:29:52Z</time>
      </trkpt>
      <trkpt lat="44.52698" lon="5.53292">
        <ele>1331.56</ele>
        <time>2021-09-29T12:29:53Z</time>
      </trkpt>
      <trkpt lat="44.52698" lon="5.53298">
        <ele>1332.04</ele>
        <time>2021-09-29T12:30:04Z</time>
      </trkpt>
      <trkpt lat="44.52698" lon="5.533">
        <ele>1332.04</ele>
        <time>2021-09-29T12:30:05Z</time>
      </trkpt>
      <trkpt lat="44.52699" lon="5.53301">
        <ele>1332.04</ele>
        <time>2021-09-29T12:30:06Z</time>
      </trkpt>
      <trkpt lat="44.52699" lon="5.53304">
        <ele>1331.56</ele>
        <time>2021-09-29T12:30:08Z</time>
      </trkpt>
      <trkpt lat="44.52703" lon="5.53327">
        <ele>1330.6</ele>
        <time>2021-09-29T12:30:24Z</time>
      </trkpt>
      <trkpt lat="44.52703" lon="5.53331">
        <ele>1330.6</ele>
        <time>2021-09-29T12:30:28Z</time>
      </trkpt>
      <trkpt lat="44.52702" lon="5.53333">
        <ele>1330.6</ele>
        <time>2021-09-29T12:30:29Z</time>
      </trkpt>
      <trkpt lat="44.52708" lon="5.53347">
        <ele>1329.64</ele>
        <time>2021-09-29T12:30:41Z</time>
      </trkpt>
      <trkpt lat="44.52709" lon="5.53348">
        <ele>1329.64</ele>
        <time>2021-09-29T12:30:42Z</time>
      </trkpt>
      <trkpt lat="44.5271" lon="5.53355">
        <ele>1329.64</ele>
        <time>2021-09-29T12:30:47Z</time>
      </trkpt>
      <trkpt lat="44.5271" lon="5.53357">
        <ele>1329.64</ele>
        <time>2021-09-29T12:30:48Z</time>
      </trkpt>
      <trkpt lat="44.52711" lon="5.53358">
        <ele>1329.64</ele>
        <time>2021-09-29T12:30:49Z</time>
      </trkpt>
      <trkpt lat="44.52715" lon="5.53369">
        <ele>1329.16</ele>
        <time>2021-09-29T12:31:07Z</time>
      </trkpt>
      <trkpt lat="44.52715" lon="5.53371">
        <ele>1329.16</ele>
        <time>2021-09-29T12:31:35Z</time>
      </trkpt>
      <trkpt lat="44.52715" lon="5.53371">
        <ele>1329.64</ele>
        <time>2021-09-29T12:32:04Z</time>
      </trkpt>
      <trkpt lat="44.52715" lon="5.53371">
        <ele>1329.64</ele>
        <time>2021-09-29T12:32:30Z</time>
      </trkpt>
      <trkpt lat="44.52716" lon="5.53372">
        <ele>1329.64</ele>
        <time>2021-09-29T12:33:01Z</time>
      </trkpt>
      <trkpt lat="44.52717" lon="5.53372">
        <ele>1329.64</ele>
        <time>2021-09-29T12:33:29Z</time>
      </trkpt>
      <trkpt lat="44.52717" lon="5.53372">
        <ele>1329.64</ele>
        <time>2021-09-29T12:33:49Z</time>
      </trkpt>
      <trkpt lat="44.52715" lon="5.53372">
        <ele>1329.64</ele>
        <time>2021-09-29T12:33:50Z</time>
      </trkpt>
      <trkpt lat="44.52716" lon="5.53379">
        <ele>1329.16</ele>
        <time>2021-09-29T12:34:19Z</time>
      </trkpt>
      <trkpt lat="44.52712" lon="5.53393">
        <ele>1329.16</ele>
        <time>2021-09-29T12:34:45Z</time>
      </trkpt>
      <trkpt lat="44.52708" lon="5.53421">
        <ele>1330.6</ele>
        <time>2021-09-29T12:35:09Z</time>
      </trkpt>
      <trkpt lat="44.52708" lon="5.53427">
        <ele>1330.6</ele>
        <time>2021-09-29T12:35:24Z</time>
      </trkpt>
      <trkpt lat="44.52707" lon="5.53428">
        <ele>1331.08</ele>
        <time>2021-09-29T12:35:56Z</time>
      </trkpt>
      <trkpt lat="44.52704" lon="5.5344">
        <ele>1331.08</ele>
        <time>2021-09-29T12:36:06Z</time>
      </trkpt>
      <trkpt lat="44.52704" lon="5.53441">
        <ele>1331.08</ele>
        <time>2021-09-29T12:36:07Z</time>
      </trkpt>
      <trkpt lat="44.52706" lon="5.53462">
        <ele>1331.08</ele>
        <time>2021-09-29T12:36:23Z</time>
      </trkpt>
      <trkpt lat="44.52705" lon="5.53466">
        <ele>1331.08</ele>
        <time>2021-09-29T12:36:25Z</time>
      </trkpt>
      <trkpt lat="44.52705" lon="5.53468">
        <ele>1331.08</ele>
        <time>2021-09-29T12:36:26Z</time>
      </trkpt>
      <trkpt lat="44.52712" lon="5.5349">
        <ele>1332.52</ele>
        <time>2021-09-29T12:36:44Z</time>
      </trkpt>
      <trkpt lat="44.52709" lon="5.53514">
        <ele>1333.01</ele>
        <time>2021-09-29T12:37:06Z</time>
      </trkpt>
      <trkpt lat="44.52707" lon="5.53537">
        <ele>1329.64</ele>
        <time>2021-09-29T12:37:30Z</time>
      </trkpt>
      <trkpt lat="44.52706" lon="5.53554">
        <ele>1326.76</ele>
        <time>2021-09-29T12:37:47Z</time>
      </trkpt>
      <trkpt lat="44.52709" lon="5.5358">
        <ele>1323.39</ele>
        <time>2021-09-29T12:38:12Z</time>
      </trkpt>
      <trkpt lat="44.52711" lon="5.53594">
        <ele>1320.51</ele>
        <time>2021-09-29T12:38:32Z</time>
      </trkpt>
      <trkpt lat="44.52713" lon="5.53616">
        <ele>1317.14</ele>
        <time>2021-09-29T12:38:51Z</time>
      </trkpt>
      <trkpt lat="44.52713" lon="5.53648">
        <ele>1314.26</ele>
        <time>2021-09-29T12:39:12Z</time>
      </trkpt>
      <trkpt lat="44.52718" lon="5.53686">
        <ele>1313.78</ele>
        <time>2021-09-29T12:39:39Z</time>
      </trkpt>
      <trkpt lat="44.52716" lon="5.53709">
        <ele>1313.3</ele>
        <time>2021-09-29T12:39:55Z</time>
      </trkpt>
      <trkpt lat="44.52713" lon="5.53736">
        <ele>1311.38</ele>
        <time>2021-09-29T12:40:14Z</time>
      </trkpt>
      <trkpt lat="44.52716" lon="5.53753">
        <ele>1310.41</ele>
        <time>2021-09-29T12:40:30Z</time>
      </trkpt>
      <trkpt lat="44.52715" lon="5.53773">
        <ele>1309.45</ele>
        <time>2021-09-29T12:40:53Z</time>
      </trkpt>
      <trkpt lat="44.52716" lon="5.53785">
        <ele>1306.57</ele>
        <time>2021-09-29T12:41:11Z</time>
      </trkpt>
      <trkpt lat="44.52713" lon="5.53797">
        <ele>1303.2</ele>
        <time>2021-09-29T12:41:29Z</time>
      </trkpt>
      <trkpt lat="44.52714" lon="5.53811">
        <ele>1300.8</ele>
        <time>2021-09-29T12:41:47Z</time>
      </trkpt>
      <trkpt lat="44.52712" lon="5.53834">
        <ele>1300.32</ele>
        <time>2021-09-29T12:42:09Z</time>
      </trkpt>
      <trkpt lat="44.52712" lon="5.53852">
        <ele>1297.44</ele>
        <time>2021-09-29T12:42:26Z</time>
      </trkpt>
      <trkpt lat="44.52709" lon="5.53871">
        <ele>1294.55</ele>
        <time>2021-09-29T12:42:47Z</time>
      </trkpt>
      <trkpt lat="44.52707" lon="5.53894">
        <ele>1291.67</ele>
        <time>2021-09-29T12:43:04Z</time>
      </trkpt>
      <trkpt lat="44.52701" lon="5.5391">
        <ele>1288.78</ele>
        <time>2021-09-29T12:43:22Z</time>
      </trkpt>
      <trkpt lat="44.52703" lon="5.53924">
        <ele>1287.82</ele>
        <time>2021-09-29T12:43:42Z</time>
      </trkpt>
      <trkpt lat="44.52712" lon="5.53953">
        <ele>1288.78</ele>
        <time>2021-09-29T12:44:11Z</time>
      </trkpt>
      <trkpt lat="44.52715" lon="5.53983">
        <ele>1286.86</ele>
        <time>2021-09-29T12:44:36Z</time>
      </trkpt>
      <trkpt lat="44.52717" lon="5.54001">
        <ele>1286.86</ele>
        <time>2021-09-29T12:44:59Z</time>
      </trkpt>
      <trkpt lat="44.52719" lon="5.5401">
        <ele>1288.3</ele>
        <time>2021-09-29T12:45:11Z</time>
      </trkpt>
      <trkpt lat="44.5272" lon="5.54014">
        <ele>1288.3</ele>
        <time>2021-09-29T12:45:17Z</time>
      </trkpt>
      <trkpt lat="44.52721" lon="5.54014">
        <ele>1288.3</ele>
        <time>2021-09-29T12:45:18Z</time>
      </trkpt>
      <trkpt lat="44.52721" lon="5.54034">
        <ele>1290.71</ele>
        <time>2021-09-29T12:45:46Z</time>
      </trkpt>
      <trkpt lat="44.52718" lon="5.54047">
        <ele>1291.19</ele>
        <time>2021-09-29T12:46:10Z</time>
      </trkpt>
      <trkpt lat="44.52719" lon="5.54053">
        <ele>1290.71</ele>
        <time>2021-09-29T12:46:32Z</time>
      </trkpt>
      <trkpt lat="44.52721" lon="5.54056">
        <ele>1290.71</ele>
        <time>2021-09-29T12:46:59Z</time>
      </trkpt>
      <trkpt lat="44.52721" lon="5.5407">
        <ele>1288.78</ele>
        <time>2021-09-29T12:47:26Z</time>
      </trkpt>
      <trkpt lat="44.52719" lon="5.54085">
        <ele>1285.42</ele>
        <time>2021-09-29T12:47:45Z</time>
      </trkpt>
      <trkpt lat="44.5273" lon="5.54095">
        <ele>1282.54</ele>
        <time>2021-09-29T12:48:05Z</time>
      </trkpt>
      <trkpt lat="44.52735" lon="5.54124">
        <ele>1279.17</ele>
        <time>2021-09-29T12:48:33Z</time>
      </trkpt>
      <trkpt lat="44.52734" lon="5.54143">
        <ele>1277.73</ele>
        <time>2021-09-29T12:49:01Z</time>
      </trkpt>
      <trkpt lat="44.52736" lon="5.54161">
        <ele>1278.21</ele>
        <time>2021-09-29T12:49:31Z</time>
      </trkpt>
      <trkpt lat="44.52744" lon="5.54183">
        <ele>1275.33</ele>
        <time>2021-09-29T12:49:58Z</time>
      </trkpt>
      <trkpt lat="44.52747" lon="5.54192">
        <ele>1273.4</ele>
        <time>2021-09-29T12:50:22Z</time>
      </trkpt>
      <trkpt lat="44.52748" lon="5.54199">
        <ele>1271.96</ele>
        <time>2021-09-29T12:50:48Z</time>
      </trkpt>
      <trkpt lat="44.52749" lon="5.54204">
        <ele>1269.56</ele>
        <time>2021-09-29T12:51:11Z</time>
      </trkpt>
      <trkpt lat="44.52748" lon="5.54202">
        <ele>1267.64</ele>
        <time>2021-09-29T12:51:40Z</time>
      </trkpt>
      <trkpt lat="44.5275" lon="5.54202">
        <ele>1267.16</ele>
        <time>2021-09-29T12:51:46Z</time>
      </trkpt>
      <trkpt lat="44.52761" lon="5.54207">
        <ele>1264.27</ele>
        <time>2021-09-29T12:52:23Z</time>
      </trkpt>
      <trkpt lat="44.52764" lon="5.54212">
        <ele>1261.39</ele>
        <time>2021-09-29T12:52:53Z</time>
      </trkpt>
      <trkpt lat="44.52767" lon="5.54213">
        <ele>1260.43</ele>
        <time>2021-09-29T12:52:58Z</time>
      </trkpt>
      <trkpt lat="44.52769" lon="5.54219">
        <ele>1257.54</ele>
        <time>2021-09-29T12:53:20Z</time>
      </trkpt>
      <trkpt lat="44.52767" lon="5.54235">
        <ele>1254.66</ele>
        <time>2021-09-29T12:53:41Z</time>
      </trkpt>
      <trkpt lat="44.52768" lon="5.54244">
        <ele>1252.74</ele>
        <time>2021-09-29T12:54:09Z</time>
      </trkpt>
      <trkpt lat="44.52771" lon="5.54248">
        <ele>1249.85</ele>
        <time>2021-09-29T12:54:30Z</time>
      </trkpt>
      <trkpt lat="44.52772" lon="5.5425">
        <ele>1249.37</ele>
        <time>2021-09-29T12:54:32Z</time>
      </trkpt>
      <trkpt lat="44.52777" lon="5.54257">
        <ele>1246.49</ele>
        <time>2021-09-29T12:54:51Z</time>
      </trkpt>
      <trkpt lat="44.52787" lon="5.54265">
        <ele>1243.12</ele>
        <time>2021-09-29T12:55:12Z</time>
      </trkpt>
      <trkpt lat="44.52787" lon="5.54275">
        <ele>1240.24</ele>
        <time>2021-09-29T12:55:28Z</time>
      </trkpt>
      <trkpt lat="44.52791" lon="5.54282">
        <ele>1236.87</ele>
        <time>2021-09-29T12:55:47Z</time>
      </trkpt>
      <trkpt lat="44.5279" lon="5.54284">
        <ele>1236.39</ele>
        <time>2021-09-29T12:55:48Z</time>
      </trkpt>
      <trkpt lat="44.52795" lon="5.54297">
        <ele>1233.51</ele>
        <time>2021-09-29T12:56:05Z</time>
      </trkpt>
      <trkpt lat="44.52797" lon="5.5432">
        <ele>1231.59</ele>
        <time>2021-09-29T12:56:28Z</time>
      </trkpt>
      <trkpt lat="44.52796" lon="5.54321">
        <ele>1231.59</ele>
        <time>2021-09-29T12:56:29Z</time>
      </trkpt>
      <trkpt lat="44.52796" lon="5.54323">
        <ele>1231.59</ele>
        <time>2021-09-29T12:56:30Z</time>
      </trkpt>
      <trkpt lat="44.52796" lon="5.54327">
        <ele>1231.59</ele>
        <time>2021-09-29T12:56:33Z</time>
      </trkpt>
      <trkpt lat="44.52797" lon="5.54342">
        <ele>1228.22</ele>
        <time>2021-09-29T12:56:57Z</time>
      </trkpt>
      <trkpt lat="44.528" lon="5.54345">
        <ele>1227.26</ele>
        <time>2021-09-29T12:57:01Z</time>
      </trkpt>
      <trkpt lat="44.52804" lon="5.54359">
        <ele>1223.9</ele>
        <time>2021-09-29T12:57:15Z</time>
      </trkpt>
      <trkpt lat="44.52806" lon="5.54375">
        <ele>1221.01</ele>
        <time>2021-09-29T12:57:27Z</time>
      </trkpt>
      <trkpt lat="44.52807" lon="5.54386">
        <ele>1218.13</ele>
        <time>2021-09-29T12:57:40Z</time>
      </trkpt>
      <trkpt lat="44.52813" lon="5.54396">
        <ele>1214.76</ele>
        <time>2021-09-29T12:57:52Z</time>
      </trkpt>
      <trkpt lat="44.52816" lon="5.54405">
        <ele>1211.4</ele>
        <time>2021-09-29T12:58:03Z</time>
      </trkpt>
      <trkpt lat="44.52816" lon="5.54407">
        <ele>1211.4</ele>
        <time>2021-09-29T12:58:05Z</time>
      </trkpt>
      <trkpt lat="44.52819" lon="5.54412">
        <ele>1209.96</ele>
        <time>2021-09-29T12:58:10Z</time>
      </trkpt>
      <trkpt lat="44.52824" lon="5.54421">
        <ele>1206.59</ele>
        <time>2021-09-29T12:58:19Z</time>
      </trkpt>
      <trkpt lat="44.52827" lon="5.54427">
        <ele>1203.71</ele>
        <time>2021-09-29T12:58:27Z</time>
      </trkpt>
      <trkpt lat="44.52826" lon="5.54431">
        <ele>1201.79</ele>
        <time>2021-09-29T12:58:52Z</time>
      </trkpt>
      <trkpt lat="44.52827" lon="5.54434">
        <ele>1200.82</ele>
        <time>2021-09-29T12:59:40Z</time>
      </trkpt>
      <trkpt lat="44.52826" lon="5.54434">
        <ele>1199.38</ele>
        <time>2021-09-29T12:59:55Z</time>
      </trkpt>
      <trkpt lat="44.52826" lon="5.54434">
        <ele>1201.3</ele>
        <time>2021-09-29T13:00:01Z</time>
      </trkpt>
      <trkpt lat="44.52826" lon="5.54435">
        <ele>1200.82</ele>
        <time>2021-09-29T13:00:38Z</time>
      </trkpt>
      <trkpt lat="44.52826" lon="5.54434">
        <ele>1200.82</ele>
        <time>2021-09-29T13:01:12Z</time>
      </trkpt>
      <trkpt lat="44.52828" lon="5.54449">
        <ele>1197.94</ele>
        <time>2021-09-29T13:01:49Z</time>
      </trkpt>
      <trkpt lat="44.52825" lon="5.54472">
        <ele>1194.58</ele>
        <time>2021-09-29T13:02:13Z</time>
      </trkpt>
      <trkpt lat="44.52811" lon="5.54497">
        <ele>1194.09</ele>
        <time>2021-09-29T13:02:42Z</time>
      </trkpt>
      <trkpt lat="44.52794" lon="5.54526">
        <ele>1194.58</ele>
        <time>2021-09-29T13:03:10Z</time>
      </trkpt>
      <trkpt lat="44.52785" lon="5.54543">
        <ele>1191.21</ele>
        <time>2021-09-29T13:03:29Z</time>
      </trkpt>
      <trkpt lat="44.52768" lon="5.5457">
        <ele>1188.81</ele>
        <time>2021-09-29T13:03:57Z</time>
      </trkpt>
      <trkpt lat="44.52753" lon="5.54607">
        <ele>1185.44</ele>
        <time>2021-09-29T13:04:25Z</time>
      </trkpt>
      <trkpt lat="44.52747" lon="5.54641">
        <ele>1184</ele>
        <time>2021-09-29T13:04:49Z</time>
      </trkpt>
      <trkpt lat="44.52737" lon="5.54662">
        <ele>1185.44</ele>
        <time>2021-09-29T13:05:11Z</time>
      </trkpt>
      <trkpt lat="44.52738" lon="5.54672">
        <ele>1184</ele>
        <time>2021-09-29T13:05:33Z</time>
      </trkpt>
      <trkpt lat="44.52739" lon="5.54678">
        <ele>1180.64</ele>
        <time>2021-09-29T13:05:54Z</time>
      </trkpt>
      <trkpt lat="44.52744" lon="5.5468">
        <ele>1178.23</ele>
        <time>2021-09-29T13:06:12Z</time>
      </trkpt>
      <trkpt lat="44.52747" lon="5.54679">
        <ele>1175.83</ele>
        <time>2021-09-29T13:06:33Z</time>
      </trkpt>
      <trkpt lat="44.52751" lon="5.54684">
        <ele>1172.95</ele>
        <time>2021-09-29T13:06:58Z</time>
      </trkpt>
      <trkpt lat="44.52754" lon="5.54689">
        <ele>1169.58</ele>
        <time>2021-09-29T13:07:20Z</time>
      </trkpt>
      <trkpt lat="44.52758" lon="5.5469">
        <ele>1166.7</ele>
        <time>2021-09-29T13:07:39Z</time>
      </trkpt>
      <trkpt lat="44.52762" lon="5.54691">
        <ele>1163.33</ele>
        <time>2021-09-29T13:07:54Z</time>
      </trkpt>
      <trkpt lat="44.52768" lon="5.5469">
        <ele>1159.97</ele>
        <time>2021-09-29T13:08:08Z</time>
      </trkpt>
      <trkpt lat="44.52774" lon="5.54695">
        <ele>1157.08</ele>
        <time>2021-09-29T13:08:22Z</time>
      </trkpt>
      <trkpt lat="44.52778" lon="5.54705">
        <ele>1153.72</ele>
        <time>2021-09-29T13:08:35Z</time>
      </trkpt>
      <trkpt lat="44.52781" lon="5.54712">
        <ele>1150.84</ele>
        <time>2021-09-29T13:08:48Z</time>
      </trkpt>
      <trkpt lat="44.52785" lon="5.54717">
        <ele>1147.47</ele>
        <time>2021-09-29T13:09:02Z</time>
      </trkpt>
      <trkpt lat="44.5279" lon="5.54722">
        <ele>1144.59</ele>
        <time>2021-09-29T13:09:22Z</time>
      </trkpt>
      <trkpt lat="44.52791" lon="5.54731">
        <ele>1141.22</ele>
        <time>2021-09-29T13:09:35Z</time>
      </trkpt>
      <trkpt lat="44.52797" lon="5.54739">
        <ele>1138.34</ele>
        <time>2021-09-29T13:09:52Z</time>
      </trkpt>
      <trkpt lat="44.528" lon="5.54743">
        <ele>1135.45</ele>
        <time>2021-09-29T13:10:11Z</time>
      </trkpt>
      <trkpt lat="44.52806" lon="5.54752">
        <ele>1132.57</ele>
        <time>2021-09-29T13:10:27Z</time>
      </trkpt>
      <trkpt lat="44.5281" lon="5.54763">
        <ele>1129.21</ele>
        <time>2021-09-29T13:10:40Z</time>
      </trkpt>
      <trkpt lat="44.52817" lon="5.54775">
        <ele>1126.32</ele>
        <time>2021-09-29T13:10:53Z</time>
      </trkpt>
      <trkpt lat="44.52821" lon="5.54787">
        <ele>1122.96</ele>
        <time>2021-09-29T13:11:05Z</time>
      </trkpt>
      <trkpt lat="44.52825" lon="5.54796">
        <ele>1119.59</ele>
        <time>2021-09-29T13:11:17Z</time>
      </trkpt>
      <trkpt lat="44.52828" lon="5.54806">
        <ele>1116.71</ele>
        <time>2021-09-29T13:11:28Z</time>
      </trkpt>
      <trkpt lat="44.52831" lon="5.54819">
        <ele>1113.34</ele>
        <time>2021-09-29T13:11:40Z</time>
      </trkpt>
      <trkpt lat="44.52827" lon="5.54842">
        <ele>1110.46</ele>
        <time>2021-09-29T13:12:01Z</time>
      </trkpt>
      <trkpt lat="44.52832" lon="5.54859">
        <ele>1107.58</ele>
        <time>2021-09-29T13:12:14Z</time>
      </trkpt>
      <trkpt lat="44.52839" lon="5.54873">
        <ele>1104.21</ele>
        <time>2021-09-29T13:12:28Z</time>
      </trkpt>
      <trkpt lat="44.52848" lon="5.54892">
        <ele>1101.33</ele>
        <time>2021-09-29T13:12:45Z</time>
      </trkpt>
      <trkpt lat="44.52856" lon="5.54912">
        <ele>1097.96</ele>
        <time>2021-09-29T13:13:00Z</time>
      </trkpt>
      <trkpt lat="44.52863" lon="5.54915">
        <ele>1095.08</ele>
        <time>2021-09-29T13:13:12Z</time>
      </trkpt>
      <trkpt lat="44.52873" lon="5.54917">
        <ele>1091.71</ele>
        <time>2021-09-29T13:13:25Z</time>
      </trkpt>
      <trkpt lat="44.52875" lon="5.54919">
        <ele>1089.31</ele>
        <time>2021-09-29T13:13:45Z</time>
      </trkpt>
      <trkpt lat="44.5288" lon="5.54921">
        <ele>1086.91</ele>
        <time>2021-09-29T13:14:04Z</time>
      </trkpt>
      <trkpt lat="44.52881" lon="5.54921">
        <ele>1085.95</ele>
        <time>2021-09-29T13:14:25Z</time>
      </trkpt>
      <trkpt lat="44.52881" lon="5.54921">
        <ele>1085.47</ele>
        <time>2021-09-29T13:14:42Z</time>
      </trkpt>
      <trkpt lat="44.52881" lon="5.5492">
        <ele>1084.99</ele>
        <time>2021-09-29T13:15:16Z</time>
      </trkpt>
      <trkpt lat="44.52882" lon="5.5492">
        <ele>1083.54</ele>
        <time>2021-09-29T13:15:30Z</time>
      </trkpt>
      <trkpt lat="44.52882" lon="5.5492">
        <ele>1086.43</ele>
        <time>2021-09-29T13:16:14Z</time>
      </trkpt>
      <trkpt lat="44.52882" lon="5.5492">
        <ele>1087.39</ele>
        <time>2021-09-29T13:16:17Z</time>
      </trkpt>
      <trkpt lat="44.52882" lon="5.54921">
        <ele>1085.95</ele>
        <time>2021-09-29T13:16:57Z</time>
      </trkpt>
      <trkpt lat="44.52882" lon="5.54922">
        <ele>1085.95</ele>
        <time>2021-09-29T13:17:22Z</time>
      </trkpt>
      <trkpt lat="44.52881" lon="5.54924">
        <ele>1086.43</ele>
        <time>2021-09-29T13:17:54Z</time>
      </trkpt>
      <trkpt lat="44.52881" lon="5.54924">
        <ele>1086.43</ele>
        <time>2021-09-29T13:18:16Z</time>
      </trkpt>
      <trkpt lat="44.52876" lon="5.54936">
        <ele>1086.91</ele>
        <time>2021-09-29T13:18:32Z</time>
      </trkpt>
      <trkpt lat="44.52874" lon="5.54939">
        <ele>1087.39</ele>
        <time>2021-09-29T13:18:34Z</time>
      </trkpt>
      <trkpt lat="44.52862" lon="5.54949">
        <ele>1088.35</ele>
        <time>2021-09-29T13:18:50Z</time>
      </trkpt>
      <trkpt lat="44.52857" lon="5.54951">
        <ele>1088.35</ele>
        <time>2021-09-29T13:18:55Z</time>
      </trkpt>
      <trkpt lat="44.52841" lon="5.54954">
        <ele>1087.39</ele>
        <time>2021-09-29T13:19:13Z</time>
      </trkpt>
      <trkpt lat="44.52833" lon="5.54957">
        <ele>1086.43</ele>
        <time>2021-09-29T13:19:31Z</time>
      </trkpt>
      <trkpt lat="44.52831" lon="5.54956">
        <ele>1085.47</ele>
        <time>2021-09-29T13:19:51Z</time>
      </trkpt>
      <trkpt lat="44.52828" lon="5.54953">
        <ele>1084.5</ele>
        <time>2021-09-29T13:20:11Z</time>
      </trkpt>
      <trkpt lat="44.52824" lon="5.54948">
        <ele>1084.02</ele>
        <time>2021-09-29T13:20:27Z</time>
      </trkpt>
      <trkpt lat="44.52813" lon="5.54932">
        <ele>1081.62</ele>
        <time>2021-09-29T13:20:47Z</time>
      </trkpt>
      <trkpt lat="44.52803" lon="5.54916">
        <ele>1079.7</ele>
        <time>2021-09-29T13:21:08Z</time>
      </trkpt>
      <trkpt lat="44.52793" lon="5.54907">
        <ele>1077.78</ele>
        <time>2021-09-29T13:21:31Z</time>
      </trkpt>
      <trkpt lat="44.52785" lon="5.54906">
        <ele>1076.33</ele>
        <time>2021-09-29T13:21:39Z</time>
      </trkpt>
      <trkpt lat="44.5278" lon="5.54905">
        <ele>1076.33</ele>
        <time>2021-09-29T13:21:43Z</time>
      </trkpt>
      <trkpt lat="44.52766" lon="5.54904">
        <ele>1074.41</ele>
        <time>2021-09-29T13:21:55Z</time>
      </trkpt>
      <trkpt lat="44.52754" lon="5.54901">
        <ele>1072.49</ele>
        <time>2021-09-29T13:22:11Z</time>
      </trkpt>
      <trkpt lat="44.52749" lon="5.54898">
        <ele>1071.05</ele>
        <time>2021-09-29T13:22:18Z</time>
      </trkpt>
      <trkpt lat="44.52744" lon="5.54897">
        <ele>1070.08</ele>
        <time>2021-09-29T13:22:22Z</time>
      </trkpt>
      <trkpt lat="44.52727" lon="5.54888">
        <ele>1067.68</ele>
        <time>2021-09-29T13:22:40Z</time>
      </trkpt>
      <trkpt lat="44.52703" lon="5.54885">
        <ele>1064.8</ele>
        <time>2021-09-29T13:23:00Z</time>
      </trkpt>
      <trkpt lat="44.5268" lon="5.5488">
        <ele>1062.39</ele>
        <time>2021-09-29T13:23:20Z</time>
      </trkpt>
      <trkpt lat="44.52673" lon="5.54878">
        <ele>1061.91</ele>
        <time>2021-09-29T13:23:27Z</time>
      </trkpt>
      <trkpt lat="44.52671" lon="5.54877">
        <ele>1061.43</ele>
        <time>2021-09-29T13:23:29Z</time>
      </trkpt>
      <trkpt lat="44.5265" lon="5.54861">
        <ele>1061.43</ele>
        <time>2021-09-29T13:23:56Z</time>
      </trkpt>
      <trkpt lat="44.52626" lon="5.5483">
        <ele>1062.39</ele>
        <time>2021-09-29T13:24:21Z</time>
      </trkpt>
      <trkpt lat="44.52609" lon="5.54807">
        <ele>1062.39</ele>
        <time>2021-09-29T13:24:40Z</time>
      </trkpt>
      <trkpt lat="44.52594" lon="5.54791">
        <ele>1064.32</ele>
        <time>2021-09-29T13:24:58Z</time>
      </trkpt>
      <trkpt lat="44.52581" lon="5.54773">
        <ele>1066.24</ele>
        <time>2021-09-29T13:25:15Z</time>
      </trkpt>
      <trkpt lat="44.52571" lon="5.54755">
        <ele>1067.68</ele>
        <time>2021-09-29T13:25:31Z</time>
      </trkpt>
      <trkpt lat="44.52554" lon="5.5474">
        <ele>1069.12</ele>
        <time>2021-09-29T13:25:49Z</time>
      </trkpt>
      <trkpt lat="44.52541" lon="5.54729">
        <ele>1068.64</ele>
        <time>2021-09-29T13:26:07Z</time>
      </trkpt>
      <trkpt lat="44.52523" lon="5.54713">
        <ele>1067.68</ele>
        <time>2021-09-29T13:26:26Z</time>
      </trkpt>
      <trkpt lat="44.52511" lon="5.54702">
        <ele>1068.64</ele>
        <time>2021-09-29T13:26:43Z</time>
      </trkpt>
      <trkpt lat="44.52503" lon="5.54689">
        <ele>1069.6</ele>
        <time>2021-09-29T13:26:58Z</time>
      </trkpt>
      <trkpt lat="44.52496" lon="5.5467">
        <ele>1072.97</ele>
        <time>2021-09-29T13:27:19Z</time>
      </trkpt>
      <trkpt lat="44.52497" lon="5.54657">
        <ele>1074.89</ele>
        <time>2021-09-29T13:27:39Z</time>
      </trkpt>
      <trkpt lat="44.52498" lon="5.54647">
        <ele>1074.41</ele>
        <time>2021-09-29T13:27:53Z</time>
      </trkpt>
      <trkpt lat="44.52497" lon="5.54646">
        <ele>1073.93</ele>
        <time>2021-09-29T13:27:54Z</time>
      </trkpt>
      <trkpt lat="44.52497" lon="5.54644">
        <ele>1073.93</ele>
        <time>2021-09-29T13:27:55Z</time>
      </trkpt>
      <trkpt lat="44.52497" lon="5.54643">
        <ele>1073.93</ele>
        <time>2021-09-29T13:27:56Z</time>
      </trkpt>
      <trkpt lat="44.52497" lon="5.5463">
        <ele>1071.05</ele>
        <time>2021-09-29T13:28:06Z</time>
      </trkpt>
      <trkpt lat="44.52496" lon="5.54623">
        <ele>1070.08</ele>
        <time>2021-09-29T13:28:11Z</time>
      </trkpt>
      <trkpt lat="44.52495" lon="5.54621">
        <ele>1070.08</ele>
        <time>2021-09-29T13:28:12Z</time>
      </trkpt>
      <trkpt lat="44.52494" lon="5.5462">
        <ele>1070.08</ele>
        <time>2021-09-29T13:28:13Z</time>
      </trkpt>
      <trkpt lat="44.52482" lon="5.5462">
        <ele>1066.72</ele>
        <time>2021-09-29T13:28:29Z</time>
      </trkpt>
      <trkpt lat="44.52472" lon="5.54612">
        <ele>1063.84</ele>
        <time>2021-09-29T13:28:41Z</time>
      </trkpt>
      <trkpt lat="44.52462" lon="5.54603">
        <ele>1060.47</ele>
        <time>2021-09-29T13:28:55Z</time>
      </trkpt>
      <trkpt lat="44.5246" lon="5.54603">
        <ele>1059.99</ele>
        <time>2021-09-29T13:28:56Z</time>
      </trkpt>
      <trkpt lat="44.52459" lon="5.54603">
        <ele>1059.99</ele>
        <time>2021-09-29T13:28:57Z</time>
      </trkpt>
      <trkpt lat="44.52447" lon="5.54596">
        <ele>1056.63</ele>
        <time>2021-09-29T13:29:12Z</time>
      </trkpt>
      <trkpt lat="44.52438" lon="5.54589">
        <ele>1053.26</ele>
        <time>2021-09-29T13:29:28Z</time>
      </trkpt>
      <trkpt lat="44.52432" lon="5.54589">
        <ele>1050.38</ele>
        <time>2021-09-29T13:29:39Z</time>
      </trkpt>
      <trkpt lat="44.52423" lon="5.54583">
        <ele>1047.49</ele>
        <time>2021-09-29T13:29:53Z</time>
      </trkpt>
      <trkpt lat="44.52416" lon="5.54577">
        <ele>1044.13</ele>
        <time>2021-09-29T13:30:04Z</time>
      </trkpt>
      <trkpt lat="44.52406" lon="5.54568">
        <ele>1040.76</ele>
        <time>2021-09-29T13:30:17Z</time>
      </trkpt>
      <trkpt lat="44.524" lon="5.54554">
        <ele>1037.88</ele>
        <time>2021-09-29T13:30:29Z</time>
      </trkpt>
      <trkpt lat="44.52395" lon="5.54541">
        <ele>1034.52</ele>
        <time>2021-09-29T13:30:42Z</time>
      </trkpt>
      <trkpt lat="44.52384" lon="5.54536">
        <ele>1031.63</ele>
        <time>2021-09-29T13:30:55Z</time>
      </trkpt>
      <trkpt lat="44.52378" lon="5.54524">
        <ele>1028.75</ele>
        <time>2021-09-29T13:31:12Z</time>
      </trkpt>
      <trkpt lat="44.52369" lon="5.54517">
        <ele>1025.86</ele>
        <time>2021-09-29T13:31:27Z</time>
      </trkpt>
      <trkpt lat="44.52357" lon="5.54511">
        <ele>1022.98</ele>
        <time>2021-09-29T13:31:41Z</time>
      </trkpt>
      <trkpt lat="44.52335" lon="5.54502">
        <ele>1019.62</ele>
        <time>2021-09-29T13:32:05Z</time>
      </trkpt>
      <trkpt lat="44.52319" lon="5.54485">
        <ele>1016.73</ele>
        <time>2021-09-29T13:32:24Z</time>
      </trkpt>
      <trkpt lat="44.52306" lon="5.5447">
        <ele>1013.37</ele>
        <time>2021-09-29T13:32:42Z</time>
      </trkpt>
      <trkpt lat="44.52303" lon="5.54463">
        <ele>1012.41</ele>
        <time>2021-09-29T13:32:47Z</time>
      </trkpt>
      <trkpt lat="44.52297" lon="5.54445">
        <ele>1009.52</ele>
        <time>2021-09-29T13:33:01Z</time>
      </trkpt>
      <trkpt lat="44.52291" lon="5.54434">
        <ele>1006.16</ele>
        <time>2021-09-29T13:33:12Z</time>
      </trkpt>
      <trkpt lat="44.52288" lon="5.5443">
        <ele>1004.23</ele>
        <time>2021-09-29T13:33:32Z</time>
      </trkpt>
      <trkpt lat="44.52287" lon="5.54429">
        <ele>1003.27</ele>
        <time>2021-09-29T13:34:05Z</time>
      </trkpt>
      <trkpt lat="44.52287" lon="5.54429">
        <ele>1004.23</ele>
        <time>2021-09-29T13:34:43Z</time>
      </trkpt>
      <trkpt lat="44.52286" lon="5.54427">
        <ele>1004.23</ele>
        <time>2021-09-29T13:34:54Z</time>
      </trkpt>
      <trkpt lat="44.52286" lon="5.54427">
        <ele>1003.27</ele>
        <time>2021-09-29T13:35:31Z</time>
      </trkpt>
      <trkpt lat="44.52282" lon="5.5442">
        <ele>1003.27</ele>
        <time>2021-09-29T13:35:50Z</time>
      </trkpt>
      <trkpt lat="44.52277" lon="5.54408">
        <ele>1000.39</ele>
        <time>2021-09-29T13:36:02Z</time>
      </trkpt>
      <trkpt lat="44.52273" lon="5.54395">
        <ele>997.02</ele>
        <time>2021-09-29T13:36:16Z</time>
      </trkpt>
      <trkpt lat="44.52268" lon="5.54392">
        <ele>993.66</ele>
        <time>2021-09-29T13:36:25Z</time>
      </trkpt>
      <trkpt lat="44.52266" lon="5.54389">
        <ele>993.18</ele>
        <time>2021-09-29T13:36:27Z</time>
      </trkpt>
      <trkpt lat="44.52266" lon="5.54389">
        <ele>992.22</ele>
        <time>2021-09-29T13:36:28Z</time>
      </trkpt>
      <trkpt lat="44.52257" lon="5.5438">
        <ele>989.33</ele>
        <time>2021-09-29T13:36:40Z</time>
      </trkpt>
      <trkpt lat="44.52256" lon="5.54377">
        <ele>988.85</ele>
        <time>2021-09-29T13:36:42Z</time>
      </trkpt>
      <trkpt lat="44.52249" lon="5.54369">
        <ele>985.97</ele>
        <time>2021-09-29T13:36:54Z</time>
      </trkpt>
      <trkpt lat="44.52238" lon="5.54367">
        <ele>983.57</ele>
        <time>2021-09-29T13:37:12Z</time>
      </trkpt>
      <trkpt lat="44.5223" lon="5.54364">
        <ele>980.2</ele>
        <time>2021-09-29T13:37:26Z</time>
      </trkpt>
      <trkpt lat="44.52221" lon="5.54358">
        <ele>977.32</ele>
        <time>2021-09-29T13:37:37Z</time>
      </trkpt>
      <trkpt lat="44.52204" lon="5.54345">
        <ele>973.95</ele>
        <time>2021-09-29T13:37:55Z</time>
      </trkpt>
      <trkpt lat="44.52194" lon="5.54343">
        <ele>971.07</ele>
        <time>2021-09-29T13:38:08Z</time>
      </trkpt>
      <trkpt lat="44.52186" lon="5.54336">
        <ele>968.18</ele>
        <time>2021-09-29T13:38:21Z</time>
      </trkpt>
      <trkpt lat="44.52184" lon="5.54334">
        <ele>967.7</ele>
        <time>2021-09-29T13:38:23Z</time>
      </trkpt>
      <trkpt lat="44.52176" lon="5.54331">
        <ele>967.22</ele>
        <time>2021-09-29T13:38:29Z</time>
      </trkpt>
      <trkpt lat="44.52175" lon="5.54331">
        <ele>967.22</ele>
        <time>2021-09-29T13:38:30Z</time>
      </trkpt>
      <trkpt lat="44.52153" lon="5.54314">
        <ele>965.3</ele>
        <time>2021-09-29T13:38:49Z</time>
      </trkpt>
      <trkpt lat="44.52136" lon="5.54304">
        <ele>962.42</ele>
        <time>2021-09-29T13:39:07Z</time>
      </trkpt>
      <trkpt lat="44.52125" lon="5.54297">
        <ele>959.53</ele>
        <time>2021-09-29T13:39:24Z</time>
      </trkpt>
      <trkpt lat="44.52121" lon="5.54294">
        <ele>958.57</ele>
        <time>2021-09-29T13:39:33Z</time>
      </trkpt>
      <trkpt lat="44.52119" lon="5.54293">
        <ele>958.57</ele>
        <time>2021-09-29T13:39:35Z</time>
      </trkpt>
      <trkpt lat="44.52103" lon="5.54289">
        <ele>955.21</ele>
        <time>2021-09-29T13:39:50Z</time>
      </trkpt>
      <trkpt lat="44.52089" lon="5.54288">
        <ele>952.32</ele>
        <time>2021-09-29T13:40:05Z</time>
      </trkpt>
      <trkpt lat="44.5208" lon="5.54285">
        <ele>949.44</ele>
        <time>2021-09-29T13:40:22Z</time>
      </trkpt>
      <trkpt lat="44.52071" lon="5.54271">
        <ele>946.56</ele>
        <time>2021-09-29T13:40:36Z</time>
      </trkpt>
      <trkpt lat="44.52066" lon="5.54259">
        <ele>944.63</ele>
        <time>2021-09-29T13:40:54Z</time>
      </trkpt>
      <trkpt lat="44.52053" lon="5.54243">
        <ele>942.23</ele>
        <time>2021-09-29T13:41:17Z</time>
      </trkpt>
      <trkpt lat="44.52038" lon="5.54229">
        <ele>940.79</ele>
        <time>2021-09-29T13:41:32Z</time>
      </trkpt>
      <trkpt lat="44.52022" lon="5.54222">
        <ele>938.38</ele>
        <time>2021-09-29T13:41:46Z</time>
      </trkpt>
      <trkpt lat="44.52017" lon="5.54223">
        <ele>937.42</ele>
        <time>2021-09-29T13:42:04Z</time>
      </trkpt>
      <trkpt lat="44.52005" lon="5.54223">
        <ele>935.98</ele>
        <time>2021-09-29T13:42:25Z</time>
      </trkpt>
      <trkpt lat="44.51997" lon="5.54223">
        <ele>935.02</ele>
        <time>2021-09-29T13:42:33Z</time>
      </trkpt>
      <trkpt lat="44.51977" lon="5.54222">
        <ele>935.02</ele>
        <time>2021-09-29T13:42:52Z</time>
      </trkpt>
      <trkpt lat="44.51955" lon="5.54219">
        <ele>935.02</ele>
        <time>2021-09-29T13:43:11Z</time>
      </trkpt>
      <trkpt lat="44.51932" lon="5.54213">
        <ele>933.58</ele>
        <time>2021-09-29T13:43:32Z</time>
      </trkpt>
      <trkpt lat="44.51908" lon="5.54211">
        <ele>933.1</ele>
        <time>2021-09-29T13:43:54Z</time>
      </trkpt>
      <trkpt lat="44.51887" lon="5.54216">
        <ele>932.62</ele>
        <time>2021-09-29T13:44:15Z</time>
      </trkpt>
      <trkpt lat="44.51873" lon="5.54219">
        <ele>932.14</ele>
        <time>2021-09-29T13:44:29Z</time>
      </trkpt>
      <trkpt lat="44.51871" lon="5.54219">
        <ele>932.14</ele>
        <time>2021-09-29T13:44:30Z</time>
      </trkpt>
      <trkpt lat="44.51857" lon="5.54221">
        <ele>931.17</ele>
        <time>2021-09-29T13:44:46Z</time>
      </trkpt>
      <trkpt lat="44.51851" lon="5.54225">
        <ele>930.69</ele>
        <time>2021-09-29T13:44:53Z</time>
      </trkpt>
      <trkpt lat="44.51848" lon="5.54229">
        <ele>929.25</ele>
        <time>2021-09-29T13:45:00Z</time>
      </trkpt>
      <trkpt lat="44.51847" lon="5.5423">
        <ele>929.25</ele>
        <time>2021-09-29T13:45:01Z</time>
      </trkpt>
      <trkpt lat="44.51841" lon="5.54234">
        <ele>926.85</ele>
        <time>2021-09-29T13:45:08Z</time>
      </trkpt>
      <trkpt lat="44.5184" lon="5.54235">
        <ele>926.37</ele>
        <time>2021-09-29T13:45:09Z</time>
      </trkpt>
      <trkpt lat="44.51839" lon="5.54235">
        <ele>926.37</ele>
        <time>2021-09-29T13:45:10Z</time>
      </trkpt>
      <trkpt lat="44.51826" lon="5.5424">
        <ele>923.48</ele>
        <time>2021-09-29T13:45:28Z</time>
      </trkpt>
      <trkpt lat="44.51811" lon="5.54249">
        <ele>921.08</ele>
        <time>2021-09-29T13:45:48Z</time>
      </trkpt>
      <trkpt lat="44.51802" lon="5.54256">
        <ele>918.2</ele>
        <time>2021-09-29T13:46:06Z</time>
      </trkpt>
      <trkpt lat="44.51792" lon="5.54262">
        <ele>915.31</ele>
        <time>2021-09-29T13:46:24Z</time>
      </trkpt>
      <trkpt lat="44.51788" lon="5.54261">
        <ele>912.43</ele>
        <time>2021-09-29T13:46:39Z</time>
      </trkpt>
      <trkpt lat="44.51796" lon="5.54246">
        <ele>910.99</ele>
        <time>2021-09-29T13:46:56Z</time>
      </trkpt>
      <trkpt lat="44.51803" lon="5.54226">
        <ele>909.06</ele>
        <time>2021-09-29T13:47:14Z</time>
      </trkpt>
      <trkpt lat="44.51805" lon="5.54215">
        <ele>908.1</ele>
        <time>2021-09-29T13:47:22Z</time>
      </trkpt>
      <trkpt lat="44.51805" lon="5.54213">
        <ele>908.1</ele>
        <time>2021-09-29T13:47:23Z</time>
      </trkpt>
      <trkpt lat="44.51794" lon="5.54199">
        <ele>906.66</ele>
        <time>2021-09-29T13:47:40Z</time>
      </trkpt>
      <trkpt lat="44.51789" lon="5.54196">
        <ele>906.66</ele>
        <time>2021-09-29T13:47:46Z</time>
      </trkpt>
      <trkpt lat="44.51775" lon="5.54185">
        <ele>905.22</ele>
        <time>2021-09-29T13:48:04Z</time>
      </trkpt>
      <trkpt lat="44.5177" lon="5.54176">
        <ele>904.26</ele>
        <time>2021-09-29T13:48:21Z</time>
      </trkpt>
      <trkpt lat="44.51771" lon="5.54172">
        <ele>903.3</ele>
        <time>2021-09-29T13:48:40Z</time>
      </trkpt>
      <trkpt lat="44.51771" lon="5.54173">
        <ele>903.3</ele>
        <time>2021-09-29T13:49:02Z</time>
      </trkpt>
      <trkpt lat="44.5177" lon="5.54173">
        <ele>903.78</ele>
        <time>2021-09-29T13:49:21Z</time>
      </trkpt>
      <trkpt lat="44.51771" lon="5.54174">
        <ele>902.82</ele>
        <time>2021-09-29T13:49:51Z</time>
      </trkpt>
      <trkpt lat="44.51771" lon="5.54174">
        <ele>903.78</ele>
        <time>2021-09-29T13:49:56Z</time>
      </trkpt>
    </trkseg>
  </trk>
</gpx>